PWSweather.com
Personal Weather Stations
Station Observations
HVALPSUND
Hvalpsund, FarsoeDK 9640

HvalpsundFarsoeDK 9640

Lat: 56.705311, Lon: 9.203638

Elevation: 5

Station Type: Vantage Pro2

http://hvalpsundvejr.dk

High Low Average
Temperature 40.0°F4.4°C 34.2°F1.2°C 36.3°F2.4°C
Dew Point 35.5°F1.9°C 29.8°F-1.2°C 31.9°F-0.1°C
Winds 38.8 mph 62.4 kmh 5.1 mph 8.2 kmh 21.0 mph WSW33.8 kmh WSW
Wind Gusts 49.0 mph78.9 kmh 7.0 mph11.3 kmh 26.0 mph41.8 kmh
Humidity 91% 73% 84%
Pressure 29.69 in1005.4 mb 28.91 in979.0 mb -
Precipitation 0.11 in2.8 mm - -
Hour Temp Dew Point Humidity Winds Wind Gusts Pressure Precip Precip Rate Daily Precip Total
12:00 AM 37.5°F3.1°C 35.1°F1.7°C 91% 14.5 mph SW23.3 kmh SW 21.0 mph33.8 kmh 28.91 in979.0 mb 0.03 in0.8 mm 0.00 in0.0 mm 0.11 in2.8 mm
12:01 AM 37.6°F3.1°C 35.2°F1.8°C 91% 13.8 mph SW22.2 kmh SW 21.0 mph33.8 kmh 28.91 in979.0 mb 0.03 in0.8 mm 0.00 in0.0 mm 0.03 in0.8 mm
12:02 AM 37.6°F3.1°C 35.2°F1.8°C 91% 14.3 mph SW23.0 kmh SW 19.0 mph30.6 kmh 28.91 in979.0 mb 0.03 in0.8 mm 0.00 in0.0 mm 0.03 in0.8 mm
12:03 AM 37.5°F3.1°C 35.1°F1.7°C 91% 15.6 mph SSW25.1 kmh SSW 21.0 mph33.8 kmh 28.91 in979.0 mb 0.03 in0.8 mm 0.00 in0.0 mm 0.03 in0.8 mm
12:04 AM 37.5°F3.1°C 35.1°F1.7°C 91% 13.0 mph SW20.9 kmh SW 21.0 mph33.8 kmh 28.91 in979.0 mb 0.03 in0.8 mm 0.00 in0.0 mm 0.03 in0.8 mm
12:05 AM 37.6°F3.1°C 35.2°F1.8°C 91% 12.2 mph SW19.6 kmh SW 21.0 mph33.8 kmh 28.91 in979.0 mb 0.03 in0.8 mm 0.00 in0.0 mm 0.03 in0.8 mm
12:06 AM 37.6°F3.1°C 35.2°F1.8°C 91% 16.0 mph SW25.7 kmh SW 21.0 mph33.8 kmh 28.91 in979.0 mb 0.03 in0.8 mm 0.00 in0.0 mm 0.03 in0.8 mm
12:07 AM 37.7°F3.2°C 35.3°F1.8°C 91% 15.0 mph SSW24.1 kmh SSW 21.0 mph33.8 kmh 28.91 in979.0 mb 0.03 in0.8 mm 0.00 in0.0 mm 0.03 in0.8 mm
12:08 AM 37.6°F3.1°C 35.2°F1.8°C 91% 19.9 mph SW32.0 kmh SW 24.0 mph38.6 kmh 28.91 in979.0 mb 0.03 in0.8 mm 0.00 in0.0 mm 0.03 in0.8 mm
12:09 AM 37.7°F3.2°C 35.3°F1.8°C 91% 18.8 mph SSW30.3 kmh SSW 25.0 mph40.2 kmh 28.91 in979.0 mb 0.03 in0.8 mm 0.00 in0.0 mm 0.03 in0.8 mm
12:10 AM 37.8°F3.2°C 35.4°F1.9°C 91% 16.7 mph SW26.9 kmh SW 25.0 mph40.2 kmh 28.91 in979.0 mb 0.03 in0.8 mm 0.00 in0.0 mm 0.03 in0.8 mm
12:11 AM 37.8°F3.2°C 35.1°F1.7°C 90% 16.2 mph SSW26.1 kmh SSW 23.0 mph37.0 kmh 28.91 in979.0 mb 0.03 in0.8 mm 0.00 in0.0 mm 0.03 in0.8 mm
12:12 AM 37.8°F3.2°C 35.1°F1.7°C 90% 14.9 mph SSW24.0 kmh SSW 21.0 mph33.8 kmh 28.91 in979.0 mb 0.03 in0.8 mm 0.00 in0.0 mm 0.03 in0.8 mm
12:13 AM 37.8°F3.2°C 35.1°F1.7°C 90% 13.4 mph SW21.6 kmh SW 22.0 mph35.4 kmh 28.91 in979.0 mb 0.03 in0.8 mm 0.00 in0.0 mm 0.03 in0.8 mm
12:14 AM 37.9°F3.3°C 35.2°F1.8°C 90% 18.5 mph SW29.8 kmh SW 24.0 mph38.6 kmh 28.91 in979.0 mb 0.02 in0.5 mm 0.00 in0.0 mm 0.03 in0.8 mm
12:15 AM 37.9°F3.3°C 35.2°F1.8°C 90% 17.4 mph SW28.0 kmh SW 24.0 mph38.6 kmh 28.91 in979.0 mb 0.02 in0.5 mm 0.00 in0.0 mm 0.03 in0.8 mm
12:16 AM 38.0°F3.3°C 35.3°F1.8°C 90% 17.2 mph SW27.7 kmh SW 23.0 mph37.0 kmh 28.91 in979.0 mb 0.02 in0.5 mm 0.00 in0.0 mm 0.03 in0.8 mm
12:17 AM 37.9°F3.3°C 35.2°F1.8°C 90% 16.3 mph SW26.2 kmh SW 23.0 mph37.0 kmh 28.91 in979.0 mb 0.02 in0.5 mm 0.00 in0.0 mm 0.03 in0.8 mm
12:18 AM 38.0°F3.3°C 35.3°F1.8°C 90% 20.8 mph SW33.5 kmh SW 28.0 mph45.1 kmh 28.91 in979.0 mb 0.02 in0.5 mm 0.00 in0.0 mm 0.03 in0.8 mm
12:19 AM 38.1°F3.4°C 35.4°F1.9°C 90% 15.7 mph SW25.3 kmh SW 28.0 mph45.1 kmh 28.91 in979.0 mb 0.02 in0.5 mm 0.00 in0.0 mm 0.03 in0.8 mm
12:20 AM 38.1°F3.4°C 35.4°F1.9°C 90% 15.2 mph SW24.5 kmh SW 22.0 mph35.4 kmh 28.91 in979.0 mb 0.02 in0.5 mm 0.00 in0.0 mm 0.03 in0.8 mm
12:21 AM 38.1°F3.4°C 35.4°F1.9°C 90% 22.8 mph SW36.7 kmh SW 31.0 mph49.9 kmh 28.91 in979.0 mb 0.02 in0.5 mm 0.00 in0.0 mm 0.03 in0.8 mm
12:22 AM 38.1°F3.4°C 35.4°F1.9°C 90% 19.1 mph SW30.7 kmh SW 31.0 mph49.9 kmh 28.91 in979.0 mb 0.02 in0.5 mm 0.00 in0.0 mm 0.03 in0.8 mm
12:23 AM 38.2°F3.4°C 35.2°F1.8°C 89% 16.7 mph SW26.9 kmh SW 28.0 mph45.1 kmh 28.91 in979.0 mb 0.02 in0.5 mm 0.00 in0.0 mm 0.03 in0.8 mm
12:24 AM 38.2°F3.4°C 35.2°F1.8°C 89% 20.3 mph SW32.7 kmh SW 30.0 mph48.3 kmh 28.92 in979.3 mb 0.02 in0.5 mm 0.00 in0.0 mm 0.03 in0.8 mm
12:25 AM 38.2°F3.4°C 35.5°F1.9°C 90% 19.9 mph SW32.0 kmh SW 30.0 mph48.3 kmh 28.91 in979.0 mb 0.02 in0.5 mm 0.00 in0.0 mm 0.03 in0.8 mm
12:26 AM 38.2°F3.4°C 35.5°F1.9°C 90% 15.4 mph SW24.8 kmh SW 29.0 mph46.7 kmh 28.91 in979.0 mb 0.02 in0.5 mm 0.00 in0.0 mm 0.03 in0.8 mm
12:27 AM 38.2°F3.4°C 35.2°F1.8°C 89% 17.9 mph SW28.8 kmh SW 25.0 mph40.2 kmh 28.92 in979.3 mb 0.02 in0.5 mm 0.00 in0.0 mm 0.03 in0.8 mm
12:28 AM 38.2°F3.4°C 35.2°F1.8°C 89% 19.5 mph SW31.4 kmh SW 26.0 mph41.8 kmh 28.91 in979.0 mb 0.02 in0.5 mm 0.00 in0.0 mm 0.03 in0.8 mm
12:29 AM 38.2°F3.4°C 35.2°F1.8°C 89% 19.6 mph SW31.5 kmh SW 27.0 mph43.5 kmh 28.91 in979.0 mb 0.02 in0.5 mm 0.00 in0.0 mm 0.03 in0.8 mm
12:30 AM 38.2°F3.4°C 35.2°F1.8°C 89% 22.4 mph SW36.0 kmh SW 32.0 mph51.5 kmh 28.92 in979.3 mb 0.02 in0.5 mm 0.00 in0.0 mm 0.03 in0.8 mm
12:31 AM 38.2°F3.4°C 35.2°F1.8°C 89% 20.9 mph SW33.6 kmh SW 32.0 mph51.5 kmh 28.91 in979.0 mb 0.02 in0.5 mm 0.00 in0.0 mm 0.03 in0.8 mm
12:32 AM 38.2°F3.4°C 35.2°F1.8°C 89% 17.3 mph SW27.8 kmh SW 24.0 mph38.6 kmh 28.92 in979.3 mb 0.02 in0.5 mm 0.00 in0.0 mm 0.03 in0.8 mm
12:33 AM 38.2°F3.4°C 35.2°F1.8°C 89% 20.6 mph SW33.2 kmh SW 34.0 mph54.7 kmh 28.92 in979.3 mb 0.01 in0.3 mm 0.00 in0.0 mm 0.03 in0.8 mm
12:34 AM 38.2°F3.4°C 35.2°F1.8°C 89% 25.2 mph SW40.6 kmh SW 34.0 mph54.7 kmh 28.92 in979.3 mb 0.01 in0.3 mm 0.00 in0.0 mm 0.03 in0.8 mm
12:35 AM 38.3°F3.5°C 35.3°F1.8°C 89% 23.0 mph SW37.0 kmh SW 34.0 mph54.7 kmh 28.92 in979.3 mb 0.01 in0.3 mm 0.00 in0.0 mm 0.03 in0.8 mm
12:36 AM 38.2°F3.4°C 35.2°F1.8°C 89% 20.9 mph SW33.6 kmh SW 32.0 mph51.5 kmh 28.91 in979.0 mb 0.01 in0.3 mm 0.00 in0.0 mm 0.03 in0.8 mm
12:37 AM 38.3°F3.5°C 35.3°F1.8°C 89% 19.4 mph SW31.2 kmh SW 26.0 mph41.8 kmh 28.92 in979.3 mb 0.01 in0.3 mm 0.00 in0.0 mm 0.03 in0.8 mm
12:38 AM 38.2°F3.4°C 35.2°F1.8°C 89% 20.3 mph SW32.7 kmh SW 27.0 mph43.5 kmh 28.92 in979.3 mb 0.01 in0.3 mm 0.00 in0.0 mm 0.03 in0.8 mm
12:39 AM 38.1°F3.4°C 35.2°F1.8°C 89% 21.4 mph SW34.4 kmh SW 29.0 mph46.7 kmh 28.92 in979.3 mb 0.01 in0.3 mm 0.00 in0.0 mm 0.03 in0.8 mm
12:40 AM 38.1°F3.4°C 35.2°F1.8°C 89% 20.2 mph SW32.5 kmh SW 29.0 mph46.7 kmh 28.92 in979.3 mb 0.01 in0.3 mm 0.00 in0.0 mm 0.03 in0.8 mm
12:41 AM 38.1°F3.4°C 35.2°F1.8°C 89% 18.2 mph SW29.3 kmh SW 26.0 mph41.8 kmh 28.92 in979.3 mb 0.01 in0.3 mm 0.00 in0.0 mm 0.03 in0.8 mm
12:42 AM 38.0°F3.3°C 35.1°F1.7°C 89% 23.5 mph SW37.8 kmh SW 31.0 mph49.9 kmh 28.92 in979.3 mb 0.01 in0.3 mm 0.00 in0.0 mm 0.03 in0.8 mm
12:43 AM 38.0°F3.3°C 35.1°F1.7°C 89% 20.8 mph SW33.5 kmh SW 31.0 mph49.9 kmh 28.92 in979.3 mb 0.01 in0.3 mm 0.00 in0.0 mm 0.03 in0.8 mm
12:44 AM 38.0°F3.3°C 35.1°F1.7°C 89% 18.5 mph SW29.8 kmh SW 27.0 mph43.5 kmh 28.92 in979.3 mb 0.01 in0.3 mm 0.00 in0.0 mm 0.03 in0.8 mm
12:45 AM 37.9°F3.3°C 35.0°F1.7°C 89% 18.5 mph SW29.8 kmh SW 25.0 mph40.2 kmh 28.92 in979.3 mb 0.01 in0.3 mm 0.00 in0.0 mm 0.03 in0.8 mm
12:46 AM 37.8°F3.2°C 34.9°F1.6°C 89% 21.8 mph SW35.1 kmh SW 27.0 mph43.5 kmh 28.92 in979.3 mb 0.01 in0.3 mm 0.00 in0.0 mm 0.03 in0.8 mm
12:47 AM 37.8°F3.2°C 34.9°F1.6°C 89% 17.9 mph SW28.8 kmh SW 27.0 mph43.5 kmh 28.92 in979.3 mb 0.01 in0.3 mm 0.00 in0.0 mm 0.03 in0.8 mm
12:48 AM 37.8°F3.2°C 34.9°F1.6°C 89% 20.0 mph SW32.2 kmh SW 25.0 mph40.2 kmh 28.92 in979.3 mb 0.02 in0.5 mm 0.60 in15.2 mm 0.01 in0.3 mm
12:49 AM 37.7°F3.2°C 34.8°F1.6°C 89% 22.9 mph SW36.9 kmh SW 33.0 mph53.1 kmh 28.92 in979.3 mb 0.02 in0.5 mm 0.00 in0.0 mm 0.01 in0.3 mm
12:50 AM 37.7°F3.2°C 34.8°F1.6°C 89% 21.4 mph SW34.4 kmh SW 33.0 mph53.1 kmh 28.92 in979.3 mb 0.02 in0.5 mm 0.00 in0.0 mm 0.01 in0.3 mm
12:51 AM 37.7°F3.2°C 34.8°F1.6°C 89% 19.2 mph SW30.9 kmh SW 27.0 mph43.5 kmh 28.92 in979.3 mb 0.02 in0.5 mm 0.00 in0.0 mm 0.01 in0.3 mm
12:52 AM 37.6°F3.1°C 34.7°F1.5°C 89% 25.8 mph SW41.5 kmh SW 29.0 mph46.7 kmh 28.92 in979.3 mb 0.01 in0.3 mm 0.00 in0.0 mm 0.01 in0.3 mm
12:53 AM 37.6°F3.1°C 34.7°F1.5°C 89% 21.1 mph SW34.0 kmh SW 29.0 mph46.7 kmh 28.92 in979.3 mb 0.01 in0.3 mm 0.00 in0.0 mm 0.01 in0.3 mm
12:54 AM 37.6°F3.1°C 34.7°F1.5°C 89% 21.0 mph SW33.8 kmh SW 30.0 mph48.3 kmh 28.92 in979.3 mb 0.01 in0.3 mm 0.00 in0.0 mm 0.01 in0.3 mm
12:55 AM 37.6°F3.1°C 34.7°F1.5°C 89% 21.5 mph SW34.6 kmh SW 30.0 mph48.3 kmh 28.92 in979.3 mb 0.01 in0.3 mm 0.00 in0.0 mm 0.01 in0.3 mm
12:56 AM 37.6°F3.1°C 34.7°F1.5°C 89% 22.8 mph SW36.7 kmh SW 29.0 mph46.7 kmh 28.92 in979.3 mb 0.01 in0.3 mm 0.00 in0.0 mm 0.01 in0.3 mm
12:57 AM 37.6°F3.1°C 34.7°F1.5°C 89% 25.2 mph SW40.6 kmh SW 31.0 mph49.9 kmh 28.92 in979.3 mb 0.01 in0.3 mm 0.00 in0.0 mm 0.01 in0.3 mm
12:58 AM 37.5°F3.1°C 34.6°F1.4°C 89% 27.8 mph SW44.7 kmh SW 36.0 mph57.9 kmh 28.92 in979.3 mb 0.01 in0.3 mm 0.00 in0.0 mm 0.01 in0.3 mm
12:59 AM 37.4°F3.0°C 34.5°F1.4°C 89% 27.8 mph SW44.7 kmh SW 36.0 mph57.9 kmh 28.92 in979.3 mb 0.01 in0.3 mm 0.00 in0.0 mm 0.01 in0.3 mm
01:00 AM 37.3°F2.9°C 34.4°F1.3°C 89% 24.6 mph SW39.6 kmh SW 33.0 mph53.1 kmh 28.92 in979.3 mb 0.01 in0.3 mm 0.00 in0.0 mm 0.01 in0.3 mm
01:01 AM 37.3°F2.9°C 34.4°F1.3°C 89% 27.0 mph SW43.5 kmh SW 35.0 mph56.3 kmh 28.92 in979.3 mb 0.01 in0.3 mm 0.00 in0.0 mm 0.01 in0.3 mm
01:02 AM 37.2°F2.9°C 34.3°F1.3°C 89% 25.4 mph SW40.9 kmh SW 35.0 mph56.3 kmh 28.92 in979.3 mb 0.01 in0.3 mm 0.00 in0.0 mm 0.01 in0.3 mm
01:03 AM 37.1°F2.8°C 34.2°F1.2°C 89% 27.9 mph SW44.9 kmh SW 36.0 mph57.9 kmh 28.92 in979.3 mb 0.01 in0.3 mm 0.00 in0.0 mm 0.01 in0.3 mm
01:04 AM 37.1°F2.8°C 34.2°F1.2°C 89% 27.9 mph SW44.9 kmh SW 34.0 mph54.7 kmh 28.92 in979.3 mb 0.01 in0.3 mm 0.00 in0.0 mm 0.01 in0.3 mm
01:05 AM 37.0°F2.8°C 34.1°F1.2°C 89% 23.6 mph SW38.0 kmh SW 34.0 mph54.7 kmh 28.92 in979.3 mb 0.01 in0.3 mm 0.00 in0.0 mm 0.01 in0.3 mm
01:06 AM 37.0°F2.8°C 34.1°F1.2°C 89% 25.6 mph SW41.2 kmh SW 29.0 mph46.7 kmh 28.92 in979.3 mb 0.01 in0.3 mm 0.00 in0.0 mm 0.01 in0.3 mm
01:07 AM 36.9°F2.7°C 34.0°F1.1°C 89% 28.9 mph SW46.5 kmh SW 36.0 mph57.9 kmh 28.92 in979.3 mb 0.01 in0.3 mm 0.00 in0.0 mm 0.01 in0.3 mm
01:08 AM 37.0°F2.8°C 34.1°F1.2°C 89% 29.0 mph SW46.7 kmh SW 36.0 mph57.9 kmh 28.92 in979.3 mb 0.01 in0.3 mm 0.00 in0.0 mm 0.01 in0.3 mm
01:09 AM 37.0°F2.8°C 34.1°F1.2°C 89% 27.8 mph SW44.7 kmh SW 35.0 mph56.3 kmh 28.92 in979.3 mb 0.01 in0.3 mm 0.00 in0.0 mm 0.01 in0.3 mm
01:10 AM 36.9°F2.7°C 34.0°F1.1°C 89% 25.0 mph SW40.2 kmh SW 33.0 mph53.1 kmh 28.92 in979.3 mb 0.01 in0.3 mm 0.00 in0.0 mm 0.01 in0.3 mm
01:11 AM 36.9°F2.7°C 34.2°F1.2°C 90% 23.9 mph SW38.5 kmh SW 32.0 mph51.5 kmh 28.92 in979.3 mb 0.01 in0.3 mm 0.00 in0.0 mm 0.01 in0.3 mm
01:12 AM 36.9°F2.7°C 34.2°F1.2°C 90% 32.0 mph SW51.5 kmh SW 38.0 mph61.2 kmh 28.92 in979.3 mb 0.01 in0.3 mm 0.00 in0.0 mm 0.01 in0.3 mm
01:13 AM 36.9°F2.7°C 34.2°F1.2°C 90% 32.7 mph SW52.6 kmh SW 39.0 mph62.8 kmh 28.92 in979.3 mb 0.01 in0.3 mm 0.00 in0.0 mm 0.01 in0.3 mm
01:14 AM 36.9°F2.7°C 34.0°F1.1°C 89% 32.8 mph WSW52.8 kmh WSW 39.0 mph62.8 kmh 28.92 in979.3 mb 0.01 in0.3 mm 0.00 in0.0 mm 0.01 in0.3 mm
01:15 AM 37.0°F2.8°C 34.1°F1.2°C 89% 27.1 mph SW43.6 kmh SW 39.0 mph62.8 kmh 28.92 in979.3 mb 0.01 in0.3 mm 0.00 in0.0 mm 0.01 in0.3 mm
01:16 AM 36.9°F2.7°C 34.0°F1.1°C 89% 26.7 mph SW43.0 kmh SW 34.0 mph54.7 kmh 28.92 in979.3 mb 0.01 in0.3 mm 0.00 in0.0 mm 0.01 in0.3 mm
01:17 AM 36.8°F2.7°C 33.9°F1.1°C 89% 30.3 mph SW48.8 kmh SW 34.0 mph54.7 kmh 28.92 in979.3 mb 0.01 in0.3 mm 0.00 in0.0 mm 0.01 in0.3 mm
01:18 AM 36.8°F2.7°C 33.9°F1.1°C 89% 29.3 mph SW47.2 kmh SW 37.0 mph59.5 kmh 28.92 in979.3 mb 0.01 in0.3 mm 0.00 in0.0 mm 0.01 in0.3 mm
01:19 AM 36.8°F2.7°C 33.9°F1.1°C 89% 29.7 mph SW47.8 kmh SW 37.0 mph59.5 kmh 28.92 in979.3 mb 0.01 in0.3 mm 0.00 in0.0 mm 0.01 in0.3 mm
01:20 AM 36.8°F2.7°C 33.9°F1.1°C 89% 29.4 mph SW47.3 kmh SW 38.0 mph61.2 kmh 28.92 in979.3 mb 0.01 in0.3 mm 0.00 in0.0 mm 0.01 in0.3 mm
01:21 AM 36.8°F2.7°C 33.9°F1.1°C 89% 31.6 mph SW50.9 kmh SW 39.0 mph62.8 kmh 28.92 in979.3 mb 0.01 in0.3 mm 0.00 in0.0 mm 0.01 in0.3 mm
01:22 AM 36.8°F2.7°C 33.9°F1.1°C 89% 27.6 mph SW44.4 kmh SW 38.0 mph61.2 kmh 28.93 in979.7 mb 0.01 in0.3 mm 0.00 in0.0 mm 0.01 in0.3 mm
01:23 AM 36.8°F2.7°C 33.9°F1.1°C 89% 30.0 mph SW48.3 kmh SW 39.0 mph62.8 kmh 28.93 in979.7 mb 0.01 in0.3 mm 0.00 in0.0 mm 0.01 in0.3 mm
01:24 AM 36.8°F2.7°C 33.9°F1.1°C 89% 25.5 mph SW41.0 kmh SW 39.0 mph62.8 kmh 28.93 in979.7 mb 0.01 in0.3 mm 0.00 in0.0 mm 0.01 in0.3 mm
01:25 AM 36.8°F2.7°C 33.9°F1.1°C 89% 32.0 mph SW51.5 kmh SW 39.0 mph62.8 kmh 28.93 in979.7 mb 0.01 in0.3 mm 0.00 in0.0 mm 0.01 in0.3 mm
01:26 AM 36.8°F2.7°C 33.9°F1.1°C 89% 30.0 mph SW48.3 kmh SW 39.0 mph62.8 kmh 28.93 in979.7 mb 0.01 in0.3 mm 0.00 in0.0 mm 0.01 in0.3 mm
01:27 AM 36.8°F2.7°C 33.9°F1.1°C 89% 26.7 mph SW43.0 kmh SW 39.0 mph62.8 kmh 28.93 in979.7 mb 0.01 in0.3 mm 0.00 in0.0 mm 0.01 in0.3 mm
01:28 AM 36.8°F2.7°C 33.9°F1.1°C 89% 29.9 mph SW48.1 kmh SW 37.0 mph59.5 kmh 28.93 in979.7 mb 0.01 in0.3 mm 0.00 in0.0 mm 0.01 in0.3 mm
01:29 AM 36.8°F2.7°C 33.9°F1.1°C 89% 30.0 mph SW48.3 kmh SW 42.0 mph67.6 kmh 28.93 in979.7 mb 0.01 in0.3 mm 0.00 in0.0 mm 0.01 in0.3 mm
01:30 AM 36.8°F2.7°C 33.9°F1.1°C 89% 30.1 mph SW48.4 kmh SW 42.0 mph67.6 kmh 28.93 in979.7 mb 0.01 in0.3 mm 0.00 in0.0 mm 0.01 in0.3 mm
01:31 AM 36.7°F2.6°C 33.8°F1.0°C 89% 30.3 mph SW48.8 kmh SW 36.0 mph57.9 kmh 28.93 in979.7 mb 0.01 in0.3 mm 0.00 in0.0 mm 0.01 in0.3 mm
01:32 AM 36.7°F2.6°C 33.8°F1.0°C 89% 27.8 mph SW44.7 kmh SW 36.0 mph57.9 kmh 28.93 in979.7 mb 0.01 in0.3 mm 0.00 in0.0 mm 0.01 in0.3 mm
01:33 AM 36.6°F2.6°C 33.7°F0.9°C 89% 27.4 mph SW44.1 kmh SW 34.0 mph54.7 kmh 28.93 in979.7 mb 0.01 in0.3 mm 0.00 in0.0 mm 0.01 in0.3 mm
01:34 AM 36.5°F2.5°C 33.6°F0.9°C 89% 29.1 mph SW46.8 kmh SW 33.0 mph53.1 kmh 28.93 in979.7 mb 0.01 in0.3 mm 0.00 in0.0 mm 0.01 in0.3 mm
01:35 AM 36.5°F2.5°C 33.9°F1.1°C 90% 30.2 mph SW48.6 kmh SW 36.0 mph57.9 kmh 28.93 in979.7 mb 0.01 in0.3 mm 0.00 in0.0 mm 0.01 in0.3 mm
01:36 AM 36.5°F2.5°C 33.6°F0.9°C 89% 27.5 mph SW44.3 kmh SW 38.0 mph61.2 kmh 28.93 in979.7 mb 0.01 in0.3 mm 0.00 in0.0 mm 0.01 in0.3 mm
01:37 AM 36.5°F2.5°C 33.9°F1.1°C 90% 29.5 mph SW47.5 kmh SW 38.0 mph61.2 kmh 28.93 in979.7 mb 0.01 in0.3 mm 0.00 in0.0 mm 0.01 in0.3 mm
01:38 AM 36.5°F2.5°C 33.6°F0.9°C 89% 31.9 mph SW51.3 kmh SW 37.0 mph59.5 kmh 28.93 in979.7 mb 0.01 in0.3 mm 0.00 in0.0 mm 0.01 in0.3 mm
01:39 AM 36.6°F2.6°C 33.7°F0.9°C 89% 32.7 mph SW52.6 kmh SW 45.0 mph72.4 kmh 28.93 in979.7 mb 0.01 in0.3 mm 0.00 in0.0 mm 0.01 in0.3 mm
01:40 AM 36.6°F2.6°C 33.7°F0.9°C 89% 30.8 mph SW49.6 kmh SW 45.0 mph72.4 kmh 28.93 in979.7 mb 0.01 in0.3 mm 0.00 in0.0 mm 0.01 in0.3 mm
01:41 AM 36.5°F2.5°C 33.6°F0.9°C 89% 32.1 mph SW51.7 kmh SW 41.0 mph66.0 kmh 28.93 in979.7 mb 0.01 in0.3 mm 0.00 in0.0 mm 0.01 in0.3 mm
01:42 AM 36.5°F2.5°C 33.9°F1.1°C 90% 30.3 mph SW48.8 kmh SW 38.0 mph61.2 kmh 28.93 in979.7 mb 0.01 in0.3 mm 0.00 in0.0 mm 0.01 in0.3 mm
01:43 AM 36.4°F2.4°C 33.5°F0.8°C 89% 28.9 mph SW46.5 kmh SW 36.0 mph57.9 kmh 28.93 in979.7 mb 0.01 in0.3 mm 0.00 in0.0 mm 0.01 in0.3 mm
01:44 AM 36.4°F2.4°C 33.8°F1.0°C 90% 31.3 mph SW50.4 kmh SW 38.0 mph61.2 kmh 28.93 in979.7 mb 0.01 in0.3 mm 0.00 in0.0 mm 0.01 in0.3 mm
01:45 AM 36.5°F2.5°C 33.9°F1.1°C 90% 30.5 mph SW49.1 kmh SW 38.0 mph61.2 kmh 28.93 in979.7 mb 0.01 in0.3 mm 0.00 in0.0 mm 0.01 in0.3 mm
01:46 AM 36.4°F2.4°C 33.8°F1.0°C 90% 34.6 mph SW55.7 kmh SW 43.0 mph69.2 kmh 28.93 in979.7 mb 0.01 in0.3 mm 0.00 in0.0 mm 0.01 in0.3 mm
01:47 AM 36.5°F2.5°C 33.6°F0.9°C 89% 32.5 mph SW52.3 kmh SW 43.0 mph69.2 kmh 28.93 in979.7 mb 0.02 in0.5 mm 0.60 in15.2 mm 0.02 in0.5 mm
01:48 AM 36.4°F2.4°C 33.5°F0.8°C 89% 31.4 mph SW50.5 kmh SW 40.0 mph64.4 kmh 28.93 in979.7 mb 0.01 in0.3 mm 0.00 in0.0 mm 0.02 in0.5 mm
01:49 AM 36.3°F2.4°C 33.4°F0.8°C 89% 35.2 mph SW56.6 kmh SW 42.0 mph67.6 kmh 28.93 in979.7 mb 0.01 in0.3 mm 0.00 in0.0 mm 0.02 in0.5 mm
01:50 AM 36.3°F2.4°C 33.4°F0.8°C 89% 31.5 mph WSW50.7 kmh WSW 42.0 mph67.6 kmh 28.94 in980.0 mb 0.01 in0.3 mm 0.00 in0.0 mm 0.02 in0.5 mm
01:51 AM 36.3°F2.4°C 33.4°F0.8°C 89% 28.6 mph SW46.0 kmh SW 38.0 mph61.2 kmh 28.94 in980.0 mb 0.01 in0.3 mm 0.00 in0.0 mm 0.02 in0.5 mm
01:52 AM 36.2°F2.3°C 33.6°F0.9°C 90% 35.0 mph SW56.3 kmh SW 39.0 mph62.8 kmh 28.94 in980.0 mb 0.01 in0.3 mm 0.00 in0.0 mm 0.02 in0.5 mm
01:53 AM 36.1°F2.3°C 33.2°F0.7°C 89% 30.6 mph WSW49.2 kmh WSW 39.0 mph62.8 kmh 28.94 in980.0 mb 0.01 in0.3 mm 0.00 in0.0 mm 0.02 in0.5 mm
01:54 AM 36.0°F2.2°C 33.1°F0.6°C 89% 32.2 mph WSW51.8 kmh WSW 38.0 mph61.2 kmh 28.94 in980.0 mb 0.01 in0.3 mm 0.00 in0.0 mm 0.02 in0.5 mm
01:55 AM 36.0°F2.2°C 33.4°F0.8°C 90% 35.1 mph WSW56.5 kmh WSW 42.0 mph67.6 kmh 28.94 in980.0 mb 0.01 in0.3 mm 0.00 in0.0 mm 0.02 in0.5 mm
01:56 AM 35.9°F2.2°C 33.3°F0.7°C 90% 34.5 mph WSW55.5 kmh WSW 42.0 mph67.6 kmh 28.94 in980.0 mb 0.01 in0.3 mm 0.00 in0.0 mm 0.02 in0.5 mm
01:57 AM 35.9°F2.2°C 33.3°F0.7°C 90% 33.2 mph SW53.4 kmh SW 41.0 mph66.0 kmh 28.94 in980.0 mb 0.01 in0.3 mm 0.00 in0.0 mm 0.02 in0.5 mm
01:58 AM 35.8°F2.1°C 33.2°F0.7°C 90% 31.5 mph WSW50.7 kmh WSW 40.0 mph64.4 kmh 28.94 in980.0 mb 0.01 in0.3 mm 0.00 in0.0 mm 0.02 in0.5 mm
01:59 AM 35.7°F2.1°C 33.1°F0.6°C 90% 29.5 mph SW47.5 kmh SW 37.0 mph59.5 kmh 28.94 in980.0 mb 0.01 in0.3 mm 0.00 in0.0 mm 0.02 in0.5 mm
02:00 AM 35.7°F2.1°C 33.1°F0.6°C 90% 29.2 mph SW47.0 kmh SW 36.0 mph57.9 kmh 28.94 in980.0 mb 0.01 in0.3 mm 0.00 in0.0 mm 0.02 in0.5 mm
02:01 AM 35.6°F2.0°C 33.0°F0.6°C 90% 28.4 mph WSW45.7 kmh WSW 36.0 mph57.9 kmh 28.94 in980.0 mb 0.02 in0.5 mm 0.60 in15.2 mm 0.02 in0.5 mm
02:02 AM 35.5°F1.9°C 32.9°F0.5°C 90% 30.8 mph WSW49.6 kmh WSW 41.0 mph66.0 kmh 28.95 in980.4 mb 0.02 in0.5 mm 0.00 in0.0 mm 0.02 in0.5 mm
02:03 AM 35.5°F1.9°C 32.9°F0.5°C 90% 34.5 mph WSW55.5 kmh WSW 41.0 mph66.0 kmh 28.94 in980.0 mb 0.02 in0.5 mm 0.00 in0.0 mm 0.02 in0.5 mm
02:04 AM 35.4°F1.9°C 32.8°F0.4°C 90% 31.3 mph WSW50.4 kmh WSW 39.0 mph62.8 kmh 28.94 in980.0 mb 0.02 in0.5 mm 0.00 in0.0 mm 0.02 in0.5 mm
02:05 AM 35.4°F1.9°C 32.8°F0.4°C 90% 32.6 mph WSW52.5 kmh WSW 39.0 mph62.8 kmh 28.95 in980.4 mb 0.02 in0.5 mm 0.00 in0.0 mm 0.02 in0.5 mm
02:06 AM 35.3°F1.8°C 32.7°F0.4°C 90% 33.2 mph WSW53.4 kmh WSW 39.0 mph62.8 kmh 28.95 in980.4 mb 0.02 in0.5 mm 0.00 in0.0 mm 0.02 in0.5 mm
02:07 AM 35.3°F1.8°C 32.7°F0.4°C 90% 30.2 mph WSW48.6 kmh WSW 38.0 mph61.2 kmh 28.95 in980.4 mb 0.02 in0.5 mm 0.00 in0.0 mm 0.02 in0.5 mm
02:08 AM 35.3°F1.8°C 32.7°F0.4°C 90% 30.8 mph WSW49.6 kmh WSW 35.0 mph56.3 kmh 28.95 in980.4 mb 0.02 in0.5 mm 0.00 in0.0 mm 0.02 in0.5 mm
02:09 AM 35.3°F1.8°C 32.7°F0.4°C 90% 35.4 mph WSW57.0 kmh WSW 41.0 mph66.0 kmh 28.95 in980.4 mb 0.02 in0.5 mm 0.00 in0.0 mm 0.02 in0.5 mm
02:10 AM 35.3°F1.8°C 32.7°F0.4°C 90% 32.0 mph WSW51.5 kmh WSW 41.0 mph66.0 kmh 28.95 in980.4 mb 0.02 in0.5 mm 0.00 in0.0 mm 0.02 in0.5 mm
02:11 AM 35.3°F1.8°C 32.7°F0.4°C 90% 31.5 mph WSW50.7 kmh WSW 38.0 mph61.2 kmh 28.95 in980.4 mb 0.02 in0.5 mm 0.00 in0.0 mm 0.03 in0.8 mm
02:12 AM 35.3°F1.8°C 32.7°F0.4°C 90% 31.8 mph WSW51.2 kmh WSW 37.0 mph59.5 kmh 28.95 in980.4 mb 0.02 in0.5 mm 0.00 in0.0 mm 0.03 in0.8 mm
02:13 AM 35.3°F1.8°C 32.7°F0.4°C 90% 29.4 mph WSW47.3 kmh WSW 37.0 mph59.5 kmh 28.95 in980.4 mb 0.02 in0.5 mm 0.00 in0.0 mm 0.03 in0.8 mm
02:14 AM 35.4°F1.9°C 32.8°F0.4°C 90% 32.5 mph WSW52.3 kmh WSW 37.0 mph59.5 kmh 28.95 in980.4 mb 0.02 in0.5 mm 0.00 in0.0 mm 0.03 in0.8 mm
02:15 AM 35.4°F1.9°C 32.8°F0.4°C 90% 31.2 mph WSW50.2 kmh WSW 37.0 mph59.5 kmh 28.95 in980.4 mb 0.02 in0.5 mm 0.00 in0.0 mm 0.03 in0.8 mm
02:16 AM 35.4°F1.9°C 32.8°F0.4°C 90% 29.1 mph WSW46.8 kmh WSW 37.0 mph59.5 kmh 28.95 in980.4 mb 0.02 in0.5 mm 0.00 in0.0 mm 0.03 in0.8 mm
02:17 AM 35.4°F1.9°C 32.8°F0.4°C 90% 28.5 mph WSW45.9 kmh WSW 36.0 mph57.9 kmh 28.95 in980.4 mb 0.02 in0.5 mm 0.00 in0.0 mm 0.03 in0.8 mm
02:18 AM 35.4°F1.9°C 32.8°F0.4°C 90% 31.6 mph WSW50.9 kmh WSW 37.0 mph59.5 kmh 28.96 in980.7 mb 0.02 in0.5 mm 0.00 in0.0 mm 0.03 in0.8 mm
02:19 AM 35.4°F1.9°C 32.8°F0.4°C 90% 25.4 mph WSW40.9 kmh WSW 37.0 mph59.5 kmh 28.96 in980.7 mb 0.02 in0.5 mm 0.00 in0.0 mm 0.03 in0.8 mm
02:20 AM 35.3°F1.8°C 32.7°F0.4°C 90% 29.2 mph WSW47.0 kmh WSW 34.0 mph54.7 kmh 28.96 in980.7 mb 0.02 in0.5 mm 0.00 in0.0 mm 0.03 in0.8 mm
02:21 AM 35.3°F1.8°C 32.7°F0.4°C 90% 31.5 mph WSW50.7 kmh WSW 39.0 mph62.8 kmh 28.96 in980.7 mb 0.02 in0.5 mm 0.00 in0.0 mm 0.03 in0.8 mm
02:22 AM 35.2°F1.8°C 32.6°F0.3°C 90% 30.0 mph WSW48.3 kmh WSW 39.0 mph62.8 kmh 28.96 in980.7 mb 0.02 in0.5 mm 0.00 in0.0 mm 0.03 in0.8 mm
02:23 AM 35.2°F1.8°C 32.6°F0.3°C 90% 36.2 mph WSW58.3 kmh WSW 40.0 mph64.4 kmh 28.96 in980.7 mb 0.02 in0.5 mm 0.00 in0.0 mm 0.03 in0.8 mm
02:24 AM 35.2°F1.8°C 32.6°F0.3°C 90% 31.1 mph WSW50.1 kmh WSW 40.0 mph64.4 kmh 28.96 in980.7 mb 0.02 in0.5 mm 0.00 in0.0 mm 0.03 in0.8 mm
02:25 AM 35.1°F1.7°C 32.5°F0.3°C 90% 33.2 mph WSW53.4 kmh WSW 38.0 mph61.2 kmh 28.96 in980.7 mb 0.02 in0.5 mm 0.00 in0.0 mm 0.03 in0.8 mm
02:26 AM 35.2°F1.8°C 32.6°F0.3°C 90% 33.3 mph WSW53.6 kmh WSW 39.0 mph62.8 kmh 28.96 in980.7 mb 0.02 in0.5 mm 0.00 in0.0 mm 0.03 in0.8 mm
02:27 AM 35.1°F1.7°C 32.5°F0.3°C 90% 35.4 mph WSW57.0 kmh WSW 44.0 mph70.8 kmh 28.96 in980.7 mb 0.03 in0.8 mm 0.60 in15.2 mm 0.04 in1.0 mm
02:28 AM 35.0°F1.7°C 32.4°F0.2°C 90% 35.5 mph WSW57.1 kmh WSW 44.0 mph70.8 kmh 28.96 in980.7 mb 0.03 in0.8 mm 0.00 in0.0 mm 0.04 in1.0 mm
02:29 AM 35.0°F1.7°C 32.4°F0.2°C 90% 33.1 mph WSW53.3 kmh WSW 42.0 mph67.6 kmh 28.96 in980.7 mb 0.03 in0.8 mm 0.00 in0.0 mm 0.04 in1.0 mm
02:30 AM 35.0°F1.7°C 32.4°F0.2°C 90% 33.8 mph WSW54.4 kmh WSW 41.0 mph66.0 kmh 28.96 in980.7 mb 0.03 in0.8 mm 0.00 in0.0 mm 0.04 in1.0 mm
02:31 AM 35.0°F1.7°C 32.4°F0.2°C 90% 32.9 mph WSW52.9 kmh WSW 38.0 mph61.2 kmh 28.96 in980.7 mb 0.03 in0.8 mm 0.00 in0.0 mm 0.04 in1.0 mm
02:32 AM 35.0°F1.7°C 32.4°F0.2°C 90% 33.0 mph WSW53.1 kmh WSW 38.0 mph61.2 kmh 28.97 in981.0 mb 0.03 in0.8 mm 0.00 in0.0 mm 0.04 in1.0 mm
02:33 AM 35.0°F1.7°C 32.4°F0.2°C 90% 29.3 mph WSW47.2 kmh WSW 38.0 mph61.2 kmh 28.96 in980.7 mb 0.03 in0.8 mm 0.00 in0.0 mm 0.04 in1.0 mm
02:34 AM 35.0°F1.7°C 32.4°F0.2°C 90% 34.9 mph WSW56.2 kmh WSW 42.0 mph67.6 kmh 28.96 in980.7 mb 0.03 in0.8 mm 0.00 in0.0 mm 0.04 in1.0 mm
02:35 AM 35.1°F1.7°C 32.5°F0.3°C 90% 36.3 mph WSW58.4 kmh WSW 49.0 mph78.9 kmh 28.97 in981.0 mb 0.03 in0.8 mm 0.00 in0.0 mm 0.04 in1.0 mm
02:36 AM 35.2°F1.8°C 32.6°F0.3°C 90% 37.5 mph WSW60.4 kmh WSW 49.0 mph78.9 kmh 28.96 in980.7 mb 0.03 in0.8 mm 0.00 in0.0 mm 0.04 in1.0 mm
02:37 AM 35.2°F1.8°C 32.6°F0.3°C 90% 34.0 mph WSW54.7 kmh WSW 42.0 mph67.6 kmh 28.97 in981.0 mb 0.03 in0.8 mm 0.00 in0.0 mm 0.04 in1.0 mm
02:38 AM 35.2°F1.8°C 32.6°F0.3°C 90% 37.9 mph WSW61.0 kmh WSW 46.0 mph74.0 kmh 28.97 in981.0 mb 0.03 in0.8 mm 0.00 in0.0 mm 0.04 in1.0 mm
02:39 AM 35.3°F1.8°C 32.7°F0.4°C 90% 35.2 mph WSW56.6 kmh WSW 46.0 mph74.0 kmh 28.97 in981.0 mb 0.03 in0.8 mm 0.00 in0.0 mm 0.04 in1.0 mm
02:40 AM 35.4°F1.9°C 32.8°F0.4°C 90% 34.8 mph WSW56.0 kmh WSW 44.0 mph70.8 kmh 28.97 in981.0 mb 0.03 in0.8 mm 0.00 in0.0 mm 0.04 in1.0 mm
02:41 AM 35.5°F1.9°C 32.9°F0.5°C 90% 33.9 mph WSW54.6 kmh WSW 41.0 mph66.0 kmh 28.97 in981.0 mb 0.03 in0.8 mm 0.00 in0.0 mm 0.04 in1.0 mm
02:42 AM 35.5°F1.9°C 32.9°F0.5°C 90% 33.6 mph WSW54.1 kmh WSW 41.0 mph66.0 kmh 28.97 in981.0 mb 0.03 in0.8 mm 0.00 in0.0 mm 0.04 in1.0 mm
02:43 AM 35.6°F2.0°C 33.0°F0.6°C 90% 29.8 mph WSW48.0 kmh WSW 41.0 mph66.0 kmh 28.97 in981.0 mb 0.03 in0.8 mm 0.00 in0.0 mm 0.04 in1.0 mm
02:44 AM 35.7°F2.1°C 33.1°F0.6°C 90% 32.5 mph WSW52.3 kmh WSW 40.0 mph64.4 kmh 28.97 in981.0 mb 0.03 in0.8 mm 0.00 in0.0 mm 0.04 in1.0 mm
02:45 AM 35.7°F2.1°C 33.1°F0.6°C 90% 33.6 mph WSW54.1 kmh WSW 40.0 mph64.4 kmh 28.97 in981.0 mb 0.03 in0.8 mm 0.00 in0.0 mm 0.04 in1.0 mm
02:46 AM 35.8°F2.1°C 33.2°F0.7°C 90% 37.5 mph WSW60.4 kmh WSW 44.0 mph70.8 kmh 28.97 in981.0 mb 0.03 in0.8 mm 0.00 in0.0 mm 0.04 in1.0 mm
02:47 AM 35.9°F2.2°C 33.3°F0.7°C 90% 32.8 mph WSW52.8 kmh WSW 44.0 mph70.8 kmh 28.98 in981.4 mb 0.02 in0.5 mm 0.00 in0.0 mm 0.04 in1.0 mm
02:48 AM 36.0°F2.2°C 33.1°F0.6°C 89% 38.8 mph WSW62.4 kmh WSW 43.0 mph69.2 kmh 28.98 in981.4 mb 0.02 in0.5 mm 0.00 in0.0 mm 0.04 in1.0 mm
02:49 AM 36.0°F2.2°C 33.1°F0.6°C 89% 33.4 mph WSW53.8 kmh WSW 43.0 mph69.2 kmh 28.98 in981.4 mb 0.02 in0.5 mm 0.00 in0.0 mm 0.04 in1.0 mm
02:50 AM 36.0°F2.2°C 33.1°F0.6°C 89% 36.8 mph WSW59.2 kmh WSW 43.0 mph69.2 kmh 28.98 in981.4 mb 0.02 in0.5 mm 0.00 in0.0 mm 0.04 in1.0 mm
02:51 AM 36.0°F2.2°C 33.1°F0.6°C 89% 37.1 mph WSW59.7 kmh WSW 44.0 mph70.8 kmh 28.98 in981.4 mb 0.02 in0.5 mm 0.00 in0.0 mm 0.04 in1.0 mm
02:52 AM 36.1°F2.3°C 33.2°F0.7°C 89% 38.4 mph WSW61.8 kmh WSW 47.0 mph75.6 kmh 28.98 in981.4 mb 0.02 in0.5 mm 0.00 in0.0 mm 0.04 in1.0 mm
02:53 AM 36.2°F2.3°C 33.0°F0.6°C 88% 31.8 mph WSW51.2 kmh WSW 47.0 mph75.6 kmh 28.98 in981.4 mb 0.02 in0.5 mm 0.00 in0.0 mm 0.04 in1.0 mm
02:54 AM 36.1°F2.3°C 32.9°F0.5°C 88% 33.1 mph WSW53.3 kmh WSW 36.0 mph57.9 kmh 28.98 in981.4 mb 0.02 in0.5 mm 0.00 in0.0 mm 0.04 in1.0 mm
02:55 AM 36.1°F2.3°C 32.9°F0.5°C 88% 29.6 mph WSW47.6 kmh WSW 36.0 mph57.9 kmh 28.98 in981.4 mb 0.02 in0.5 mm 0.00 in0.0 mm 0.04 in1.0 mm
02:56 AM 36.1°F2.3°C 33.2°F0.7°C 89% 31.4 mph WSW50.5 kmh WSW 38.0 mph61.2 kmh 28.98 in981.4 mb 0.02 in0.5 mm 0.00 in0.0 mm 0.04 in1.0 mm
02:57 AM 36.1°F2.3°C 33.2°F0.7°C 89% 38.5 mph WSW62.0 kmh WSW 45.0 mph72.4 kmh 28.98 in981.4 mb 0.02 in0.5 mm 0.00 in0.0 mm 0.04 in1.0 mm
02:58 AM 36.1°F2.3°C 32.9°F0.5°C 88% 33.8 mph WSW54.4 kmh WSW 45.0 mph72.4 kmh 28.98 in981.4 mb 0.02 in0.5 mm 0.00 in0.0 mm 0.04 in1.0 mm
02:59 AM 36.1°F2.3°C 32.9°F0.5°C 88% 31.7 mph WSW51.0 kmh WSW 41.0 mph66.0 kmh 28.98 in981.4 mb 0.02 in0.5 mm 0.00 in0.0 mm 0.04 in1.0 mm
03:00 AM 36.1°F2.3°C 32.9°F0.5°C 88% 34.1 mph WSW54.9 kmh WSW 42.0 mph67.6 kmh 28.99 in981.7 mb 0.02 in0.5 mm 0.00 in0.0 mm 0.04 in1.0 mm
03:01 AM 36.1°F2.3°C 32.9°F0.5°C 88% 32.1 mph WSW51.7 kmh WSW 42.0 mph67.6 kmh 28.99 in981.7 mb 0.02 in0.5 mm 0.00 in0.0 mm 0.04 in1.0 mm
03:02 AM 36.2°F2.3°C 33.0°F0.6°C 88% 37.2 mph WSW59.9 kmh WSW 42.0 mph67.6 kmh 28.98 in981.4 mb 0.02 in0.5 mm 0.00 in0.0 mm 0.04 in1.0 mm
03:03 AM 36.1°F2.3°C 32.9°F0.5°C 88% 32.8 mph WSW52.8 kmh WSW 42.0 mph67.6 kmh 28.99 in981.7 mb 0.02 in0.5 mm 0.00 in0.0 mm 0.04 in1.0 mm
03:04 AM 36.1°F2.3°C 32.9°F0.5°C 88% 35.5 mph WSW57.1 kmh WSW 43.0 mph69.2 kmh 28.99 in981.7 mb 0.02 in0.5 mm 0.00 in0.0 mm 0.04 in1.0 mm
03:05 AM 36.1°F2.3°C 32.9°F0.5°C 88% 33.0 mph WSW53.1 kmh WSW 43.0 mph69.2 kmh 28.99 in981.7 mb 0.02 in0.5 mm 0.00 in0.0 mm 0.05 in1.3 mm
03:06 AM 36.0°F2.2°C 32.8°F0.4°C 88% 34.4 mph WSW55.4 kmh WSW 42.0 mph67.6 kmh 28.99 in981.7 mb 0.02 in0.5 mm 0.00 in0.0 mm 0.05 in1.3 mm
03:07 AM 36.0°F2.2°C 33.1°F0.6°C 89% 36.8 mph WSW59.2 kmh WSW 43.0 mph69.2 kmh 28.99 in981.7 mb 0.02 in0.5 mm 0.00 in0.0 mm 0.05 in1.3 mm
03:08 AM 36.0°F2.2°C 33.1°F0.6°C 89% 34.5 mph WSW55.5 kmh WSW 43.0 mph69.2 kmh 28.99 in981.7 mb 0.02 in0.5 mm 0.00 in0.0 mm 0.05 in1.3 mm
03:09 AM 36.1°F2.3°C 32.9°F0.5°C 88% 35.7 mph WSW57.5 kmh WSW 40.0 mph64.4 kmh 28.99 in981.7 mb 0.02 in0.5 mm 0.00 in0.0 mm 0.05 in1.3 mm
03:10 AM 36.2°F2.3°C 33.0°F0.6°C 88% 35.9 mph WSW57.8 kmh WSW 40.0 mph64.4 kmh 28.99 in981.7 mb 0.02 in0.5 mm 0.00 in0.0 mm 0.05 in1.3 mm
03:11 AM 36.1°F2.3°C 32.9°F0.5°C 88% 34.0 mph WSW54.7 kmh WSW 39.0 mph62.8 kmh 29.00 in982.1 mb 0.02 in0.5 mm 0.00 in0.0 mm 0.05 in1.3 mm
03:12 AM 36.1°F2.3°C 32.9°F0.5°C 88% 33.0 mph WSW53.1 kmh WSW 40.0 mph64.4 kmh 29.00 in982.1 mb 0.02 in0.5 mm 0.00 in0.0 mm 0.05 in1.3 mm
03:13 AM 36.1°F2.3°C 32.9°F0.5°C 88% 30.6 mph WSW49.2 kmh WSW 37.0 mph59.5 kmh 29.00 in982.1 mb 0.02 in0.5 mm 0.00 in0.0 mm 0.05 in1.3 mm
03:14 AM 36.1°F2.3°C 32.9°F0.5°C 88% 33.6 mph WSW54.1 kmh WSW 39.0 mph62.8 kmh 29.00 in982.1 mb 0.02 in0.5 mm 0.00 in0.0 mm 0.05 in1.3 mm
03:15 AM 36.2°F2.3°C 33.0°F0.6°C 88% 32.3 mph WSW52.0 kmh WSW 40.0 mph64.4 kmh 29.00 in982.1 mb 0.02 in0.5 mm 0.00 in0.0 mm 0.05 in1.3 mm
03:16 AM 36.2°F2.3°C 33.0°F0.6°C 88% 34.2 mph WSW55.0 kmh WSW 40.0 mph64.4 kmh 29.00 in982.1 mb 0.02 in0.5 mm 0.00 in0.0 mm 0.05 in1.3 mm
03:17 AM 36.2°F2.3°C 33.0°F0.6°C 88% 30.1 mph WSW48.4 kmh WSW 40.0 mph64.4 kmh 29.00 in982.1 mb 0.02 in0.5 mm 0.00 in0.0 mm 0.05 in1.3 mm
03:18 AM 36.1°F2.3°C 32.9°F0.5°C 88% 36.6 mph WSW58.9 kmh WSW 45.0 mph72.4 kmh 29.00 in982.1 mb 0.02 in0.5 mm 0.00 in0.0 mm 0.05 in1.3 mm
03:19 AM 36.2°F2.3°C 33.0°F0.6°C 88% 35.3 mph WSW56.8 kmh WSW 45.0 mph72.4 kmh 29.00 in982.1 mb 0.02 in0.5 mm 0.00 in0.0 mm 0.05 in1.3 mm
03:20 AM 36.2°F2.3°C 33.0°F0.6°C 88% 33.4 mph WSW53.8 kmh WSW 41.0 mph66.0 kmh 29.00 in982.1 mb 0.02 in0.5 mm 0.00 in0.0 mm 0.05 in1.3 mm
03:21 AM 36.2°F2.3°C 33.0°F0.6°C 88% 30.9 mph WSW49.7 kmh WSW 38.0 mph61.2 kmh 29.00 in982.1 mb 0.02 in0.5 mm 0.00 in0.0 mm 0.05 in1.3 mm
03:22 AM 36.1°F2.3°C 32.9°F0.5°C 88% 31.8 mph WSW51.2 kmh WSW 42.0 mph67.6 kmh 29.01 in982.4 mb 0.02 in0.5 mm 0.00 in0.0 mm 0.05 in1.3 mm
03:23 AM 36.1°F2.3°C 32.9°F0.5°C 88% 37.9 mph WSW61.0 kmh WSW 43.0 mph69.2 kmh 29.00 in982.1 mb 0.02 in0.5 mm 0.00 in0.0 mm 0.05 in1.3 mm
03:24 AM 36.1°F2.3°C 32.9°F0.5°C 88% 35.4 mph WSW57.0 kmh WSW 44.0 mph70.8 kmh 29.00 in982.1 mb 0.02 in0.5 mm 0.00 in0.0 mm 0.05 in1.3 mm
03:25 AM 36.1°F2.3°C 32.9°F0.5°C 88% 35.4 mph WSW57.0 kmh WSW 44.0 mph70.8 kmh 29.01 in982.4 mb 0.02 in0.5 mm 0.00 in0.0 mm 0.05 in1.3 mm
03:26 AM 36.1°F2.3°C 32.9°F0.5°C 88% 30.4 mph WSW48.9 kmh WSW 42.0 mph67.6 kmh 29.01 in982.4 mb 0.02 in0.5 mm 0.00 in0.0 mm 0.05 in1.3 mm
03:27 AM 36.0°F2.2°C 32.8°F0.4°C 88% 37.0 mph WSW59.5 kmh WSW 43.0 mph69.2 kmh 29.01 in982.4 mb 0.01 in0.3 mm 0.00 in0.0 mm 0.05 in1.3 mm
03:28 AM 36.0°F2.2°C 32.8°F0.4°C 88% 30.9 mph WSW49.7 kmh WSW 43.0 mph69.2 kmh 29.01 in982.4 mb 0.01 in0.3 mm 0.00 in0.0 mm 0.05 in1.3 mm
03:29 AM 35.9°F2.2°C 32.7°F0.4°C 88% 30.0 mph WSW48.3 kmh WSW 36.0 mph57.9 kmh 29.01 in982.4 mb 0.01 in0.3 mm 0.00 in0.0 mm 0.05 in1.3 mm
03:30 AM 35.9°F2.2°C 32.7°F0.4°C 88% 32.5 mph WSW52.3 kmh WSW 43.0 mph69.2 kmh 29.01 in982.4 mb 0.01 in0.3 mm 0.00 in0.0 mm 0.05 in1.3 mm
03:31 AM 35.9°F2.2°C 32.7°F0.4°C 88% 29.9 mph WSW48.1 kmh WSW 43.0 mph69.2 kmh 29.02 in982.7 mb 0.01 in0.3 mm 0.00 in0.0 mm 0.05 in1.3 mm
03:32 AM 35.8°F2.1°C 32.6°F0.3°C 88% 36.3 mph WSW58.4 kmh WSW 44.0 mph70.8 kmh 29.02 in982.7 mb 0.01 in0.3 mm 0.00 in0.0 mm 0.05 in1.3 mm
03:33 AM 35.8°F2.1°C 32.6°F0.3°C 88% 32.3 mph WSW52.0 kmh WSW 44.0 mph70.8 kmh 29.02 in982.7 mb 0.01 in0.3 mm 0.00 in0.0 mm 0.05 in1.3 mm
03:34 AM 35.8°F2.1°C 32.6°F0.3°C 88% 31.2 mph WSW50.2 kmh WSW 40.0 mph64.4 kmh 29.02 in982.7 mb 0.01 in0.3 mm 0.00 in0.0 mm 0.05 in1.3 mm
03:35 AM 35.8°F2.1°C 32.6°F0.3°C 88% 32.6 mph WSW52.5 kmh WSW 37.0 mph59.5 kmh 29.02 in982.7 mb 0.01 in0.3 mm 0.00 in0.0 mm 0.05 in1.3 mm
03:36 AM 35.7°F2.1°C 32.5°F0.3°C 88% 31.0 mph WSW49.9 kmh WSW 40.0 mph64.4 kmh 29.02 in982.7 mb 0.01 in0.3 mm 0.00 in0.0 mm 0.05 in1.3 mm
03:37 AM 35.7°F2.1°C 32.5°F0.3°C 88% 35.1 mph WSW56.5 kmh WSW 40.0 mph64.4 kmh 29.02 in982.7 mb 0.01 in0.3 mm 0.00 in0.0 mm 0.05 in1.3 mm
03:38 AM 35.6°F2.0°C 32.4°F0.2°C 88% 36.8 mph WSW59.2 kmh WSW 41.0 mph66.0 kmh 29.02 in982.7 mb 0.01 in0.3 mm 0.00 in0.0 mm 0.05 in1.3 mm
03:39 AM 35.6°F2.0°C 32.4°F0.2°C 88% 36.0 mph WSW57.9 kmh WSW 41.0 mph66.0 kmh 29.02 in982.7 mb 0.01 in0.3 mm 0.00 in0.0 mm 0.05 in1.3 mm
03:40 AM 35.6°F2.0°C 32.4°F0.2°C 88% 37.4 mph WSW60.2 kmh WSW 41.0 mph66.0 kmh 29.02 in982.7 mb 0.01 in0.3 mm 0.00 in0.0 mm 0.05 in1.3 mm
03:41 AM 35.5°F1.9°C 32.3°F0.2°C 88% 34.2 mph WSW55.0 kmh WSW 41.0 mph66.0 kmh 29.02 in982.7 mb 0.01 in0.3 mm 0.00 in0.0 mm 0.05 in1.3 mm
03:42 AM 35.5°F1.9°C 32.3°F0.2°C 88% 34.1 mph WSW54.9 kmh WSW 39.0 mph62.8 kmh 29.02 in982.7 mb 0.01 in0.3 mm 0.00 in0.0 mm 0.05 in1.3 mm
03:43 AM 35.5°F1.9°C 32.3°F0.2°C 88% 32.8 mph WSW52.8 kmh WSW 41.0 mph66.0 kmh 29.03 in983.1 mb 0.01 in0.3 mm 0.00 in0.0 mm 0.05 in1.3 mm
03:44 AM 35.5°F1.9°C 32.3°F0.2°C 88% 35.6 mph WSW57.3 kmh WSW 43.0 mph69.2 kmh 29.03 in983.1 mb 0.01 in0.3 mm 0.00 in0.0 mm 0.05 in1.3 mm
03:45 AM 35.5°F1.9°C 32.3°F0.2°C 88% 33.6 mph WSW54.1 kmh WSW 43.0 mph69.2 kmh 29.03 in983.1 mb 0.01 in0.3 mm 0.00 in0.0 mm 0.05 in1.3 mm
03:46 AM 35.5°F1.9°C 32.3°F0.2°C 88% 31.1 mph WSW50.1 kmh WSW 40.0 mph64.4 kmh 29.03 in983.1 mb 0.01 in0.3 mm 0.00 in0.0 mm 0.05 in1.3 mm
03:47 AM 35.5°F1.9°C 32.3°F0.2°C 88% 32.7 mph WSW52.6 kmh WSW 40.0 mph64.4 kmh 29.03 in983.1 mb 0.01 in0.3 mm 0.00 in0.0 mm 0.05 in1.3 mm
03:48 AM 35.6°F2.0°C 32.4°F0.2°C 88% 34.1 mph WSW54.9 kmh WSW 40.0 mph64.4 kmh 29.03 in983.1 mb 0.01 in0.3 mm 0.00 in0.0 mm 0.05 in1.3 mm
03:49 AM 35.5°F1.9°C 32.3°F0.2°C 88% 35.0 mph WSW56.3 kmh WSW 40.0 mph64.4 kmh 29.03 in983.1 mb 0.01 in0.3 mm 0.00 in0.0 mm 0.05 in1.3 mm
03:50 AM 35.6°F2.0°C 32.4°F0.2°C 88% 32.8 mph WSW52.8 kmh WSW 39.0 mph62.8 kmh 29.03 in983.1 mb 0.01 in0.3 mm 0.00 in0.0 mm 0.05 in1.3 mm
03:51 AM 35.6°F2.0°C 32.4°F0.2°C 88% 32.2 mph W51.8 kmh W 39.0 mph62.8 kmh 29.03 in983.1 mb 0.01 in0.3 mm 0.00 in0.0 mm 0.05 in1.3 mm
03:52 AM 35.5°F1.9°C 32.3°F0.2°C 88% 29.5 mph WSW47.5 kmh WSW 39.0 mph62.8 kmh 29.03 in983.1 mb 0.01 in0.3 mm 0.00 in0.0 mm 0.05 in1.3 mm
03:53 AM 35.6°F2.0°C 32.4°F0.2°C 88% 33.6 mph WSW54.1 kmh WSW 42.0 mph67.6 kmh 29.03 in983.1 mb 0.01 in0.3 mm 0.00 in0.0 mm 0.05 in1.3 mm
03:54 AM 35.6°F2.0°C 32.4°F0.2°C 88% 29.1 mph WSW46.8 kmh WSW 42.0 mph67.6 kmh 29.04 in983.4 mb 0.01 in0.3 mm 0.00 in0.0 mm 0.05 in1.3 mm
03:55 AM 35.6°F2.0°C 32.4°F0.2°C 88% 28.9 mph WSW46.5 kmh WSW 36.0 mph57.9 kmh 29.03 in983.1 mb 0.01 in0.3 mm 0.00 in0.0 mm 0.05 in1.3 mm
03:56 AM 35.6°F2.0°C 32.4°F0.2°C 88% 29.6 mph WSW47.6 kmh WSW 36.0 mph57.9 kmh 29.04 in983.4 mb 0.01 in0.3 mm 0.00 in0.0 mm 0.05 in1.3 mm
03:57 AM 35.7°F2.1°C 32.5°F0.3°C 88% 33.4 mph WSW53.8 kmh WSW 39.0 mph62.8 kmh 29.04 in983.4 mb 0.01 in0.3 mm 0.00 in0.0 mm 0.05 in1.3 mm
03:58 AM 35.7°F2.1°C 32.5°F0.3°C 88% 29.2 mph WSW47.0 kmh WSW 39.0 mph62.8 kmh 29.04 in983.4 mb 0.01 in0.3 mm 0.00 in0.0 mm 0.05 in1.3 mm
03:59 AM 35.7°F2.1°C 32.5°F0.3°C 88% 30.9 mph WSW49.7 kmh WSW 38.0 mph61.2 kmh 29.04 in983.4 mb 0.01 in0.3 mm 0.00 in0.0 mm 0.05 in1.3 mm
04:00 AM 35.7°F2.1°C 32.5°F0.3°C 88% 30.4 mph WSW48.9 kmh WSW 38.0 mph61.2 kmh 29.04 in983.4 mb 0.01 in0.3 mm 0.00 in0.0 mm 0.05 in1.3 mm
04:01 AM 35.7°F2.1°C 32.5°F0.3°C 88% 31.4 mph WSW50.5 kmh WSW 39.0 mph62.8 kmh 29.04 in983.4 mb 0.01 in0.3 mm 0.00 in0.0 mm 0.05 in1.3 mm
04:02 AM 35.7°F2.1°C 32.5°F0.3°C 88% 30.6 mph WSW49.2 kmh WSW 39.0 mph62.8 kmh 29.04 in983.4 mb 0.01 in0.3 mm 0.00 in0.0 mm 0.05 in1.3 mm
04:03 AM 35.7°F2.1°C 32.5°F0.3°C 88% 26.1 mph WSW42.0 kmh WSW 38.0 mph61.2 kmh 29.04 in983.4 mb 0.01 in0.3 mm 0.00 in0.0 mm 0.05 in1.3 mm
04:04 AM 35.7°F2.1°C 32.5°F0.3°C 88% 28.8 mph WSW46.3 kmh WSW 34.0 mph54.7 kmh 29.04 in983.4 mb 0.01 in0.3 mm 0.00 in0.0 mm 0.05 in1.3 mm
04:05 AM 35.8°F2.1°C 32.6°F0.3°C 88% 30.2 mph WSW48.6 kmh WSW 37.0 mph59.5 kmh 29.04 in983.4 mb 0.00 in0.0 mm 0.00 in0.0 mm 0.05 in1.3 mm
04:06 AM 35.7°F2.1°C 32.5°F0.3°C 88% 28.0 mph W45.1 kmh W 37.0 mph59.5 kmh 29.04 in983.4 mb 0.00 in0.0 mm 0.00 in0.0 mm 0.05 in1.3 mm
04:07 AM 35.8°F2.1°C 32.6°F0.3°C 88% 29.9 mph WSW48.1 kmh WSW 37.0 mph59.5 kmh 29.05 in983.7 mb 0.00 in0.0 mm 0.00 in0.0 mm 0.05 in1.3 mm
04:08 AM 35.8°F2.1°C 32.6°F0.3°C 88% 32.9 mph WSW52.9 kmh WSW 37.0 mph59.5 kmh 29.05 in983.7 mb 0.00 in0.0 mm 0.00 in0.0 mm 0.05 in1.3 mm
04:09 AM 35.9°F2.2°C 32.4°F0.2°C 87% 28.5 mph W45.9 kmh W 37.0 mph59.5 kmh 29.05 in983.7 mb 0.00 in0.0 mm 0.00 in0.0 mm 0.05 in1.3 mm
04:10 AM 35.8°F2.1°C 32.3°F0.2°C 87% 30.7 mph W49.4 kmh W 36.0 mph57.9 kmh 29.05 in983.7 mb 0.00 in0.0 mm 0.00 in0.0 mm 0.05 in1.3 mm
04:11 AM 35.8°F2.1°C 32.3°F0.2°C 87% 28.0 mph WSW45.1 kmh WSW 36.0 mph57.9 kmh 29.05 in983.7 mb 0.00 in0.0 mm 0.00 in0.0 mm 0.05 in1.3 mm
04:12 AM 35.8°F2.1°C 32.6°F0.3°C 88% 29.7 mph WSW47.8 kmh WSW 35.0 mph56.3 kmh 29.05 in983.7 mb 0.00 in0.0 mm 0.00 in0.0 mm 0.05 in1.3 mm
04:13 AM 35.8°F2.1°C 32.3°F0.2°C 87% 32.0 mph WSW51.5 kmh WSW 36.0 mph57.9 kmh 29.05 in983.7 mb 0.00 in0.0 mm 0.00 in0.0 mm 0.05 in1.3 mm
04:14 AM 35.8°F2.1°C 32.3°F0.2°C 87% 28.4 mph WSW45.7 kmh WSW 36.0 mph57.9 kmh 29.05 in983.7 mb 0.00 in0.0 mm 0.00 in0.0 mm 0.05 in1.3 mm
04:15 AM 35.9°F2.2°C 32.4°F0.2°C 87% 27.0 mph WSW43.5 kmh WSW 35.0 mph56.3 kmh 29.05 in983.7 mb 0.00 in0.0 mm 0.00 in0.0 mm 0.05 in1.3 mm
04:16 AM 35.7°F2.1°C 32.2°F0.1°C 87% 28.4 mph WSW45.7 kmh WSW 35.0 mph56.3 kmh 29.05 in983.7 mb 0.00 in0.0 mm 0.00 in0.0 mm 0.05 in1.3 mm
04:17 AM 35.8°F2.1°C 32.3°F0.2°C 87% 33.1 mph WSW53.3 kmh WSW 36.0 mph57.9 kmh 29.05 in983.7 mb 0.00 in0.0 mm 0.00 in0.0 mm 0.05 in1.3 mm
04:18 AM 35.7°F2.1°C 32.2°F0.1°C 87% 31.4 mph W50.5 kmh W 39.0 mph62.8 kmh 29.05 in983.7 mb 0.00 in0.0 mm 0.00 in0.0 mm 0.05 in1.3 mm
04:19 AM 35.8°F2.1°C 32.3°F0.2°C 87% 32.7 mph WSW52.6 kmh WSW 39.0 mph62.8 kmh 29.05 in983.7 mb 0.00 in0.0 mm 0.00 in0.0 mm 0.05 in1.3 mm
04:20 AM 35.7°F2.1°C 32.2°F0.1°C 87% 35.0 mph WSW56.3 kmh WSW 38.0 mph61.2 kmh 29.06 in984.1 mb 0.00 in0.0 mm 0.00 in0.0 mm 0.05 in1.3 mm
04:21 AM 35.9°F2.2°C 32.4°F0.2°C 87% 36.4 mph W58.6 kmh W 42.0 mph67.6 kmh 29.06 in984.1 mb 0.00 in0.0 mm 0.00 in0.0 mm 0.05 in1.3 mm
04:22 AM 35.8°F2.1°C 32.3°F0.2°C 87% 30.1 mph W48.4 kmh W 42.0 mph67.6 kmh 29.06 in984.1 mb 0.00 in0.0 mm 0.00 in0.0 mm 0.05 in1.3 mm
04:23 AM 35.7°F2.1°C 32.2°F0.1°C 87% 30.8 mph W49.6 kmh W 37.0 mph59.5 kmh 29.06 in984.1 mb 0.00 in0.0 mm 0.00 in0.0 mm 0.05 in1.3 mm
04:24 AM 35.7°F2.1°C 32.2°F0.1°C 87% 31.6 mph WSW50.9 kmh WSW 37.0 mph59.5 kmh 29.06 in984.1 mb 0.00 in0.0 mm 0.00 in0.0 mm 0.05 in1.3 mm
04:25 AM 35.7°F2.1°C 32.2°F0.1°C 87% 31.8 mph W51.2 kmh W 35.0 mph56.3 kmh 29.06 in984.1 mb 0.00 in0.0 mm 0.00 in0.0 mm 0.05 in1.3 mm
04:26 AM 35.7°F2.1°C 32.2°F0.1°C 87% 32.7 mph W52.6 kmh W 38.0 mph61.2 kmh 29.06 in984.1 mb 0.00 in0.0 mm 0.00 in0.0 mm 0.05 in1.3 mm
04:27 AM 35.6°F2.0°C 32.1°F0.1°C 87% 27.4 mph W44.1 kmh W 38.0 mph61.2 kmh 29.06 in984.1 mb 0.00 in0.0 mm 0.00 in0.0 mm 0.05 in1.3 mm
04:28 AM 35.5°F1.9°C 32.3°F0.2°C 88% 29.5 mph WSW47.5 kmh WSW 35.0 mph56.3 kmh 29.06 in984.1 mb 0.00 in0.0 mm 0.00 in0.0 mm 0.05 in1.3 mm
04:29 AM 35.5°F1.9°C 32.3°F0.2°C 88% 27.8 mph WSW44.7 kmh WSW 35.0 mph56.3 kmh 29.06 in984.1 mb 0.00 in0.0 mm 0.00 in0.0 mm 0.05 in1.3 mm
04:30 AM 35.4°F1.9°C 32.2°F0.1°C 88% 29.8 mph WSW48.0 kmh WSW 36.0 mph57.9 kmh 29.06 in984.1 mb 0.00 in0.0 mm 0.00 in0.0 mm 0.05 in1.3 mm
04:31 AM 35.5°F1.9°C 32.3°F0.2°C 88% 32.6 mph W52.5 kmh W 37.0 mph59.5 kmh 29.06 in984.1 mb 0.00 in0.0 mm 0.00 in0.0 mm 0.05 in1.3 mm
04:32 AM 35.5°F1.9°C 32.3°F0.2°C 88% 28.7 mph W46.2 kmh W 37.0 mph59.5 kmh 29.07 in984.4 mb 0.00 in0.0 mm 0.00 in0.0 mm 0.05 in1.3 mm
04:33 AM 35.4°F1.9°C 32.2°F0.1°C 88% 30.6 mph WSW49.2 kmh WSW 36.0 mph57.9 kmh 29.07 in984.4 mb 0.00 in0.0 mm 0.00 in0.0 mm 0.05 in1.3 mm
04:34 AM 35.5°F1.9°C 32.3°F0.2°C 88% 30.8 mph WSW49.6 kmh WSW 36.0 mph57.9 kmh 29.07 in984.4 mb 0.00 in0.0 mm 0.00 in0.0 mm 0.05 in1.3 mm
04:35 AM 35.5°F1.9°C 32.3°F0.2°C 88% 29.6 mph WSW47.6 kmh WSW 35.0 mph56.3 kmh 29.07 in984.4 mb 0.00 in0.0 mm 0.00 in0.0 mm 0.05 in1.3 mm
04:36 AM 35.5°F1.9°C 32.3°F0.2°C 88% 29.0 mph W46.7 kmh W 36.0 mph57.9 kmh 29.07 in984.4 mb 0.00 in0.0 mm 0.00 in0.0 mm 0.05 in1.3 mm
04:37 AM 35.5°F1.9°C 32.3°F0.2°C 88% 27.4 mph WSW44.1 kmh WSW 36.0 mph57.9 kmh 29.07 in984.4 mb 0.00 in0.0 mm 0.00 in0.0 mm 0.05 in1.3 mm
04:38 AM 35.4°F1.9°C 32.2°F0.1°C 88% 30.8 mph WSW49.6 kmh WSW 38.0 mph61.2 kmh 29.07 in984.4 mb 0.00 in0.0 mm 0.00 in0.0 mm 0.05 in1.3 mm
04:39 AM 35.5°F1.9°C 32.3°F0.2°C 88% 29.6 mph WSW47.6 kmh WSW 38.0 mph61.2 kmh 29.07 in984.4 mb 0.00 in0.0 mm 0.00 in0.0 mm 0.05 in1.3 mm
04:40 AM 35.5°F1.9°C 32.3°F0.2°C 88% 31.4 mph WSW50.5 kmh WSW 39.0 mph62.8 kmh 29.07 in984.4 mb 0.00 in0.0 mm 0.00 in0.0 mm 0.05 in1.3 mm
04:41 AM 35.5°F1.9°C 32.3°F0.2°C 88% 28.8 mph WSW46.3 kmh WSW 39.0 mph62.8 kmh 29.07 in984.4 mb 0.00 in0.0 mm 0.00 in0.0 mm 0.05 in1.3 mm
04:42 AM 35.5°F1.9°C 32.3°F0.2°C 88% 30.4 mph WSW48.9 kmh WSW 37.0 mph59.5 kmh 29.07 in984.4 mb 0.00 in0.0 mm 0.00 in0.0 mm 0.05 in1.3 mm
04:43 AM 35.5°F1.9°C 32.0°F0.0°C 87% 25.3 mph WSW40.7 kmh WSW 37.0 mph59.5 kmh 29.07 in984.4 mb 0.00 in0.0 mm 0.00 in0.0 mm 0.05 in1.3 mm
04:44 AM 35.5°F1.9°C 32.3°F0.2°C 88% 29.5 mph W47.5 kmh W 34.0 mph54.7 kmh 29.07 in984.4 mb 0.00 in0.0 mm 0.00 in0.0 mm 0.05 in1.3 mm
04:45 AM 35.5°F1.9°C 32.3°F0.2°C 88% 28.3 mph WSW45.5 kmh WSW 34.0 mph54.7 kmh 29.08 in984.8 mb 0.00 in0.0 mm 0.00 in0.0 mm 0.05 in1.3 mm
04:46 AM 35.5°F1.9°C 32.3°F0.2°C 88% 29.0 mph WSW46.7 kmh WSW 31.0 mph49.9 kmh 29.08 in984.8 mb 0.00 in0.0 mm 0.00 in0.0 mm 0.05 in1.3 mm
04:47 AM 35.5°F1.9°C 32.3°F0.2°C 88% 29.6 mph WSW47.6 kmh WSW 35.0 mph56.3 kmh 29.08 in984.8 mb 0.00 in0.0 mm 0.00 in0.0 mm 0.05 in1.3 mm
04:48 AM 35.5°F1.9°C 32.3°F0.2°C 88% 29.6 mph WSW47.6 kmh WSW 35.0 mph56.3 kmh 29.08 in984.8 mb 0.00 in0.0 mm 0.00 in0.0 mm 0.05 in1.3 mm
04:49 AM 35.5°F1.9°C 32.3°F0.2°C 88% 30.6 mph WSW49.2 kmh WSW 36.0 mph57.9 kmh 29.08 in984.8 mb 0.00 in0.0 mm 0.00 in0.0 mm 0.05 in1.3 mm
04:50 AM 35.5°F1.9°C 32.3°F0.2°C 88% 30.0 mph WSW48.3 kmh WSW 38.0 mph61.2 kmh 29.08 in984.8 mb 0.00 in0.0 mm 0.00 in0.0 mm 0.05 in1.3 mm
04:51 AM 35.5°F1.9°C 32.3°F0.2°C 88% 29.8 mph W48.0 kmh W 38.0 mph61.2 kmh 29.08 in984.8 mb 0.00 in0.0 mm 0.00 in0.0 mm 0.05 in1.3 mm
04:52 AM 35.5°F1.9°C 32.0°F0.0°C 87% 25.5 mph W41.0 kmh W 32.0 mph51.5 kmh 29.08 in984.8 mb 0.00 in0.0 mm 0.00 in0.0 mm 0.05 in1.3 mm
04:53 AM 35.5°F1.9°C 32.3°F0.2°C 88% 30.7 mph W49.4 kmh W 36.0 mph57.9 kmh 29.08 in984.8 mb 0.00 in0.0 mm 0.00 in0.0 mm 0.05 in1.3 mm
04:54 AM 35.5°F1.9°C 32.0°F0.0°C 87% 27.4 mph W44.1 kmh W 36.0 mph57.9 kmh 29.08 in984.8 mb 0.00 in0.0 mm 0.00 in0.0 mm 0.05 in1.3 mm
04:55 AM 35.5°F1.9°C 32.0°F0.0°C 87% 27.3 mph WSW43.9 kmh WSW 31.0 mph49.9 kmh 29.09 in985.1 mb 0.00 in0.0 mm 0.00 in0.0 mm 0.05 in1.3 mm
04:56 AM 35.4°F1.9°C 32.2°F0.1°C 88% 29.0 mph WSW46.7 kmh WSW 34.0 mph54.7 kmh 29.09 in985.1 mb 0.00 in0.0 mm 0.00 in0.0 mm 0.05 in1.3 mm
04:57 AM 35.4°F1.9°C 32.2°F0.1°C 88% 25.8 mph WSW41.5 kmh WSW 34.0 mph54.7 kmh 29.09 in985.1 mb 0.00 in0.0 mm 0.00 in0.0 mm 0.05 in1.3 mm
04:58 AM 35.4°F1.9°C 32.2°F0.1°C 88% 26.5 mph W42.6 kmh W 29.0 mph46.7 kmh 29.09 in985.1 mb 0.00 in0.0 mm 0.00 in0.0 mm 0.05 in1.3 mm
04:59 AM 35.3°F1.8°C 32.1°F0.1°C 88% 26.4 mph WSW42.5 kmh WSW 32.0 mph51.5 kmh 29.09 in985.1 mb 0.00 in0.0 mm 0.00 in0.0 mm 0.05 in1.3 mm
05:00 AM 35.4°F1.9°C 32.2°F0.1°C 88% 27.8 mph WSW44.7 kmh WSW 33.0 mph53.1 kmh 29.09 in985.1 mb 0.00 in0.0 mm 0.00 in0.0 mm 0.05 in1.3 mm
05:01 AM 35.4°F1.9°C 32.2°F0.1°C 88% 26.9 mph WSW43.3 kmh WSW 33.0 mph53.1 kmh 29.09 in985.1 mb 0.00 in0.0 mm 0.00 in0.0 mm 0.05 in1.3 mm
05:02 AM 35.3°F1.8°C 32.1°F0.1°C 88% 24.4 mph WSW39.3 kmh WSW 31.0 mph49.9 kmh 29.09 in985.1 mb 0.00 in0.0 mm 0.00 in0.0 mm 0.05 in1.3 mm
05:03 AM 35.3°F1.8°C 32.1°F0.1°C 88% 28.0 mph WSW45.1 kmh WSW 34.0 mph54.7 kmh 29.09 in985.1 mb 0.00 in0.0 mm 0.00 in0.0 mm 0.05 in1.3 mm
05:04 AM 35.3°F1.8°C 32.1°F0.1°C 88% 26.1 mph WSW42.0 kmh WSW 34.0 mph54.7 kmh 29.09 in985.1 mb 0.00 in0.0 mm 0.00 in0.0 mm 0.05 in1.3 mm
05:05 AM 35.3°F1.8°C 32.1°F0.1°C 88% 26.8 mph WSW43.1 kmh WSW 33.0 mph53.1 kmh 29.09 in985.1 mb 0.00 in0.0 mm 0.00 in0.0 mm 0.05 in1.3 mm
05:06 AM 35.3°F1.8°C 32.1°F0.1°C 88% 30.8 mph WSW49.6 kmh WSW 35.0 mph56.3 kmh 29.09 in985.1 mb 0.00 in0.0 mm 0.00 in0.0 mm 0.05 in1.3 mm
05:07 AM 35.3°F1.8°C 32.1°F0.1°C 88% 30.0 mph WSW48.3 kmh WSW 35.0 mph56.3 kmh 29.09 in985.1 mb 0.00 in0.0 mm 0.00 in0.0 mm 0.05 in1.3 mm
05:08 AM 35.3°F1.8°C 32.1°F0.1°C 88% 24.2 mph W38.9 kmh W 35.0 mph56.3 kmh 29.09 in985.1 mb 0.00 in0.0 mm 0.00 in0.0 mm 0.05 in1.3 mm
05:09 AM 35.3°F1.8°C 32.1°F0.1°C 88% 24.4 mph W39.3 kmh W 29.0 mph46.7 kmh 29.09 in985.1 mb 0.00 in0.0 mm 0.00 in0.0 mm 0.05 in1.3 mm
05:10 AM 35.2°F1.8°C 32.0°F0.0°C 88% 26.3 mph W42.3 kmh W 31.0 mph49.9 kmh 29.10 in985.4 mb 0.00 in0.0 mm 0.00 in0.0 mm 0.05 in1.3 mm
05:11 AM 35.2°F1.8°C 32.0°F0.0°C 88% 24.1 mph WSW38.8 kmh WSW 31.0 mph49.9 kmh 29.09 in985.1 mb 0.00 in0.0 mm 0.00 in0.0 mm 0.05 in1.3 mm
05:12 AM 35.2°F1.8°C 32.0°F0.0°C 88% 26.1 mph W42.0 kmh W 30.0 mph48.3 kmh 29.10 in985.4 mb 0.00 in0.0 mm 0.00 in0.0 mm 0.05 in1.3 mm
05:13 AM 35.2°F1.8°C 32.0°F0.0°C 88% 26.8 mph W43.1 kmh W 32.0 mph51.5 kmh 29.10 in985.4 mb 0.00 in0.0 mm 0.00 in0.0 mm 0.05 in1.3 mm
05:14 AM 35.2°F1.8°C 32.0°F0.0°C 88% 23.8 mph WSW38.3 kmh WSW 32.0 mph51.5 kmh 29.10 in985.4 mb 0.00 in0.0 mm 0.00 in0.0 mm 0.05 in1.3 mm
05:15 AM 35.2°F1.8°C 32.0°F0.0°C 88% 26.4 mph WSW42.5 kmh WSW 30.0 mph48.3 kmh 29.10 in985.4 mb 0.00 in0.0 mm 0.00 in0.0 mm 0.05 in1.3 mm
05:16 AM 35.2°F1.8°C 32.0°F0.0°C 88% 27.7 mph WSW44.6 kmh WSW 33.0 mph53.1 kmh 29.10 in985.4 mb 0.00 in0.0 mm 0.00 in0.0 mm 0.05 in1.3 mm
05:17 AM 35.2°F1.8°C 32.0°F0.0°C 88% 26.2 mph WSW42.2 kmh WSW 33.0 mph53.1 kmh 29.10 in985.4 mb 0.00 in0.0 mm 0.00 in0.0 mm 0.05 in1.3 mm
05:18 AM 35.2°F1.8°C 32.0°F0.0°C 88% 23.1 mph W37.2 kmh W 31.0 mph49.9 kmh 29.10 in985.4 mb 0.00 in0.0 mm 0.00 in0.0 mm 0.05 in1.3 mm
05:19 AM 35.2°F1.8°C 32.0°F0.0°C 88% 25.4 mph WSW40.9 kmh WSW 29.0 mph46.7 kmh 29.10 in985.4 mb 0.00 in0.0 mm 0.00 in0.0 mm 0.05 in1.3 mm
05:20 AM 35.2°F1.8°C 32.0°F0.0°C 88% 25.3 mph W40.7 kmh W 29.0 mph46.7 kmh 29.10 in985.4 mb 0.00 in0.0 mm 0.00 in0.0 mm 0.05 in1.3 mm
05:21 AM 35.2°F1.8°C 32.0°F0.0°C 88% 28.0 mph W45.1 kmh W 31.0 mph49.9 kmh 29.10 in985.4 mb 0.00 in0.0 mm 0.00 in0.0 mm 0.05 in1.3 mm
05:22 AM 35.2°F1.8°C 32.0°F0.0°C 88% 26.4 mph W42.5 kmh W 31.0 mph49.9 kmh 29.10 in985.4 mb 0.00 in0.0 mm 0.00 in0.0 mm 0.05 in1.3 mm
05:23 AM 35.2°F1.8°C 31.7°F-0.2°C 87% 25.0 mph WSW40.2 kmh WSW 31.0 mph49.9 kmh 29.10 in985.4 mb 0.00 in0.0 mm 0.00 in0.0 mm 0.05 in1.3 mm
05:24 AM 35.2°F1.8°C 31.7°F-0.2°C 87% 24.8 mph WSW39.9 kmh WSW 30.0 mph48.3 kmh 29.10 in985.4 mb 0.00 in0.0 mm 0.00 in0.0 mm 0.05 in1.3 mm
05:25 AM 35.3°F1.8°C 31.8°F-0.1°C 87% 26.7 mph W43.0 kmh W 30.0 mph48.3 kmh 29.10 in985.4 mb 0.00 in0.0 mm 0.00 in0.0 mm 0.05 in1.3 mm
05:26 AM 35.2°F1.8°C 31.7°F-0.2°C 87% 25.3 mph W40.7 kmh W 29.0 mph46.7 kmh 29.11 in985.8 mb 0.00 in0.0 mm 0.00 in0.0 mm 0.05 in1.3 mm
05:27 AM 35.2°F1.8°C 31.7°F-0.2°C 87% 23.6 mph WSW38.0 kmh WSW 28.0 mph45.1 kmh 29.11 in985.8 mb 0.00 in0.0 mm 0.00 in0.0 mm 0.05 in1.3 mm
05:28 AM 35.3°F1.8°C 31.8°F-0.1°C 87% 23.3 mph WSW37.5 kmh WSW 27.0 mph43.5 kmh 29.11 in985.8 mb 0.00 in0.0 mm 0.00 in0.0 mm 0.05 in1.3 mm
05:29 AM 35.2°F1.8°C 31.7°F-0.2°C 87% 25.3 mph WSW40.7 kmh WSW 31.0 mph49.9 kmh 29.11 in985.8 mb 0.00 in0.0 mm 0.00 in0.0 mm 0.05 in1.3 mm
05:30 AM 35.3°F1.8°C 31.8°F-0.1°C 87% 27.9 mph W44.9 kmh W 33.0 mph53.1 kmh 29.11 in985.8 mb 0.00 in0.0 mm 0.00 in0.0 mm 0.05 in1.3 mm
05:31 AM 35.2°F1.8°C 31.7°F-0.2°C 87% 26.9 mph W43.3 kmh W 33.0 mph53.1 kmh 29.11 in985.8 mb 0.00 in0.0 mm 0.00 in0.0 mm 0.05 in1.3 mm
05:32 AM 35.2°F1.8°C 31.7°F-0.2°C 87% 22.1 mph WSW35.6 kmh WSW 32.0 mph51.5 kmh 29.11 in985.8 mb 0.00 in0.0 mm 0.00 in0.0 mm 0.05 in1.3 mm
05:33 AM 35.2°F1.8°C 31.7°F-0.2°C 87% 28.1 mph WSW45.2 kmh WSW 32.0 mph51.5 kmh 29.11 in985.8 mb 0.00 in0.0 mm 0.00 in0.0 mm 0.05 in1.3 mm
05:34 AM 35.3°F1.8°C 31.8°F-0.1°C 87% 26.5 mph W42.6 kmh W 31.0 mph49.9 kmh 29.11 in985.8 mb 0.00 in0.0 mm 0.00 in0.0 mm 0.05 in1.3 mm
05:35 AM 35.3°F1.8°C 31.8°F-0.1°C 87% 28.0 mph WSW45.1 kmh WSW 33.0 mph53.1 kmh 29.11 in985.8 mb 0.00 in0.0 mm 0.00 in0.0 mm 0.05 in1.3 mm
05:36 AM 35.3°F1.8°C 31.8°F-0.1°C 87% 27.3 mph W43.9 kmh W 33.0 mph53.1 kmh 29.11 in985.8 mb 0.00 in0.0 mm 0.00 in0.0 mm 0.05 in1.3 mm
05:37 AM 35.3°F1.8°C 31.8°F-0.1°C 87% 23.9 mph WSW38.5 kmh WSW 31.0 mph49.9 kmh 29.11 in985.8 mb 0.00 in0.0 mm 0.00 in0.0 mm 0.05 in1.3 mm
05:38 AM 35.3°F1.8°C 31.8°F-0.1°C 87% 26.5 mph WSW42.6 kmh WSW 33.0 mph53.1 kmh 29.11 in985.8 mb 0.00 in0.0 mm 0.00 in0.0 mm 0.05 in1.3 mm
05:39 AM 35.3°F1.8°C 31.8°F-0.1°C 87% 24.3 mph W39.1 kmh W 33.0 mph53.1 kmh 29.12 in986.1 mb 0.00 in0.0 mm 0.00 in0.0 mm 0.05 in1.3 mm
05:40 AM 35.3°F1.8°C 31.8°F-0.1°C 87% 23.4 mph W37.7 kmh W 30.0 mph48.3 kmh 29.11 in985.8 mb 0.00 in0.0 mm 0.00 in0.0 mm 0.05 in1.3 mm
05:41 AM 35.2°F1.8°C 31.7°F-0.2°C 87% 23.5 mph W37.8 kmh W 29.0 mph46.7 kmh 29.11 in985.8 mb 0.00 in0.0 mm 0.00 in0.0 mm 0.05 in1.3 mm
05:42 AM 35.3°F1.8°C 31.8°F-0.1°C 87% 24.0 mph W38.6 kmh W 29.0 mph46.7 kmh 29.12 in986.1 mb 0.00 in0.0 mm 0.00 in0.0 mm 0.05 in1.3 mm
05:43 AM 35.2°F1.8°C 31.7°F-0.2°C 87% 25.3 mph W40.7 kmh W 29.0 mph46.7 kmh 29.12 in986.1 mb 0.00 in0.0 mm 0.00 in0.0 mm 0.05 in1.3 mm
05:44 AM 35.2°F1.8°C 31.7°F-0.2°C 87% 24.4 mph W39.3 kmh W 29.0 mph46.7 kmh 29.12 in986.1 mb 0.00 in0.0 mm 0.00 in0.0 mm 0.05 in1.3 mm
05:45 AM 35.2°F1.8°C 31.7°F-0.2°C 87% 25.2 mph W40.6 kmh W 30.0 mph48.3 kmh 29.12 in986.1 mb 0.00 in0.0 mm 0.00 in0.0 mm 0.05 in1.3 mm
05:46 AM 35.2°F1.8°C 31.7°F-0.2°C 87% 22.3 mph W35.9 kmh W 30.0 mph48.3 kmh 29.12 in986.1 mb 0.00 in0.0 mm 0.00 in0.0 mm 0.05 in1.3 mm
05:47 AM 35.2°F1.8°C 31.7°F-0.2°C 87% 25.6 mph W41.2 kmh W 30.0 mph48.3 kmh 29.12 in986.1 mb 0.00 in0.0 mm 0.00 in0.0 mm 0.05 in1.3 mm
05:48 AM 35.1°F1.7°C 31.6°F-0.2°C 87% 21.9 mph W35.2 kmh W 30.0 mph48.3 kmh 29.12 in986.1 mb 0.00 in0.0 mm 0.00 in0.0 mm 0.05 in1.3 mm
05:49 AM 35.1°F1.7°C 31.6°F-0.2°C 87% 22.2 mph W35.7 kmh W 28.0 mph45.1 kmh 29.12 in986.1 mb 0.00 in0.0 mm 0.00 in0.0 mm 0.05 in1.3 mm
05:50 AM 35.1°F1.7°C 31.6°F-0.2°C 87% 21.2 mph W34.1 kmh W 26.0 mph41.8 kmh 29.12 in986.1 mb 0.00 in0.0 mm 0.00 in0.0 mm 0.05 in1.3 mm
05:51 AM 35.0°F1.7°C 31.5°F-0.3°C 87% 23.2 mph W37.3 kmh W 27.0 mph43.5 kmh 29.13 in986.5 mb 0.00 in0.0 mm 0.00 in0.0 mm 0.05 in1.3 mm
05:52 AM 35.0°F1.7°C 31.5°F-0.3°C 87% 25.5 mph W41.0 kmh W 30.0 mph48.3 kmh 29.13 in986.5 mb 0.00 in0.0 mm 0.00 in0.0 mm 0.05 in1.3 mm
05:53 AM 35.0°F1.7°C 31.8°F-0.1°C 88% 23.1 mph W37.2 kmh W 30.0 mph48.3 kmh 29.13 in986.5 mb 0.00 in0.0 mm 0.00 in0.0 mm 0.05 in1.3 mm
05:54 AM 35.0°F1.7°C 31.8°F-0.1°C 88% 21.7 mph W34.9 kmh W 29.0 mph46.7 kmh 29.13 in986.5 mb 0.00 in0.0 mm 0.00 in0.0 mm 0.05 in1.3 mm
05:55 AM 35.0°F1.7°C 31.8°F-0.1°C 88% 19.8 mph W31.9 kmh W 26.0 mph41.8 kmh 29.13 in986.5 mb 0.00 in0.0 mm 0.00 in0.0 mm 0.05 in1.3 mm
05:56 AM 35.0°F1.7°C 31.8°F-0.1°C 88% 24.7 mph W39.8 kmh W 29.0 mph46.7 kmh 29.13 in986.5 mb 0.00 in0.0 mm 0.00 in0.0 mm 0.05 in1.3 mm
05:57 AM 34.9°F1.6°C 31.7°F-0.2°C 88% 20.3 mph W32.7 kmh W 29.0 mph46.7 kmh 29.13 in986.5 mb 0.00 in0.0 mm 0.00 in0.0 mm 0.05 in1.3 mm
05:58 AM 34.9°F1.6°C 31.7°F-0.2°C 88% 21.2 mph W34.1 kmh W 24.0 mph38.6 kmh 29.13 in986.5 mb 0.00 in0.0 mm 0.00 in0.0 mm 0.05 in1.3 mm
05:59 AM 34.9°F1.6°C 31.7°F-0.2°C 88% 18.7 mph W30.1 kmh W 24.0 mph38.6 kmh 29.13 in986.5 mb 0.00 in0.0 mm 0.00 in0.0 mm 0.05 in1.3 mm
06:00 AM 34.9°F1.6°C 31.7°F-0.2°C 88% 17.8 mph W28.6 kmh W 23.0 mph37.0 kmh 29.13 in986.5 mb 0.00 in0.0 mm 0.00 in0.0 mm 0.05 in1.3 mm
06:01 AM 34.9°F1.6°C 31.7°F-0.2°C 88% 18.8 mph W30.3 kmh W 26.0 mph41.8 kmh 29.13 in986.5 mb 0.00 in0.0 mm 0.00 in0.0 mm 0.05 in1.3 mm
06:02 AM 34.8°F1.6°C 31.6°F-0.2°C 88% 23.5 mph W37.8 kmh W 29.0 mph46.7 kmh 29.14 in986.8 mb 0.00 in0.0 mm 0.00 in0.0 mm 0.05 in1.3 mm
06:03 AM 34.8°F1.6°C 31.6°F-0.2°C 88% 21.8 mph W35.1 kmh W 29.0 mph46.7 kmh 29.14 in986.8 mb 0.00 in0.0 mm 0.00 in0.0 mm 0.05 in1.3 mm
06:04 AM 34.8°F1.6°C 31.6°F-0.2°C 88% 21.3 mph W34.3 kmh W 28.0 mph45.1 kmh 29.14 in986.8 mb 0.00 in0.0 mm 0.00 in0.0 mm 0.05 in1.3 mm
06:05 AM 34.9°F1.6°C 31.7°F-0.2°C 88% 25.6 mph W41.2 kmh W 28.0 mph45.1 kmh 29.14 in986.8 mb 0.00 in0.0 mm 0.00 in0.0 mm 0.05 in1.3 mm
06:06 AM 34.9°F1.6°C 31.7°F-0.2°C 88% 24.3 mph W39.1 kmh W 30.0 mph48.3 kmh 29.14 in986.8 mb 0.00 in0.0 mm 0.00 in0.0 mm 0.05 in1.3 mm
06:07 AM 34.9°F1.6°C 31.4°F-0.3°C 87% 19.3 mph W31.1 kmh W 28.0 mph45.1 kmh 29.14 in986.8 mb 0.00 in0.0 mm 0.00 in0.0 mm 0.05 in1.3 mm
06:08 AM 34.9°F1.6°C 31.4°F-0.3°C 87% 21.7 mph W34.9 kmh W 27.0 mph43.5 kmh 29.14 in986.8 mb 0.00 in0.0 mm 0.00 in0.0 mm 0.05 in1.3 mm
06:09 AM 35.0°F1.7°C 31.8°F-0.1°C 88% 24.2 mph W38.9 kmh W 28.0 mph45.1 kmh 29.14 in986.8 mb 0.00 in0.0 mm 0.00 in0.0 mm 0.05 in1.3 mm
06:10 AM 34.9°F1.6°C 31.4°F-0.3°C 87% 26.7 mph W43.0 kmh W 30.0 mph48.3 kmh 29.14 in986.8 mb 0.00 in0.0 mm 0.00 in0.0 mm 0.05 in1.3 mm
06:11 AM 34.9°F1.6°C 31.4°F-0.3°C 87% 23.8 mph W38.3 kmh W 30.0 mph48.3 kmh 29.14 in986.8 mb 0.00 in0.0 mm 0.00 in0.0 mm 0.05 in1.3 mm
06:12 AM 34.9°F1.6°C 31.7°F-0.2°C 88% 23.6 mph W38.0 kmh W 29.0 mph46.7 kmh 29.14 in986.8 mb 0.00 in0.0 mm 0.00 in0.0 mm 0.05 in1.3 mm
06:13 AM 34.9°F1.6°C 31.7°F-0.2°C 88% 23.2 mph W37.3 kmh W 30.0 mph48.3 kmh 29.14 in986.8 mb 0.00 in0.0 mm 0.00 in0.0 mm 0.05 in1.3 mm
06:14 AM 34.9°F1.6°C 31.7°F-0.2°C 88% 22.8 mph W36.7 kmh W 30.0 mph48.3 kmh 29.14 in986.8 mb 0.00 in0.0 mm 0.00 in0.0 mm 0.05 in1.3 mm
06:15 AM 34.8°F1.6°C 31.6°F-0.2°C 88% 22.6 mph W36.4 kmh W 28.0 mph45.1 kmh 29.14 in986.8 mb 0.00 in0.0 mm 0.00 in0.0 mm 0.05 in1.3 mm
06:16 AM 34.8°F1.6°C 31.6°F-0.2°C 88% 24.9 mph W40.1 kmh W 27.0 mph43.5 kmh 29.14 in986.8 mb 0.00 in0.0 mm 0.00 in0.0 mm 0.05 in1.3 mm
06:17 AM 34.7°F1.5°C 31.5°F-0.3°C 88% 23.0 mph W37.0 kmh W 27.0 mph43.5 kmh 29.14 in986.8 mb 0.00 in0.0 mm 0.00 in0.0 mm 0.05 in1.3 mm
06:18 AM 34.6°F1.4°C 31.4°F-0.3°C 88% 23.1 mph W37.2 kmh W 28.0 mph45.1 kmh 29.14 in986.8 mb 0.00 in0.0 mm 0.00 in0.0 mm 0.05 in1.3 mm
06:19 AM 34.6°F1.4°C 31.7°F-0.2°C 89% 22.1 mph W35.6 kmh W 28.0 mph45.1 kmh 29.14 in986.8 mb 0.00 in0.0 mm 0.00 in0.0 mm 0.05 in1.3 mm
06:20 AM 34.5°F1.4°C 31.6°F-0.2°C 89% 18.7 mph W30.1 kmh W 25.0 mph40.2 kmh 29.15 in987.1 mb 0.00 in0.0 mm 0.00 in0.0 mm 0.05 in1.3 mm
06:21 AM 34.5°F1.4°C 31.6°F-0.2°C 89% 19.8 mph W31.9 kmh W 24.0 mph38.6 kmh 29.15 in987.1 mb 0.00 in0.0 mm 0.00 in0.0 mm 0.05 in1.3 mm
06:22 AM 34.4°F1.3°C 31.5°F-0.3°C 89% 21.4 mph W34.4 kmh W 27.0 mph43.5 kmh 29.15 in987.1 mb 0.00 in0.0 mm 0.00 in0.0 mm 0.05 in1.3 mm
06:23 AM 34.4°F1.3°C 31.5°F-0.3°C 89% 23.8 mph W38.3 kmh W 27.0 mph43.5 kmh 29.15 in987.1 mb 0.00 in0.0 mm 0.00 in0.0 mm 0.05 in1.3 mm
06:24 AM 34.4°F1.3°C 31.5°F-0.3°C 89% 21.7 mph W34.9 kmh W 27.0 mph43.5 kmh 29.15 in987.1 mb 0.00 in0.0 mm 0.00 in0.0 mm 0.05 in1.3 mm
06:25 AM 34.4°F1.3°C 31.5°F-0.3°C 89% 24.5 mph W39.4 kmh W 30.0 mph48.3 kmh 29.15 in987.1 mb 0.00 in0.0 mm 0.00 in0.0 mm 0.05 in1.3 mm
06:26 AM 34.5°F1.4°C 31.6°F-0.2°C 89% 23.0 mph W37.0 kmh W 30.0 mph48.3 kmh 29.15 in987.1 mb 0.00 in0.0 mm 0.00 in0.0 mm 0.05 in1.3 mm
06:27 AM 34.4°F1.3°C 31.5°F-0.3°C 89% 20.2 mph W32.5 kmh W 29.0 mph46.7 kmh 29.15 in987.1 mb 0.00 in0.0 mm 0.00 in0.0 mm 0.05 in1.3 mm
06:28 AM 34.4°F1.3°C 31.5°F-0.3°C 89% 20.4 mph W32.8 kmh W 24.0 mph38.6 kmh 29.15 in987.1 mb 0.00 in0.0 mm 0.00 in0.0 mm 0.05 in1.3 mm
06:29 AM 34.4°F1.3°C 31.5°F-0.3°C 89% 19.8 mph W31.9 kmh W 24.0 mph38.6 kmh 29.15 in987.1 mb 0.00 in0.0 mm 0.00 in0.0 mm 0.05 in1.3 mm
06:30 AM 34.4°F1.3°C 31.5°F-0.3°C 89% 19.6 mph W31.5 kmh W 25.0 mph40.2 kmh 29.15 in987.1 mb 0.00 in0.0 mm 0.00 in0.0 mm 0.05 in1.3 mm
06:31 AM 34.4°F1.3°C 31.5°F-0.3°C 89% 20.5 mph W33.0 kmh W 25.0 mph40.2 kmh 29.15 in987.1 mb 0.00 in0.0 mm 0.00 in0.0 mm 0.05 in1.3 mm
06:32 AM 34.4°F1.3°C 31.5°F-0.3°C 89% 21.6 mph W34.8 kmh W 25.0 mph40.2 kmh 29.15 in987.1 mb 0.00 in0.0 mm 0.00 in0.0 mm 0.05 in1.3 mm
06:33 AM 34.3°F1.3°C 31.4°F-0.3°C 89% 20.7 mph W33.3 kmh W 25.0 mph40.2 kmh 29.15 in987.1 mb 0.00 in0.0 mm 0.00 in0.0 mm 0.05 in1.3 mm
06:34 AM 34.4°F1.3°C 31.5°F-0.3°C 89% 21.3 mph W34.3 kmh W 27.0 mph43.5 kmh 29.15 in987.1 mb 0.00 in0.0 mm 0.00 in0.0 mm 0.05 in1.3 mm
06:35 AM 34.4°F1.3°C 31.5°F-0.3°C 89% 18.6 mph W29.9 kmh W 26.0 mph41.8 kmh 29.16 in987.5 mb 0.00 in0.0 mm 0.00 in0.0 mm 0.05 in1.3 mm
06:36 AM 34.4°F1.3°C 31.5°F-0.3°C 89% 21.2 mph W34.1 kmh W 26.0 mph41.8 kmh 29.16 in987.5 mb 0.00 in0.0 mm 0.00 in0.0 mm 0.05 in1.3 mm
06:37 AM 34.4°F1.3°C 31.5°F-0.3°C 89% 20.6 mph W33.2 kmh W 26.0 mph41.8 kmh 29.16 in987.5 mb 0.00 in0.0 mm 0.00 in0.0 mm 0.05 in1.3 mm
06:38 AM 34.4°F1.3°C 31.5°F-0.3°C 89% 20.2 mph W32.5 kmh W 25.0 mph40.2 kmh 29.16 in987.5 mb 0.00 in0.0 mm 0.00 in0.0 mm 0.05 in1.3 mm
06:39 AM 34.4°F1.3°C 31.5°F-0.3°C 89% 19.5 mph W31.4 kmh W 25.0 mph40.2 kmh 29.16 in987.5 mb 0.00 in0.0 mm 0.00 in0.0 mm 0.05 in1.3 mm
06:40 AM 34.4°F1.3°C 31.5°F-0.3°C 89% 19.5 mph W31.4 kmh W 24.0 mph38.6 kmh 29.16 in987.5 mb 0.00 in0.0 mm 0.00 in0.0 mm 0.05 in1.3 mm
06:41 AM 34.4°F1.3°C 31.5°F-0.3°C 89% 17.3 mph W27.8 kmh W 24.0 mph38.6 kmh 29.16 in987.5 mb 0.00 in0.0 mm 0.00 in0.0 mm 0.05 in1.3 mm
06:42 AM 34.4°F1.3°C 31.5°F-0.3°C 89% 20.4 mph W32.8 kmh W 26.0 mph41.8 kmh 29.16 in987.5 mb 0.00 in0.0 mm 0.00 in0.0 mm 0.05 in1.3 mm
06:43 AM 34.4°F1.3°C 31.5°F-0.3°C 89% 18.5 mph W29.8 kmh W 26.0 mph41.8 kmh 29.16 in987.5 mb 0.00 in0.0 mm 0.00 in0.0 mm 0.05 in1.3 mm
06:44 AM 34.4°F1.3°C 31.5°F-0.3°C 89% 22.0 mph W35.4 kmh W 27.0 mph43.5 kmh 29.16 in987.5 mb 0.00 in0.0 mm 0.00 in0.0 mm 0.05 in1.3 mm
06:45 AM 34.5°F1.4°C 31.6°F-0.2°C 89% 23.1 mph W37.2 kmh W 27.0 mph43.5 kmh 29.16 in987.5 mb 0.00 in0.0 mm 0.00 in0.0 mm 0.05 in1.3 mm
06:46 AM 34.5°F1.4°C 31.6°F-0.2°C 89% 22.2 mph W35.7 kmh W 26.0 mph41.8 kmh 29.16 in987.5 mb 0.00 in0.0 mm 0.00 in0.0 mm 0.05 in1.3 mm
06:47 AM 34.5°F1.4°C 31.6°F-0.2°C 89% 20.8 mph W33.5 kmh W 26.0 mph41.8 kmh 29.16 in987.5 mb 0.00 in0.0 mm 0.00 in0.0 mm 0.05 in1.3 mm
06:48 AM 34.5°F1.4°C 31.6°F-0.2°C 89% 19.8 mph WNW31.9 kmh WNW 24.0 mph38.6 kmh 29.17 in987.8 mb 0.00 in0.0 mm 0.00 in0.0 mm 0.05 in1.3 mm
06:49 AM 34.6°F1.4°C 31.7°F-0.2°C 89% 21.5 mph W34.6 kmh W 26.0 mph41.8 kmh 29.17 in987.8 mb 0.00 in0.0 mm 0.00 in0.0 mm 0.05 in1.3 mm
06:50 AM 34.6°F1.4°C 31.7°F-0.2°C 89% 24.2 mph W38.9 kmh W 28.0 mph45.1 kmh 29.17 in987.8 mb 0.00 in0.0 mm 0.00 in0.0 mm 0.05 in1.3 mm
06:51 AM 34.6°F1.4°C 31.7°F-0.2°C 89% 19.9 mph W32.0 kmh W 28.0 mph45.1 kmh 29.17 in987.8 mb 0.00 in0.0 mm 0.00 in0.0 mm 0.05 in1.3 mm
06:52 AM 34.6°F1.4°C 31.7°F-0.2°C 89% 18.8 mph W30.3 kmh W 24.0 mph38.6 kmh 29.17 in987.8 mb 0.00 in0.0 mm 0.00 in0.0 mm 0.05 in1.3 mm
06:53 AM 34.6°F1.4°C 31.7°F-0.2°C 89% 21.1 mph W34.0 kmh W 23.0 mph37.0 kmh 29.17 in987.8 mb 0.00 in0.0 mm 0.00 in0.0 mm 0.05 in1.3 mm
06:54 AM 34.6°F1.4°C 31.7°F-0.2°C 89% 19.5 mph W31.4 kmh W 23.0 mph37.0 kmh 29.17 in987.8 mb 0.00 in0.0 mm 0.00 in0.0 mm 0.05 in1.3 mm
06:55 AM 34.5°F1.4°C 31.6°F-0.2°C 89% 19.4 mph W31.2 kmh W 24.0 mph38.6 kmh 29.17 in987.8 mb 0.00 in0.0 mm 0.00 in0.0 mm 0.05 in1.3 mm
06:56 AM 34.5°F1.4°C 31.6°F-0.2°C 89% 22.8 mph W36.7 kmh W 27.0 mph43.5 kmh 29.17 in987.8 mb 0.00 in0.0 mm 0.00 in0.0 mm 0.05 in1.3 mm
06:57 AM 34.5°F1.4°C 31.6°F-0.2°C 89% 21.5 mph W34.6 kmh W 27.0 mph43.5 kmh 29.17 in987.8 mb 0.00 in0.0 mm 0.00 in0.0 mm 0.05 in1.3 mm
06:58 AM 34.4°F1.3°C 31.5°F-0.3°C 89% 19.8 mph W31.9 kmh W 27.0 mph43.5 kmh 29.17 in987.8 mb 0.00 in0.0 mm 0.00 in0.0 mm 0.05 in1.3 mm
06:59 AM 34.4°F1.3°C 31.5°F-0.3°C 89% 20.9 mph W33.6 kmh W 25.0 mph40.2 kmh 29.17 in987.8 mb 0.00 in0.0 mm 0.00 in0.0 mm 0.05 in1.3 mm
07:00 AM 34.4°F1.3°C 31.5°F-0.3°C 89% 17.5 mph W28.2 kmh W 25.0 mph40.2 kmh 29.18 in988.1 mb 0.00 in0.0 mm 0.00 in0.0 mm 0.05 in1.3 mm
07:01 AM 34.3°F1.3°C 31.4°F-0.3°C 89% 16.3 mph W26.2 kmh W 20.0 mph32.2 kmh 29.18 in988.1 mb 0.00 in0.0 mm 0.00 in0.0 mm 0.05 in1.3 mm
07:02 AM 34.2°F1.2°C 31.3°F-0.4°C 89% 17.1 mph W27.5 kmh W 19.0 mph30.6 kmh 29.18 in988.1 mb 0.00 in0.0 mm 0.00 in0.0 mm 0.05 in1.3 mm
07:03 AM 34.2°F1.2°C 31.3°F-0.4°C 89% 21.2 mph W34.1 kmh W 27.0 mph43.5 kmh 29.18 in988.1 mb 0.00 in0.0 mm 0.00 in0.0 mm 0.05 in1.3 mm
07:04 AM 34.2°F1.2°C 31.6°F-0.2°C 90% 21.4 mph W34.4 kmh W 27.0 mph43.5 kmh 29.18 in988.1 mb 0.00 in0.0 mm 0.00 in0.0 mm 0.05 in1.3 mm
07:05 AM 34.3°F1.3°C 31.7°F-0.2°C 90% 19.0 mph W30.6 kmh W 24.0 mph38.6 kmh 29.18 in988.1 mb 0.00 in0.0 mm 0.00 in0.0 mm 0.05 in1.3 mm
07:06 AM 34.3°F1.3°C 31.7°F-0.2°C 90% 19.1 mph W30.7 kmh W 24.0 mph38.6 kmh 29.18 in988.1 mb 0.00 in0.0 mm 0.00 in0.0 mm 0.05 in1.3 mm
07:07 AM 34.3°F1.3°C 31.7°F-0.2°C 90% 20.9 mph W33.6 kmh W 27.0 mph43.5 kmh 29.18 in988.1 mb 0.00 in0.0 mm 0.00 in0.0 mm 0.05 in1.3 mm
07:08 AM 34.3°F1.3°C 31.4°F-0.3°C 89% 22.5 mph W36.2 kmh W 27.0 mph43.5 kmh 29.18 in988.1 mb 0.00 in0.0 mm 0.00 in0.0 mm 0.05 in1.3 mm
07:09 AM 34.3°F1.3°C 31.7°F-0.2°C 90% 19.8 mph W31.9 kmh W 26.0 mph41.8 kmh 29.18 in988.1 mb 0.00 in0.0 mm 0.00 in0.0 mm 0.05 in1.3 mm
07:10 AM 34.3°F1.3°C 31.7°F-0.2°C 90% 21.5 mph W34.6 kmh W 24.0 mph38.6 kmh 29.18 in988.1 mb 0.00 in0.0 mm 0.00 in0.0 mm 0.05 in1.3 mm
07:11 AM 34.4°F1.3°C 31.8°F-0.1°C 90% 19.9 mph W32.0 kmh W 24.0 mph38.6 kmh 29.18 in988.1 mb 0.00 in0.0 mm 0.00 in0.0 mm 0.05 in1.3 mm
07:12 AM 34.4°F1.3°C 31.8°F-0.1°C 90% 18.9 mph W30.4 kmh W 24.0 mph38.6 kmh 29.18 in988.1 mb 0.00 in0.0 mm 0.00 in0.0 mm 0.05 in1.3 mm
07:13 AM 34.4°F1.3°C 31.8°F-0.1°C 90% 22.1 mph W35.6 kmh W 27.0 mph43.5 kmh 29.18 in988.1 mb 0.00 in0.0 mm 0.00 in0.0 mm 0.05 in1.3 mm
07:14 AM 34.4°F1.3°C 31.5°F-0.3°C 89% 17.5 mph W28.2 kmh W 27.0 mph43.5 kmh 29.18 in988.1 mb 0.00 in0.0 mm 0.00 in0.0 mm 0.05 in1.3 mm
07:15 AM 34.4°F1.3°C 31.5°F-0.3°C 89% 15.9 mph W25.6 kmh W 20.0 mph32.2 kmh 29.18 in988.1 mb 0.00 in0.0 mm 0.00 in0.0 mm 0.05 in1.3 mm
07:16 AM 34.4°F1.3°C 31.5°F-0.3°C 89% 17.8 mph W28.6 kmh W 24.0 mph38.6 kmh 29.19 in988.5 mb 0.00 in0.0 mm 0.00 in0.0 mm 0.05 in1.3 mm
07:17 AM 34.4°F1.3°C 31.5°F-0.3°C 89% 21.3 mph W34.3 kmh W 24.0 mph38.6 kmh 29.19 in988.5 mb 0.00 in0.0 mm 0.00 in0.0 mm 0.05 in1.3 mm
07:18 AM 34.4°F1.3°C 31.5°F-0.3°C 89% 18.6 mph W29.9 kmh W 24.0 mph38.6 kmh 29.19 in988.5 mb 0.00 in0.0 mm 0.00 in0.0 mm 0.05 in1.3 mm
07:19 AM 34.4°F1.3°C 31.5°F-0.3°C 89% 20.2 mph W32.5 kmh W 24.0 mph38.6 kmh 29.19 in988.5 mb 0.00 in0.0 mm 0.00 in0.0 mm 0.05 in1.3 mm
07:20 AM 34.4°F1.3°C 31.5°F-0.3°C 89% 21.5 mph W34.6 kmh W 27.0 mph43.5 kmh 29.19 in988.5 mb 0.00 in0.0 mm 0.00 in0.0 mm 0.05 in1.3 mm
07:21 AM 34.4°F1.3°C 31.5°F-0.3°C 89% 20.4 mph W32.8 kmh W 27.0 mph43.5 kmh 29.19 in988.5 mb 0.00 in0.0 mm 0.00 in0.0 mm 0.05 in1.3 mm
07:22 AM 34.4°F1.3°C 31.5°F-0.3°C 89% 18.6 mph W29.9 kmh W 23.0 mph37.0 kmh 29.19 in988.5 mb 0.00 in0.0 mm 0.00 in0.0 mm 0.05 in1.3 mm
07:23 AM 34.4°F1.3°C 31.5°F-0.3°C 89% 19.8 mph W31.9 kmh W 25.0 mph40.2 kmh 29.19 in988.5 mb 0.00 in0.0 mm 0.00 in0.0 mm 0.05 in1.3 mm
07:24 AM 34.4°F1.3°C 31.8°F-0.1°C 90% 19.2 mph W30.9 kmh W 25.0 mph40.2 kmh 29.19 in988.5 mb 0.00 in0.0 mm 0.00 in0.0 mm 0.05 in1.3 mm
07:25 AM 34.4°F1.3°C 31.8°F-0.1°C 90% 18.7 mph W30.1 kmh W 25.0 mph40.2 kmh 29.19 in988.5 mb 0.00 in0.0 mm 0.00 in0.0 mm 0.05 in1.3 mm
07:26 AM 34.4°F1.3°C 31.8°F-0.1°C 90% 19.6 mph W31.5 kmh W 25.0 mph40.2 kmh 29.19 in988.5 mb 0.00 in0.0 mm 0.00 in0.0 mm 0.05 in1.3 mm
07:27 AM 34.5°F1.4°C 31.6°F-0.2°C 89% 18.4 mph W29.6 kmh W 25.0 mph40.2 kmh 29.19 in988.5 mb 0.00 in0.0 mm 0.00 in0.0 mm 0.05 in1.3 mm
07:28 AM 34.4°F1.3°C 31.5°F-0.3°C 89% 20.6 mph W33.2 kmh W 24.0 mph38.6 kmh 29.19 in988.5 mb 0.00 in0.0 mm 0.00 in0.0 mm 0.05 in1.3 mm
07:29 AM 34.5°F1.4°C 31.6°F-0.2°C 89% 19.2 mph W30.9 kmh W 24.0 mph38.6 kmh 29.19 in988.5 mb 0.00 in0.0 mm 0.00 in0.0 mm 0.05 in1.3 mm
07:30 AM 34.6°F1.4°C 31.7°F-0.2°C 89% 21.3 mph W34.3 kmh W 25.0 mph40.2 kmh 29.19 in988.5 mb 0.00 in0.0 mm 0.00 in0.0 mm 0.05 in1.3 mm
07:31 AM 34.6°F1.4°C 31.7°F-0.2°C 89% 20.1 mph W32.3 kmh W 25.0 mph40.2 kmh 29.20 in988.8 mb 0.00 in0.0 mm 0.00 in0.0 mm 0.05 in1.3 mm
07:32 AM 34.6°F1.4°C 31.7°F-0.2°C 89% 20.2 mph W32.5 kmh W 25.0 mph40.2 kmh 29.20 in988.8 mb 0.00 in0.0 mm 0.00 in0.0 mm 0.05 in1.3 mm
07:33 AM 34.7°F1.5°C 31.8°F-0.1°C 89% 19.7 mph W31.7 kmh W 25.0 mph40.2 kmh 29.20 in988.8 mb 0.00 in0.0 mm 0.00 in0.0 mm 0.05 in1.3 mm
07:34 AM 34.7°F1.5°C 31.8°F-0.1°C 89% 18.4 mph W29.6 kmh W 24.0 mph38.6 kmh 29.20 in988.8 mb 0.00 in0.0 mm 0.00 in0.0 mm 0.05 in1.3 mm
07:35 AM 34.7°F1.5°C 31.5°F-0.3°C 88% 18.9 mph W30.4 kmh W 24.0 mph38.6 kmh 29.20 in988.8 mb 0.00 in0.0 mm 0.00 in0.0 mm 0.05 in1.3 mm
07:36 AM 34.8°F1.6°C 31.6°F-0.2°C 88% 23.2 mph W37.3 kmh W 27.0 mph43.5 kmh 29.20 in988.8 mb 0.00 in0.0 mm 0.00 in0.0 mm 0.05 in1.3 mm
07:37 AM 34.8°F1.6°C 31.6°F-0.2°C 88% 21.3 mph W34.3 kmh W 27.0 mph43.5 kmh 29.20 in988.8 mb 0.00 in0.0 mm 0.00 in0.0 mm 0.05 in1.3 mm
07:38 AM 34.8°F1.6°C 31.6°F-0.2°C 88% 21.8 mph W35.1 kmh W 28.0 mph45.1 kmh 29.20 in988.8 mb 0.00 in0.0 mm 0.00 in0.0 mm 0.05 in1.3 mm
07:39 AM 34.8°F1.6°C 31.6°F-0.2°C 88% 23.4 mph W37.7 kmh W 29.0 mph46.7 kmh 29.20 in988.8 mb 0.00 in0.0 mm 0.00 in0.0 mm 0.05 in1.3 mm
07:40 AM 34.9°F1.6°C 31.7°F-0.2°C 88% 19.2 mph W30.9 kmh W 29.0 mph46.7 kmh 29.20 in988.8 mb 0.00 in0.0 mm 0.00 in0.0 mm 0.05 in1.3 mm
07:41 AM 34.9°F1.6°C 31.7°F-0.2°C 88% 20.7 mph W33.3 kmh W 24.0 mph38.6 kmh 29.20 in988.8 mb 0.00 in0.0 mm 0.00 in0.0 mm 0.05 in1.3 mm
07:42 AM 34.9°F1.6°C 31.7°F-0.2°C 88% 21.5 mph W34.6 kmh W 26.0 mph41.8 kmh 29.20 in988.8 mb 0.00 in0.0 mm 0.00 in0.0 mm 0.05 in1.3 mm
07:43 AM 34.8°F1.6°C 31.6°F-0.2°C 88% 21.9 mph W35.2 kmh W 28.0 mph45.1 kmh 29.20 in988.8 mb 0.00 in0.0 mm 0.00 in0.0 mm 0.05 in1.3 mm
07:44 AM 34.8°F1.6°C 31.6°F-0.2°C 88% 22.2 mph W35.7 kmh W 28.0 mph45.1 kmh 29.21 in989.2 mb 0.00 in0.0 mm 0.00 in0.0 mm 0.05 in1.3 mm
07:45 AM 34.8°F1.6°C 31.6°F-0.2°C 88% 22.6 mph W36.4 kmh W 25.0 mph40.2 kmh 29.21 in989.2 mb 0.00 in0.0 mm 0.00 in0.0 mm 0.05 in1.3 mm
07:46 AM 34.8°F1.6°C 31.6°F-0.2°C 88% 24.5 mph W39.4 kmh W 31.0 mph49.9 kmh 29.21 in989.2 mb 0.00 in0.0 mm 0.00 in0.0 mm 0.05 in1.3 mm
07:47 AM 34.8°F1.6°C 31.6°F-0.2°C 88% 25.2 mph W40.6 kmh W 31.0 mph49.9 kmh 29.21 in989.2 mb 0.00 in0.0 mm 0.00 in0.0 mm 0.05 in1.3 mm
07:48 AM 34.8°F1.6°C 31.6°F-0.2°C 88% 23.3 mph W37.5 kmh W 28.0 mph45.1 kmh 29.21 in989.2 mb 0.00 in0.0 mm 0.00 in0.0 mm 0.05 in1.3 mm
07:49 AM 34.8°F1.6°C 31.6°F-0.2°C 88% 23.5 mph W37.8 kmh W 27.0 mph43.5 kmh 29.21 in989.2 mb 0.00 in0.0 mm 0.00 in0.0 mm 0.05 in1.3 mm
07:50 AM 34.8°F1.6°C 31.6°F-0.2°C 88% 26.3 mph W42.3 kmh W 31.0 mph49.9 kmh 29.21 in989.2 mb 0.00 in0.0 mm 0.00 in0.0 mm 0.05 in1.3 mm
07:51 AM 34.8°F1.6°C 31.6°F-0.2°C 88% 22.7 mph W36.5 kmh W 31.0 mph49.9 kmh 29.21 in989.2 mb 0.00 in0.0 mm 0.00 in0.0 mm 0.05 in1.3 mm
07:52 AM 34.8°F1.6°C 31.6°F-0.2°C 88% 20.2 mph W32.5 kmh W 27.0 mph43.5 kmh 29.21 in989.2 mb 0.00 in0.0 mm 0.00 in0.0 mm 0.05 in1.3 mm
07:53 AM 34.8°F1.6°C 31.6°F-0.2°C 88% 22.4 mph W36.0 kmh W 25.0 mph40.2 kmh 29.21 in989.2 mb 0.00 in0.0 mm 0.00 in0.0 mm 0.05 in1.3 mm
07:54 AM 34.8°F1.6°C 31.6°F-0.2°C 88% 23.7 mph W38.1 kmh W 26.0 mph41.8 kmh 29.21 in989.2 mb 0.00 in0.0 mm 0.00 in0.0 mm 0.05 in1.3 mm
07:55 AM 34.7°F1.5°C 31.5°F-0.3°C 88% 23.4 mph W37.7 kmh W 27.0 mph43.5 kmh 29.21 in989.2 mb 0.00 in0.0 mm 0.00 in0.0 mm 0.05 in1.3 mm
07:56 AM 34.7°F1.5°C 31.5°F-0.3°C 88% 23.8 mph W38.3 kmh W 27.0 mph43.5 kmh 29.21 in989.2 mb 0.00 in0.0 mm 0.00 in0.0 mm 0.05 in1.3 mm
07:57 AM 34.7°F1.5°C 31.5°F-0.3°C 88% 20.9 mph W33.6 kmh W 27.0 mph43.5 kmh 29.21 in989.2 mb 0.00 in0.0 mm 0.00 in0.0 mm 0.05 in1.3 mm
07:58 AM 34.6°F1.4°C 31.4°F-0.3°C 88% 24.3 mph W39.1 kmh W 26.0 mph41.8 kmh 29.21 in989.2 mb 0.00 in0.0 mm 0.00 in0.0 mm 0.05 in1.3 mm
07:59 AM 34.6°F1.4°C 31.4°F-0.3°C 88% 20.5 mph W33.0 kmh W 26.0 mph41.8 kmh 29.21 in989.2 mb 0.00 in0.0 mm 0.00 in0.0 mm 0.05 in1.3 mm
08:00 AM 34.6°F1.4°C 31.7°F-0.2°C 89% 21.7 mph W34.9 kmh W 26.0 mph41.8 kmh 29.21 in989.2 mb 0.00 in0.0 mm 0.00 in0.0 mm 0.05 in1.3 mm
08:01 AM 34.6°F1.4°C 31.7°F-0.2°C 89% 19.4 mph W31.2 kmh W 26.0 mph41.8 kmh 29.21 in989.2 mb 0.00 in0.0 mm 0.00 in0.0 mm 0.05 in1.3 mm
08:02 AM 34.6°F1.4°C 31.7°F-0.2°C 89% 22.6 mph W36.4 kmh W 28.0 mph45.1 kmh 29.21 in989.2 mb 0.00 in0.0 mm 0.00 in0.0 mm 0.05 in1.3 mm
08:03 AM 34.6°F1.4°C 31.7°F-0.2°C 89% 19.4 mph W31.2 kmh W 28.0 mph45.1 kmh 29.22 in989.5 mb 0.00 in0.0 mm 0.00 in0.0 mm 0.05 in1.3 mm
08:04 AM 34.6°F1.4°C 31.7°F-0.2°C 89% 21.2 mph W34.1 kmh W 25.0 mph40.2 kmh 29.22 in989.5 mb 0.00 in0.0 mm 0.00 in0.0 mm 0.05 in1.3 mm
08:05 AM 34.6°F1.4°C 31.7°F-0.2°C 89% 21.9 mph W35.2 kmh W 27.0 mph43.5 kmh 29.22 in989.5 mb 0.00 in0.0 mm 0.00 in0.0 mm 0.05 in1.3 mm
08:06 AM 34.7°F1.5°C 31.8°F-0.1°C 89% 21.4 mph W34.4 kmh W 27.0 mph43.5 kmh 29.22 in989.5 mb 0.00 in0.0 mm 0.00 in0.0 mm 0.05 in1.3 mm
08:07 AM 34.7°F1.5°C 31.5°F-0.3°C 88% 20.0 mph W32.2 kmh W 25.0 mph40.2 kmh 29.22 in989.5 mb 0.00 in0.0 mm 0.00 in0.0 mm 0.05 in1.3 mm
08:08 AM 34.7°F1.5°C 31.5°F-0.3°C 88% 20.4 mph W32.8 kmh W 26.0 mph41.8 kmh 29.22 in989.5 mb 0.00 in0.0 mm 0.00 in0.0 mm 0.05 in1.3 mm
08:09 AM 34.7°F1.5°C 31.5°F-0.3°C 88% 20.9 mph W33.6 kmh W 26.0 mph41.8 kmh 29.22 in989.5 mb 0.00 in0.0 mm 0.00 in0.0 mm 0.05 in1.3 mm
08:10 AM 34.8°F1.6°C 31.6°F-0.2°C 88% 20.6 mph W33.2 kmh W 26.0 mph41.8 kmh 29.22 in989.5 mb 0.00 in0.0 mm 0.00 in0.0 mm 0.05 in1.3 mm
08:11 AM 34.8°F1.6°C 31.6°F-0.2°C 88% 21.8 mph W35.1 kmh W 26.0 mph41.8 kmh 29.22 in989.5 mb 0.00 in0.0 mm 0.00 in0.0 mm 0.05 in1.3 mm
08:12 AM 34.8°F1.6°C 31.6°F-0.2°C 88% 19.2 mph W30.9 kmh W 25.0 mph40.2 kmh 29.22 in989.5 mb 0.00 in0.0 mm 0.00 in0.0 mm 0.05 in1.3 mm
08:13 AM 34.8°F1.6°C 31.6°F-0.2°C 88% 22.0 mph W35.4 kmh W 28.0 mph45.1 kmh 29.22 in989.5 mb 0.00 in0.0 mm 0.00 in0.0 mm 0.05 in1.3 mm
08:14 AM 34.9°F1.6°C 31.4°F-0.3°C 87% 21.6 mph W34.8 kmh W 28.0 mph45.1 kmh 29.22 in989.5 mb 0.00 in0.0 mm 0.00 in0.0 mm 0.05 in1.3 mm
08:15 AM 34.8°F1.6°C 31.3°F-0.4°C 87% 22.8 mph W36.7 kmh W 27.0 mph43.5 kmh 29.22 in989.5 mb 0.00 in0.0 mm 0.00 in0.0 mm 0.05 in1.3 mm
08:16 AM 34.9°F1.6°C 31.4°F-0.3°C 87% 22.6 mph W36.4 kmh W 27.0 mph43.5 kmh 29.23 in989.8 mb 0.00 in0.0 mm 0.00 in0.0 mm 0.05 in1.3 mm
08:17 AM 34.9°F1.6°C 31.4°F-0.3°C 87% 22.4 mph W36.0 kmh W 27.0 mph43.5 kmh 29.23 in989.8 mb 0.00 in0.0 mm 0.00 in0.0 mm 0.05 in1.3 mm
08:18 AM 34.9°F1.6°C 31.4°F-0.3°C 87% 19.8 mph W31.9 kmh W 25.0 mph40.2 kmh 29.23 in989.8 mb 0.00 in0.0 mm 0.00 in0.0 mm 0.05 in1.3 mm
08:19 AM 34.9°F1.6°C 31.4°F-0.3°C 87% 22.1 mph W35.6 kmh W 27.0 mph43.5 kmh 29.23 in989.8 mb 0.00 in0.0 mm 0.00 in0.0 mm 0.05 in1.3 mm
08:20 AM 34.9°F1.6°C 31.4°F-0.3°C 87% 21.4 mph W34.4 kmh W 27.0 mph43.5 kmh 29.23 in989.8 mb 0.00 in0.0 mm 0.00 in0.0 mm 0.05 in1.3 mm
08:21 AM 34.9°F1.6°C 31.4°F-0.3°C 87% 25.4 mph W40.9 kmh W 31.0 mph49.9 kmh 29.23 in989.8 mb 0.00 in0.0 mm 0.00 in0.0 mm 0.05 in1.3 mm
08:22 AM 35.0°F1.7°C 31.2°F-0.4°C 86% 23.9 mph W38.5 kmh W 31.0 mph49.9 kmh 29.23 in989.8 mb 0.00 in0.0 mm 0.00 in0.0 mm 0.05 in1.3 mm
08:23 AM 34.9°F1.6°C 31.4°F-0.3°C 87% 21.7 mph W34.9 kmh W 27.0 mph43.5 kmh 29.23 in989.8 mb 0.00 in0.0 mm 0.00 in0.0 mm 0.05 in1.3 mm
08:24 AM 35.0°F1.7°C 31.5°F-0.3°C 87% 20.4 mph W32.8 kmh W 27.0 mph43.5 kmh 29.23 in989.8 mb 0.00 in0.0 mm 0.00 in0.0 mm 0.05 in1.3 mm
08:25 AM 34.9°F1.6°C 31.4°F-0.3°C 87% 19.2 mph W30.9 kmh W 26.0 mph41.8 kmh 29.23 in989.8 mb 0.00 in0.0 mm 0.00 in0.0 mm 0.05 in1.3 mm
08:26 AM 34.9°F1.6°C 31.4°F-0.3°C 87% 23.4 mph W37.7 kmh W 27.0 mph43.5 kmh 29.23 in989.8 mb 0.00 in0.0 mm 0.00 in0.0 mm 0.05 in1.3 mm
08:27 AM 34.9°F1.6°C 31.4°F-0.3°C 87% 20.6 mph W33.2 kmh W 27.0 mph43.5 kmh 29.23 in989.8 mb 0.00 in0.0 mm 0.00 in0.0 mm 0.05 in1.3 mm
08:28 AM 34.9°F1.6°C 31.4°F-0.3°C 87% 21.9 mph W35.2 kmh W 26.0 mph41.8 kmh 29.23 in989.8 mb 0.00 in0.0 mm 0.00 in0.0 mm 0.05 in1.3 mm
08:29 AM 34.9°F1.6°C 31.4°F-0.3°C 87% 19.8 mph WNW31.9 kmh WNW 26.0 mph41.8 kmh 29.23 in989.8 mb 0.00 in0.0 mm 0.00 in0.0 mm 0.05 in1.3 mm
08:30 AM 35.0°F1.7°C 31.5°F-0.3°C 87% 18.2 mph W29.3 kmh W 24.0 mph38.6 kmh 29.23 in989.8 mb 0.00 in0.0 mm 0.00 in0.0 mm 0.05 in1.3 mm
08:31 AM 34.9°F1.6°C 31.4°F-0.3°C 87% 21.4 mph W34.4 kmh W 25.0 mph40.2 kmh 29.24 in990.2 mb 0.00 in0.0 mm 0.00 in0.0 mm 0.05 in1.3 mm
08:32 AM 34.9°F1.6°C 31.4°F-0.3°C 87% 19.8 mph W31.9 kmh W 25.0 mph40.2 kmh 29.23 in989.8 mb 0.00 in0.0 mm 0.00 in0.0 mm 0.05 in1.3 mm
08:33 AM 34.9°F1.6°C 31.4°F-0.3°C 87% 24.4 mph W39.3 kmh W 29.0 mph46.7 kmh 29.24 in990.2 mb 0.00 in0.0 mm 0.00 in0.0 mm 0.05 in1.3 mm
08:34 AM 34.9°F1.6°C 31.4°F-0.3°C 87% 22.6 mph W36.4 kmh W 29.0 mph46.7 kmh 29.24 in990.2 mb 0.00 in0.0 mm 0.00 in0.0 mm 0.05 in1.3 mm
08:35 AM 34.9°F1.6°C 31.4°F-0.3°C 87% 20.7 mph W33.3 kmh W 27.0 mph43.5 kmh 29.24 in990.2 mb 0.00 in0.0 mm 0.00 in0.0 mm 0.05 in1.3 mm
08:36 AM 34.9°F1.6°C 31.4°F-0.3°C 87% 23.3 mph WNW37.5 kmh WNW 31.0 mph49.9 kmh 29.24 in990.2 mb 0.00 in0.0 mm 0.00 in0.0 mm 0.05 in1.3 mm
08:37 AM 34.9°F1.6°C 31.4°F-0.3°C 87% 25.8 mph W41.5 kmh W 31.0 mph49.9 kmh 29.24 in990.2 mb 0.00 in0.0 mm 0.00 in0.0 mm 0.05 in1.3 mm
08:38 AM 35.0°F1.7°C 31.2°F-0.4°C 86% 24.7 mph W39.8 kmh W 29.0 mph46.7 kmh 29.24 in990.2 mb 0.00 in0.0 mm 0.00 in0.0 mm 0.05 in1.3 mm
08:39 AM 35.0°F1.7°C 31.2°F-0.4°C 86% 26.3 mph W42.3 kmh W 30.0 mph48.3 kmh 29.24 in990.2 mb 0.00 in0.0 mm 0.00 in0.0 mm 0.05 in1.3 mm
08:40 AM 35.1°F1.7°C 31.3°F-0.4°C 86% 20.4 mph W32.8 kmh W 30.0 mph48.3 kmh 29.24 in990.2 mb 0.00 in0.0 mm 0.00 in0.0 mm 0.05 in1.3 mm
08:41 AM 35.1°F1.7°C 31.3°F-0.4°C 86% 21.2 mph W34.1 kmh W 27.0 mph43.5 kmh 29.24 in990.2 mb 0.00 in0.0 mm 0.00 in0.0 mm 0.05 in1.3 mm
08:42 AM 35.0°F1.7°C 31.5°F-0.3°C 87% 19.7 mph W31.7 kmh W 27.0 mph43.5 kmh 29.24 in990.2 mb 0.00 in0.0 mm 0.00 in0.0 mm 0.05 in1.3 mm
08:43 AM 34.9°F1.6°C 31.4°F-0.3°C 87% 23.4 mph W37.7 kmh W 29.0 mph46.7 kmh 29.24 in990.2 mb 0.00 in0.0 mm 0.00 in0.0 mm 0.05 in1.3 mm
08:44 AM 34.9°F1.6°C 31.4°F-0.3°C 87% 21.8 mph W35.1 kmh W 29.0 mph46.7 kmh 29.24 in990.2 mb 0.00 in0.0 mm 0.00 in0.0 mm 0.05 in1.3 mm
08:45 AM 35.0°F1.7°C 31.5°F-0.3°C 87% 20.2 mph W32.5 kmh W 26.0 mph41.8 kmh 29.24 in990.2 mb 0.00 in0.0 mm 0.00 in0.0 mm 0.05 in1.3 mm
08:46 AM 35.0°F1.7°C 31.5°F-0.3°C 87% 24.2 mph W38.9 kmh W 28.0 mph45.1 kmh 29.24 in990.2 mb 0.00 in0.0 mm 0.00 in0.0 mm 0.05 in1.3 mm
08:47 AM 35.0°F1.7°C 31.2°F-0.4°C 86% 21.2 mph W34.1 kmh W 28.0 mph45.1 kmh 29.24 in990.2 mb 0.00 in0.0 mm 0.00 in0.0 mm 0.05 in1.3 mm
08:48 AM 35.1°F1.7°C 31.3°F-0.4°C 86% 20.7 mph W33.3 kmh W 25.0 mph40.2 kmh 29.24 in990.2 mb 0.00 in0.0 mm 0.00 in0.0 mm 0.05 in1.3 mm
08:49 AM 35.0°F1.7°C 31.2°F-0.4°C 86% 20.8 mph W33.5 kmh W 25.0 mph40.2 kmh 29.24 in990.2 mb 0.00 in0.0 mm 0.00 in0.0 mm 0.05 in1.3 mm
08:50 AM 35.1°F1.7°C 31.3°F-0.4°C 86% 19.7 mph W31.7 kmh W 24.0 mph38.6 kmh 29.24 in990.2 mb 0.00 in0.0 mm 0.00 in0.0 mm 0.05 in1.3 mm
08:51 AM 35.1°F1.7°C 31.3°F-0.4°C 86% 18.1 mph W29.1 kmh W 23.0 mph37.0 kmh 29.25 in990.5 mb 0.00 in0.0 mm 0.00 in0.0 mm 0.05 in1.3 mm
08:52 AM 35.2°F1.8°C 31.4°F-0.3°C 86% 22.8 mph W36.7 kmh W 28.0 mph45.1 kmh 29.25 in990.5 mb 0.00 in0.0 mm 0.00 in0.0 mm 0.05 in1.3 mm
08:53 AM 35.2°F1.8°C 31.4°F-0.3°C 86% 20.2 mph W32.5 kmh W 28.0 mph45.1 kmh 29.25 in990.5 mb 0.00 in0.0 mm 0.00 in0.0 mm 0.05 in1.3 mm
08:54 AM 35.3°F1.8°C 31.5°F-0.3°C 86% 18.8 mph W30.3 kmh W 23.0 mph37.0 kmh 29.25 in990.5 mb 0.00 in0.0 mm 0.00 in0.0 mm 0.05 in1.3 mm
08:55 AM 35.3°F1.8°C 31.5°F-0.3°C 86% 17.6 mph W28.3 kmh W 24.0 mph38.6 kmh 29.25 in990.5 mb 0.00 in0.0 mm 0.00 in0.0 mm 0.05 in1.3 mm
08:56 AM 35.3°F1.8°C 31.5°F-0.3°C 86% 16.3 mph W26.2 kmh W 24.0 mph38.6 kmh 29.25 in990.5 mb 0.00 in0.0 mm 0.00 in0.0 mm 0.05 in1.3 mm
08:57 AM 35.3°F1.8°C 31.5°F-0.3°C 86% 16.6 mph W26.7 kmh W 19.0 mph30.6 kmh 29.25 in990.5 mb 0.00 in0.0 mm 0.00 in0.0 mm 0.05 in1.3 mm
08:58 AM 35.2°F1.8°C 31.4°F-0.3°C 86% 14.8 mph W23.8 kmh W 18.0 mph29.0 kmh 29.25 in990.5 mb 0.00 in0.0 mm 0.00 in0.0 mm 0.05 in1.3 mm
08:59 AM 35.2°F1.8°C 31.4°F-0.3°C 86% 18.9 mph W30.4 kmh W 24.0 mph38.6 kmh 29.25 in990.5 mb 0.00 in0.0 mm 0.00 in0.0 mm 0.05 in1.3 mm
09:00 AM 35.3°F1.8°C 31.5°F-0.3°C 86% 17.5 mph W28.2 kmh W 24.0 mph38.6 kmh 29.25 in990.5 mb 0.00 in0.0 mm 0.00 in0.0 mm 0.05 in1.3 mm
09:01 AM 35.4°F1.9°C 31.6°F-0.2°C 86% 18.4 mph W29.6 kmh W 21.0 mph33.8 kmh 29.25 in990.5 mb 0.00 in0.0 mm 0.00 in0.0 mm 0.05 in1.3 mm
09:02 AM 35.5°F1.9°C 31.7°F-0.2°C 86% 17.4 mph W28.0 kmh W 21.0 mph33.8 kmh 29.25 in990.5 mb 0.00 in0.0 mm 0.00 in0.0 mm 0.05 in1.3 mm
09:03 AM 35.5°F1.9°C 31.7°F-0.2°C 86% 18.7 mph W30.1 kmh W 25.0 mph40.2 kmh 29.25 in990.5 mb 0.00 in0.0 mm 0.00 in0.0 mm 0.05 in1.3 mm
09:04 AM 35.5°F1.9°C 31.4°F-0.3°C 85% 18.6 mph W29.9 kmh W 25.0 mph40.2 kmh 29.26 in990.9 mb 0.00 in0.0 mm 0.00 in0.0 mm 0.05 in1.3 mm
09:05 AM 35.6°F2.0°C 31.5°F-0.3°C 85% 19.9 mph W32.0 kmh W 23.0 mph37.0 kmh 29.26 in990.9 mb 0.00 in0.0 mm 0.00 in0.0 mm 0.05 in1.3 mm
09:06 AM 35.7°F2.1°C 31.6°F-0.2°C 85% 17.1 mph W27.5 kmh W 23.0 mph37.0 kmh 29.25 in990.5 mb 0.00 in0.0 mm 0.00 in0.0 mm 0.05 in1.3 mm
09:07 AM 35.7°F2.1°C 31.6°F-0.2°C 85% 15.8 mph W25.4 kmh W 20.0 mph32.2 kmh 29.26 in990.9 mb 0.00 in0.0 mm 0.00 in0.0 mm 0.05 in1.3 mm
09:08 AM 35.7°F2.1°C 31.6°F-0.2°C 85% 17.1 mph W27.5 kmh W 19.0 mph30.6 kmh 29.26 in990.9 mb 0.00 in0.0 mm 0.00 in0.0 mm 0.05 in1.3 mm
09:09 AM 35.7°F2.1°C 31.6°F-0.2°C 85% 19.4 mph W31.2 kmh W 23.0 mph37.0 kmh 29.26 in990.9 mb 0.00 in0.0 mm 0.00 in0.0 mm 0.05 in1.3 mm
09:10 AM 35.8°F2.1°C 31.4°F-0.3°C 84% 19.9 mph W32.0 kmh W 25.0 mph40.2 kmh 29.26 in990.9 mb 0.00 in0.0 mm 0.00 in0.0 mm 0.05 in1.3 mm
09:11 AM 36.0°F2.2°C 31.6°F-0.2°C 84% 19.6 mph W31.5 kmh W 25.0 mph40.2 kmh 29.26 in990.9 mb 0.00 in0.0 mm 0.00 in0.0 mm 0.05 in1.3 mm
09:12 AM 36.0°F2.2°C 31.6°F-0.2°C 84% 22.5 mph WNW36.2 kmh WNW 27.0 mph43.5 kmh 29.26 in990.9 mb 0.00 in0.0 mm 0.00 in0.0 mm 0.05 in1.3 mm
09:13 AM 36.2°F2.3°C 31.5°F-0.3°C 83% 22.2 mph WNW35.7 kmh WNW 27.0 mph43.5 kmh 29.26 in990.9 mb 0.00 in0.0 mm 0.00 in0.0 mm 0.05 in1.3 mm
09:14 AM 36.2°F2.3°C 31.5°F-0.3°C 83% 19.3 mph W31.1 kmh W 26.0 mph41.8 kmh 29.26 in990.9 mb 0.00 in0.0 mm 0.00 in0.0 mm 0.05 in1.3 mm
09:15 AM 36.2°F2.3°C 31.5°F-0.3°C 83% 22.2 mph WNW35.7 kmh WNW 26.0 mph41.8 kmh 29.26 in990.9 mb 0.00 in0.0 mm 0.00 in0.0 mm 0.05 in1.3 mm
09:16 AM 36.3°F2.4°C 31.6°F-0.2°C 83% 21.1 mph W34.0 kmh W 26.0 mph41.8 kmh 29.26 in990.9 mb 0.00 in0.0 mm 0.00 in0.0 mm 0.05 in1.3 mm
09:17 AM 36.3°F2.4°C 31.3°F-0.4°C 82% 24.5 mph WNW39.4 kmh WNW 30.0 mph48.3 kmh 29.26 in990.9 mb 0.01 in0.3 mm 0.60 in15.2 mm 0.06 in1.5 mm
09:18 AM 36.4°F2.4°C 31.4°F-0.3°C 82% 19.5 mph WNW31.4 kmh WNW 30.0 mph48.3 kmh 29.26 in990.9 mb 0.01 in0.3 mm 0.00 in0.0 mm 0.06 in1.5 mm
09:19 AM 36.4°F2.4°C 31.4°F-0.3°C 82% 22.4 mph W36.0 kmh W 26.0 mph41.8 kmh 29.26 in990.9 mb 0.01 in0.3 mm 0.00 in0.0 mm 0.06 in1.5 mm
09:20 AM 36.5°F2.5°C 31.5°F-0.3°C 82% 23.0 mph W37.0 kmh W 29.0 mph46.7 kmh 29.26 in990.9 mb 0.01 in0.3 mm 0.00 in0.0 mm 0.06 in1.5 mm
09:21 AM 36.5°F2.5°C 31.5°F-0.3°C 82% 27.1 mph W43.6 kmh W 30.0 mph48.3 kmh 29.26 in990.9 mb 0.01 in0.3 mm 0.00 in0.0 mm 0.06 in1.5 mm
09:22 AM 36.6°F2.6°C 31.6°F-0.2°C 82% 28.3 mph W45.5 kmh W 31.0 mph49.9 kmh 29.27 in991.2 mb 0.01 in0.3 mm 0.00 in0.0 mm 0.06 in1.5 mm
09:23 AM 36.6°F2.6°C 31.3°F-0.4°C 81% 25.2 mph W40.6 kmh W 31.0 mph49.9 kmh 29.27 in991.2 mb 0.01 in0.3 mm 0.00 in0.0 mm 0.06 in1.5 mm
09:24 AM 36.6°F2.6°C 31.3°F-0.4°C 81% 28.5 mph W45.9 kmh W 34.0 mph54.7 kmh 29.27 in991.2 mb 0.01 in0.3 mm 0.00 in0.0 mm 0.06 in1.5 mm
09:25 AM 36.7°F2.6°C 31.4°F-0.3°C 81% 26.5 mph W42.6 kmh W 34.0 mph54.7 kmh 29.27 in991.2 mb 0.01 in0.3 mm 0.00 in0.0 mm 0.06 in1.5 mm
09:26 AM 36.6°F2.6°C 31.3°F-0.4°C 81% 27.0 mph W43.5 kmh W 32.0 mph51.5 kmh 29.27 in991.2 mb 0.01 in0.3 mm 0.00 in0.0 mm 0.06 in1.5 mm
09:27 AM 36.6°F2.6°C 31.6°F-0.2°C 82% 26.5 mph W42.6 kmh W 32.0 mph51.5 kmh 29.27 in991.2 mb 0.01 in0.3 mm 0.00 in0.0 mm 0.06 in1.5 mm
09:28 AM 36.6°F2.6°C 31.6°F-0.2°C 82% 28.0 mph WNW45.1 kmh WNW 31.0 mph49.9 kmh 29.27 in991.2 mb 0.01 in0.3 mm 0.00 in0.0 mm 0.06 in1.5 mm
09:29 AM 36.7°F2.6°C 31.7°F-0.2°C 82% 24.1 mph W38.8 kmh W 31.0 mph49.9 kmh 29.27 in991.2 mb 0.01 in0.3 mm 0.00 in0.0 mm 0.06 in1.5 mm
09:30 AM 36.6°F2.6°C 31.6°F-0.2°C 82% 26.1 mph WNW42.0 kmh WNW 30.0 mph48.3 kmh 29.27 in991.2 mb 0.01 in0.3 mm 0.00 in0.0 mm 0.06 in1.5 mm
09:31 AM 36.6°F2.6°C 31.6°F-0.2°C 82% 24.2 mph W38.9 kmh W 29.0 mph46.7 kmh 29.27 in991.2 mb 0.01 in0.3 mm 0.00 in0.0 mm 0.06 in1.5 mm
09:32 AM 36.6°F2.6°C 31.6°F-0.2°C 82% 25.8 mph WNW41.5 kmh WNW 31.0 mph49.9 kmh 29.27 in991.2 mb 0.01 in0.3 mm 0.00 in0.0 mm 0.06 in1.5 mm
09:33 AM 36.6°F2.6°C 31.6°F-0.2°C 82% 29.5 mph W47.5 kmh W 35.0 mph56.3 kmh 29.27 in991.2 mb 0.01 in0.3 mm 0.00 in0.0 mm 0.06 in1.5 mm
09:34 AM 36.6°F2.6°C 31.3°F-0.4°C 81% 27.9 mph WNW44.9 kmh WNW 35.0 mph56.3 kmh 29.27 in991.2 mb 0.01 in0.3 mm 0.00 in0.0 mm 0.06 in1.5 mm
09:35 AM 36.7°F2.6°C 31.7°F-0.2°C 82% 27.1 mph W43.6 kmh W 31.0 mph49.9 kmh 29.27 in991.2 mb 0.01 in0.3 mm 0.00 in0.0 mm 0.06 in1.5 mm
09:36 AM 36.7°F2.6°C 31.4°F-0.3°C 81% 28.0 mph W45.1 kmh W 32.0 mph51.5 kmh 29.28 in991.5 mb 0.01 in0.3 mm 0.00 in0.0 mm 0.06 in1.5 mm
09:37 AM 36.6°F2.6°C 31.3°F-0.4°C 81% 26.5 mph WNW42.6 kmh WNW 32.0 mph51.5 kmh 29.28 in991.5 mb 0.01 in0.3 mm 0.00 in0.0 mm 0.06 in1.5 mm
09:38 AM 36.7°F2.6°C 31.4°F-0.3°C 81% 23.1 mph WNW37.2 kmh WNW 31.0 mph49.9 kmh 29.28 in991.5 mb 0.01 in0.3 mm 0.00 in0.0 mm 0.06 in1.5 mm
09:39 AM 36.6°F2.6°C 31.6°F-0.2°C 82% 22.1 mph WNW35.6 kmh WNW 29.0 mph46.7 kmh 29.28 in991.5 mb 0.01 in0.3 mm 0.00 in0.0 mm 0.06 in1.5 mm
09:40 AM 36.6°F2.6°C 31.6°F-0.2°C 82% 25.0 mph WNW40.2 kmh WNW 29.0 mph46.7 kmh 29.28 in991.5 mb 0.01 in0.3 mm 0.00 in0.0 mm 0.06 in1.5 mm
09:41 AM 36.6°F2.6°C 31.6°F-0.2°C 82% 22.6 mph WNW36.4 kmh WNW 29.0 mph46.7 kmh 29.28 in991.5 mb 0.01 in0.3 mm 0.00 in0.0 mm 0.06 in1.5 mm
09:42 AM 36.6°F2.6°C 31.6°F-0.2°C 82% 26.8 mph WNW43.1 kmh WNW 31.0 mph49.9 kmh 29.28 in991.5 mb 0.01 in0.3 mm 0.00 in0.0 mm 0.06 in1.5 mm
09:43 AM 36.6°F2.6°C 31.3°F-0.4°C 81% 28.5 mph WNW45.9 kmh WNW 33.0 mph53.1 kmh 29.28 in991.5 mb 0.01 in0.3 mm 0.00 in0.0 mm 0.06 in1.5 mm
09:44 AM 36.6°F2.6°C 31.3°F-0.4°C 81% 28.8 mph WNW46.3 kmh WNW 34.0 mph54.7 kmh 29.28 in991.5 mb 0.01 in0.3 mm 0.00 in0.0 mm 0.06 in1.5 mm
09:45 AM 36.6°F2.6°C 31.3°F-0.4°C 81% 23.9 mph WNW38.5 kmh WNW 34.0 mph54.7 kmh 29.28 in991.5 mb 0.01 in0.3 mm 0.00 in0.0 mm 0.06 in1.5 mm
09:46 AM 36.6°F2.6°C 31.3°F-0.4°C 81% 27.7 mph WNW44.6 kmh WNW 33.0 mph53.1 kmh 29.28 in991.5 mb 0.01 in0.3 mm 0.00 in0.0 mm 0.06 in1.5 mm
09:47 AM 36.6°F2.6°C 31.3°F-0.4°C 81% 26.7 mph WNW43.0 kmh WNW 33.0 mph53.1 kmh 29.29 in991.9 mb 0.01 in0.3 mm 0.00 in0.0 mm 0.06 in1.5 mm
09:48 AM 36.6°F2.6°C 31.3°F-0.4°C 81% 21.7 mph WNW34.9 kmh WNW 33.0 mph53.1 kmh 29.29 in991.9 mb 0.01 in0.3 mm 0.00 in0.0 mm 0.06 in1.5 mm
09:49 AM 36.6°F2.6°C 31.3°F-0.4°C 81% 26.1 mph WNW42.0 kmh WNW 32.0 mph51.5 kmh 29.29 in991.9 mb 0.01 in0.3 mm 0.00 in0.0 mm 0.06 in1.5 mm
09:50 AM 36.5°F2.5°C 31.2°F-0.4°C 81% 22.2 mph WNW35.7 kmh WNW 32.0 mph51.5 kmh 29.29 in991.9 mb 0.01 in0.3 mm 0.00 in0.0 mm 0.06 in1.5 mm
09:51 AM 36.6°F2.6°C 31.3°F-0.4°C 81% 24.5 mph WNW39.4 kmh WNW 29.0 mph46.7 kmh 29.29 in991.9 mb 0.01 in0.3 mm 0.00 in0.0 mm 0.06 in1.5 mm
09:52 AM 36.6°F2.6°C 31.3°F-0.4°C 81% 26.5 mph WNW42.6 kmh WNW 32.0 mph51.5 kmh 29.29 in991.9 mb 0.01 in0.3 mm 0.00 in0.0 mm 0.06 in1.5 mm
09:53 AM 36.6°F2.6°C 31.0°F-0.6°C 80% 23.8 mph WNW38.3 kmh WNW 32.0 mph51.5 kmh 29.29 in991.9 mb 0.01 in0.3 mm 0.00 in0.0 mm 0.06 in1.5 mm
09:54 AM 36.6°F2.6°C 31.0°F-0.6°C 80% 23.3 mph WNW37.5 kmh WNW 27.0 mph43.5 kmh 29.29 in991.9 mb 0.01 in0.3 mm 0.00 in0.0 mm 0.06 in1.5 mm
09:55 AM 36.6°F2.6°C 31.0°F-0.6°C 80% 21.6 mph WNW34.8 kmh WNW 29.0 mph46.7 kmh 29.29 in991.9 mb 0.01 in0.3 mm 0.00 in0.0 mm 0.06 in1.5 mm
09:56 AM 36.6°F2.6°C 31.0°F-0.6°C 80% 25.1 mph WNW40.4 kmh WNW 31.0 mph49.9 kmh 29.29 in991.9 mb 0.01 in0.3 mm 0.00 in0.0 mm 0.06 in1.5 mm
09:57 AM 36.6°F2.6°C 31.0°F-0.6°C 80% 24.9 mph WNW40.1 kmh WNW 31.0 mph49.9 kmh 29.29 in991.9 mb 0.01 in0.3 mm 0.00 in0.0 mm 0.06 in1.5 mm
09:58 AM 36.5°F2.5°C 31.2°F-0.4°C 81% 21.5 mph WNW34.6 kmh WNW 29.0 mph46.7 kmh 29.29 in991.9 mb 0.01 in0.3 mm 0.00 in0.0 mm 0.06 in1.5 mm
09:59 AM 36.6°F2.6°C 31.0°F-0.6°C 80% 23.1 mph WNW37.2 kmh WNW 27.0 mph43.5 kmh 29.29 in991.9 mb 0.01 in0.3 mm 0.00 in0.0 mm 0.06 in1.5 mm
10:00 AM 36.6°F2.6°C 31.3°F-0.4°C 81% 23.9 mph WNW38.5 kmh WNW 28.0 mph45.1 kmh 29.29 in991.9 mb 0.01 in0.3 mm 0.00 in0.0 mm 0.06 in1.5 mm
10:01 AM 36.7°F2.6°C 31.1°F-0.5°C 80% 24.3 mph WNW39.1 kmh WNW 29.0 mph46.7 kmh 29.30 in992.2 mb 0.01 in0.3 mm 0.00 in0.0 mm 0.06 in1.5 mm
10:02 AM 36.6°F2.6°C 31.0°F-0.6°C 80% 25.0 mph WNW40.2 kmh WNW 30.0 mph48.3 kmh 29.30 in992.2 mb 0.01 in0.3 mm 0.00 in0.0 mm 0.06 in1.5 mm
10:03 AM 36.7°F2.6°C 31.1°F-0.5°C 80% 27.7 mph WNW44.6 kmh WNW 33.0 mph53.1 kmh 29.30 in992.2 mb 0.01 in0.3 mm 0.00 in0.0 mm 0.06 in1.5 mm
10:04 AM 36.6°F2.6°C 31.3°F-0.4°C 81% 22.4 mph WNW36.0 kmh WNW 33.0 mph53.1 kmh 29.30 in992.2 mb 0.01 in0.3 mm 0.00 in0.0 mm 0.06 in1.5 mm
10:05 AM 36.6°F2.6°C 31.0°F-0.6°C 80% 23.1 mph WNW37.2 kmh WNW 27.0 mph43.5 kmh 29.30 in992.2 mb 0.01 in0.3 mm 0.00 in0.0 mm 0.06 in1.5 mm
10:06 AM 36.6°F2.6°C 31.3°F-0.4°C 81% 20.9 mph WNW33.6 kmh WNW 28.0 mph45.1 kmh 29.30 in992.2 mb 0.01 in0.3 mm 0.00 in0.0 mm 0.06 in1.5 mm
10:07 AM 36.6°F2.6°C 31.3°F-0.4°C 81% 26.3 mph WNW42.3 kmh WNW 29.0 mph46.7 kmh 29.30 in992.2 mb 0.01 in0.3 mm 0.00 in0.0 mm 0.06 in1.5 mm
10:08 AM 36.6°F2.6°C 31.0°F-0.6°C 80% 21.2 mph WNW34.1 kmh WNW 29.0 mph46.7 kmh 29.30 in992.2 mb 0.01 in0.3 mm 0.00 in0.0 mm 0.06 in1.5 mm
10:09 AM 36.6°F2.6°C 31.0°F-0.6°C 80% 20.4 mph WNW32.8 kmh WNW 26.0 mph41.8 kmh 29.30 in992.2 mb 0.01 in0.3 mm 0.00 in0.0 mm 0.06 in1.5 mm
10:10 AM 36.6°F2.6°C 31.3°F-0.4°C 81% 21.9 mph WNW35.2 kmh WNW 26.0 mph41.8 kmh 29.30 in992.2 mb 0.01 in0.3 mm 0.00 in0.0 mm 0.06 in1.5 mm
10:11 AM 36.5°F2.5°C 30.9°F-0.6°C 80% 23.0 mph WNW37.0 kmh WNW 28.0 mph45.1 kmh 29.30 in992.2 mb 0.01 in0.3 mm 0.00 in0.0 mm 0.06 in1.5 mm
10:12 AM 36.6°F2.6°C 31.0°F-0.6°C 80% 21.5 mph WNW34.6 kmh WNW 28.0 mph45.1 kmh 29.30 in992.2 mb 0.01 in0.3 mm 0.00 in0.0 mm 0.06 in1.5 mm
10:13 AM 36.6°F2.6°C 31.0°F-0.6°C 80% 24.5 mph WNW39.4 kmh WNW 28.0 mph45.1 kmh 29.30 in992.2 mb 0.01 in0.3 mm 0.00 in0.0 mm 0.06 in1.5 mm
10:14 AM 36.6°F2.6°C 31.0°F-0.6°C 80% 20.2 mph WNW32.5 kmh WNW 27.0 mph43.5 kmh 29.30 in992.2 mb 0.01 in0.3 mm 0.00 in0.0 mm 0.06 in1.5 mm
10:15 AM 36.6°F2.6°C 31.0°F-0.6°C 80% 21.6 mph WNW34.8 kmh WNW 27.0 mph43.5 kmh 29.30 in992.2 mb 0.01 in0.3 mm 0.00 in0.0 mm 0.06 in1.5 mm
10:16 AM 36.6°F2.6°C 31.0°F-0.6°C 80% 20.9 mph WNW33.6 kmh WNW 27.0 mph43.5 kmh 29.31 in992.6 mb 0.01 in0.3 mm 0.00 in0.0 mm 0.06 in1.5 mm
10:17 AM 36.5°F2.5°C 30.9°F-0.6°C 80% 22.0 mph WNW35.4 kmh WNW 28.0 mph45.1 kmh 29.31 in992.6 mb 0.00 in0.0 mm 0.00 in0.0 mm 0.06 in1.5 mm
10:18 AM 36.6°F2.6°C 31.0°F-0.6°C 80% 24.0 mph WNW38.6 kmh WNW 28.0 mph45.1 kmh 29.31 in992.6 mb 0.00 in0.0 mm 0.00 in0.0 mm 0.06 in1.5 mm
10:19 AM 36.7°F2.6°C 31.1°F-0.5°C 80% 22.8 mph WNW36.7 kmh WNW 28.0 mph45.1 kmh 29.31 in992.6 mb 0.00 in0.0 mm 0.00 in0.0 mm 0.06 in1.5 mm
10:20 AM 36.7°F2.6°C 31.1°F-0.5°C 80% 21.5 mph WNW34.6 kmh WNW 28.0 mph45.1 kmh 29.31 in992.6 mb 0.00 in0.0 mm 0.00 in0.0 mm 0.06 in1.5 mm
10:21 AM 36.7°F2.6°C 31.1°F-0.5°C 80% 22.3 mph WNW35.9 kmh WNW 27.0 mph43.5 kmh 29.31 in992.6 mb 0.00 in0.0 mm 0.00 in0.0 mm 0.06 in1.5 mm
10:22 AM 36.8°F2.7°C 31.2°F-0.4°C 80% 24.0 mph WNW38.6 kmh WNW 29.0 mph46.7 kmh 29.31 in992.6 mb 0.00 in0.0 mm 0.00 in0.0 mm 0.06 in1.5 mm
10:23 AM 36.8°F2.7°C 31.2°F-0.4°C 80% 21.9 mph WNW35.2 kmh WNW 29.0 mph46.7 kmh 29.31 in992.6 mb 0.00 in0.0 mm 0.00 in0.0 mm 0.06 in1.5 mm
10:24 AM 36.7°F2.6°C 31.1°F-0.5°C 80% 22.4 mph WNW36.0 kmh WNW 28.0 mph45.1 kmh 29.31 in992.6 mb 0.00 in0.0 mm 0.00 in0.0 mm 0.06 in1.5 mm
10:25 AM 36.8°F2.7°C 31.2°F-0.4°C 80% 23.5 mph WNW37.8 kmh WNW 28.0 mph45.1 kmh 29.31 in992.6 mb 0.00 in0.0 mm 0.00 in0.0 mm 0.06 in1.5 mm
10:26 AM 36.8°F2.7°C 31.2°F-0.4°C 80% 24.8 mph WNW39.9 kmh WNW 29.0 mph46.7 kmh 29.31 in992.6 mb 0.00 in0.0 mm 0.00 in0.0 mm 0.06 in1.5 mm
10:27 AM 37.0°F2.8°C 31.4°F-0.3°C 80% 25.0 mph W40.2 kmh W 30.0 mph48.3 kmh 29.31 in992.6 mb 0.00 in0.0 mm 0.00 in0.0 mm 0.06 in1.5 mm
10:28 AM 37.0°F2.8°C 31.4°F-0.3°C 80% 27.0 mph WNW43.5 kmh WNW 30.0 mph48.3 kmh 29.32 in992.9 mb 0.00 in0.0 mm 0.00 in0.0 mm 0.06 in1.5 mm
10:29 AM 37.0°F2.8°C 31.4°F-0.3°C 80% 22.8 mph WNW36.7 kmh WNW 30.0 mph48.3 kmh 29.32 in992.9 mb 0.00 in0.0 mm 0.00 in0.0 mm 0.06 in1.5 mm
10:30 AM 37.0°F2.8°C 31.4°F-0.3°C 80% 24.5 mph WNW39.4 kmh WNW 33.0 mph53.1 kmh 29.32 in992.9 mb 0.00 in0.0 mm 0.00 in0.0 mm 0.06 in1.5 mm
10:31 AM 37.0°F2.8°C 31.4°F-0.3°C 80% 26.9 mph WNW43.3 kmh WNW 33.0 mph53.1 kmh 29.32 in992.9 mb 0.00 in0.0 mm 0.00 in0.0 mm 0.06 in1.5 mm
10:32 AM 37.1°F2.8°C 31.5°F-0.3°C 80% 25.8 mph WNW41.5 kmh WNW 31.0 mph49.9 kmh 29.32 in992.9 mb 0.00 in0.0 mm 0.00 in0.0 mm 0.06 in1.5 mm
10:33 AM 37.1°F2.8°C 31.5°F-0.3°C 80% 23.1 mph WNW37.2 kmh WNW 31.0 mph49.9 kmh 29.32 in992.9 mb 0.00 in0.0 mm 0.00 in0.0 mm 0.06 in1.5 mm
10:34 AM 37.1°F2.8°C 31.5°F-0.3°C 80% 25.2 mph WNW40.6 kmh WNW 31.0 mph49.9 kmh 29.32 in992.9 mb 0.00 in0.0 mm 0.00 in0.0 mm 0.06 in1.5 mm
10:35 AM 37.1°F2.8°C 31.5°F-0.3°C 80% 23.3 mph WNW37.5 kmh WNW 31.0 mph49.9 kmh 29.32 in992.9 mb 0.00 in0.0 mm 0.00 in0.0 mm 0.06 in1.5 mm
10:36 AM 37.1°F2.8°C 31.5°F-0.3°C 80% 25.3 mph WNW40.7 kmh WNW 31.0 mph49.9 kmh 29.32 in992.9 mb 0.00 in0.0 mm 0.00 in0.0 mm 0.06 in1.5 mm
10:37 AM 37.1°F2.8°C 31.8°F-0.1°C 81% 24.4 mph WNW39.3 kmh WNW 31.0 mph49.9 kmh 29.32 in992.9 mb 0.00 in0.0 mm 0.00 in0.0 mm 0.06 in1.5 mm
10:38 AM 37.1°F2.8°C 31.8°F-0.1°C 81% 21.5 mph WNW34.6 kmh WNW 29.0 mph46.7 kmh 29.32 in992.9 mb 0.00 in0.0 mm 0.00 in0.0 mm 0.06 in1.5 mm
10:39 AM 37.1°F2.8°C 31.8°F-0.1°C 81% 21.3 mph WNW34.3 kmh WNW 26.0 mph41.8 kmh 29.32 in992.9 mb 0.00 in0.0 mm 0.00 in0.0 mm 0.06 in1.5 mm
10:40 AM 37.1°F2.8°C 31.8°F-0.1°C 81% 21.4 mph WNW34.4 kmh WNW 26.0 mph41.8 kmh 29.32 in992.9 mb 0.00 in0.0 mm 0.00 in0.0 mm 0.06 in1.5 mm
10:41 AM 37.1°F2.8°C 31.8°F-0.1°C 81% 24.8 mph W39.9 kmh W 31.0 mph49.9 kmh 29.33 in993.2 mb 0.00 in0.0 mm 0.00 in0.0 mm 0.06 in1.5 mm
10:42 AM 37.2°F2.9°C 31.9°F-0.1°C 81% 28.3 mph WNW45.5 kmh WNW 32.0 mph51.5 kmh 29.33 in993.2 mb 0.00 in0.0 mm 0.00 in0.0 mm 0.06 in1.5 mm
10:43 AM 37.3°F2.9°C 32.0°F0.0°C 81% 25.4 mph WNW40.9 kmh WNW 32.0 mph51.5 kmh 29.33 in993.2 mb 0.00 in0.0 mm 0.00 in0.0 mm 0.06 in1.5 mm
10:44 AM 37.3°F2.9°C 32.0°F0.0°C 81% 23.7 mph WNW38.1 kmh WNW 32.0 mph51.5 kmh 29.33 in993.2 mb 0.00 in0.0 mm 0.00 in0.0 mm 0.06 in1.5 mm
10:45 AM 37.3°F2.9°C 32.0°F0.0°C 81% 25.5 mph WNW41.0 kmh WNW 31.0 mph49.9 kmh 29.33 in993.2 mb 0.00 in0.0 mm 0.00 in0.0 mm 0.06 in1.5 mm
10:46 AM 37.3°F2.9°C 32.0°F0.0°C 81% 22.6 mph WNW36.4 kmh WNW 29.0 mph46.7 kmh 29.33 in993.2 mb 0.00 in0.0 mm 0.00 in0.0 mm 0.06 in1.5 mm
10:47 AM 37.2°F2.9°C 31.9°F-0.1°C 81% 23.2 mph WNW37.3 kmh WNW 27.0 mph43.5 kmh 29.33 in993.2 mb 0.00 in0.0 mm 0.00 in0.0 mm 0.06 in1.5 mm
10:48 AM 37.2°F2.9°C 31.9°F-0.1°C 81% 25.9 mph WNW41.7 kmh WNW 31.0 mph49.9 kmh 29.33 in993.2 mb 0.00 in0.0 mm 0.00 in0.0 mm 0.06 in1.5 mm
10:49 AM 37.2°F2.9°C 31.9°F-0.1°C 81% 22.5 mph WNW36.2 kmh WNW 31.0 mph49.9 kmh 29.33 in993.2 mb 0.00 in0.0 mm 0.00 in0.0 mm 0.06 in1.5 mm
10:50 AM 37.1°F2.8°C 31.8°F-0.1°C 81% 21.7 mph WNW34.9 kmh WNW 29.0 mph46.7 kmh 29.34 in993.6 mb 0.00 in0.0 mm 0.00 in0.0 mm 0.06 in1.5 mm
10:51 AM 37.1°F2.8°C 31.8°F-0.1°C 81% 22.5 mph WNW36.2 kmh WNW 29.0 mph46.7 kmh 29.34 in993.6 mb 0.00 in0.0 mm 0.00 in0.0 mm 0.06 in1.5 mm
10:52 AM 37.2°F2.9°C 31.6°F-0.2°C 80% 28.4 mph WNW45.7 kmh WNW 33.0 mph53.1 kmh 29.34 in993.6 mb 0.00 in0.0 mm 0.00 in0.0 mm 0.06 in1.5 mm
10:53 AM 37.2°F2.9°C 31.6°F-0.2°C 80% 25.7 mph WNW41.4 kmh WNW 33.0 mph53.1 kmh 29.34 in993.6 mb 0.00 in0.0 mm 0.00 in0.0 mm 0.06 in1.5 mm
10:54 AM 37.3°F2.9°C 31.7°F-0.2°C 80% 25.2 mph WNW40.6 kmh WNW 31.0 mph49.9 kmh 29.34 in993.6 mb 0.00 in0.0 mm 0.00 in0.0 mm 0.06 in1.5 mm
10:55 AM 37.3°F2.9°C 31.7°F-0.2°C 80% 24.4 mph WNW39.3 kmh WNW 31.0 mph49.9 kmh 29.34 in993.6 mb 0.00 in0.0 mm 0.00 in0.0 mm 0.06 in1.5 mm
10:56 AM 37.3°F2.9°C 31.7°F-0.2°C 80% 30.3 mph WNW48.8 kmh WNW 34.0 mph54.7 kmh 29.34 in993.6 mb 0.00 in0.0 mm 0.00 in0.0 mm 0.06 in1.5 mm
10:57 AM 37.4°F3.0°C 31.5°F-0.3°C 79% 28.7 mph WNW46.2 kmh WNW 34.0 mph54.7 kmh 29.34 in993.6 mb 0.00 in0.0 mm 0.00 in0.0 mm 0.06 in1.5 mm
10:58 AM 37.4°F3.0°C 31.8°F-0.1°C 80% 26.1 mph WNW42.0 kmh WNW 32.0 mph51.5 kmh 29.34 in993.6 mb 0.00 in0.0 mm 0.00 in0.0 mm 0.06 in1.5 mm
10:59 AM 37.4°F3.0°C 31.8°F-0.1°C 80% 25.4 mph WNW40.9 kmh WNW 30.0 mph48.3 kmh 29.34 in993.6 mb 0.00 in0.0 mm 0.00 in0.0 mm 0.06 in1.5 mm
11:00 AM 37.3°F2.9°C 31.7°F-0.2°C 80% 25.2 mph WNW40.6 kmh WNW 30.0 mph48.3 kmh 29.34 in993.6 mb 0.00 in0.0 mm 0.00 in0.0 mm 0.06 in1.5 mm
11:01 AM 37.3°F2.9°C 31.7°F-0.2°C 80% 26.4 mph WNW42.5 kmh WNW 31.0 mph49.9 kmh 29.35 in993.9 mb 0.00 in0.0 mm 0.00 in0.0 mm 0.06 in1.5 mm
11:02 AM 37.3°F2.9°C 31.7°F-0.2°C 80% 23.0 mph WNW37.0 kmh WNW 31.0 mph49.9 kmh 29.35 in993.9 mb 0.00 in0.0 mm 0.00 in0.0 mm 0.06 in1.5 mm
11:03 AM 37.3°F2.9°C 31.7°F-0.2°C 80% 23.5 mph WNW37.8 kmh WNW 29.0 mph46.7 kmh 29.35 in993.9 mb 0.00 in0.0 mm 0.00 in0.0 mm 0.06 in1.5 mm
11:04 AM 37.3°F2.9°C 31.7°F-0.2°C 80% 28.2 mph WNW45.4 kmh WNW 32.0 mph51.5 kmh 29.35 in993.9 mb 0.00 in0.0 mm 0.00 in0.0 mm 0.06 in1.5 mm
11:05 AM 37.5°F3.1°C 31.9°F-0.1°C 80% 27.6 mph WNW44.4 kmh WNW 32.0 mph51.5 kmh 29.35 in993.9 mb 0.00 in0.0 mm 0.00 in0.0 mm 0.06 in1.5 mm
11:06 AM 37.4°F3.0°C 31.8°F-0.1°C 80% 27.5 mph WNW44.3 kmh WNW 33.0 mph53.1 kmh 29.35 in993.9 mb 0.00 in0.0 mm 0.00 in0.0 mm 0.06 in1.5 mm
11:07 AM 37.5°F3.1°C 31.9°F-0.1°C 80% 28.3 mph NW45.5 kmh NW 33.0 mph53.1 kmh 29.35 in993.9 mb 0.00 in0.0 mm 0.00 in0.0 mm 0.06 in1.5 mm
11:08 AM 37.4°F3.0°C 31.8°F-0.1°C 80% 24.5 mph WNW39.4 kmh WNW 33.0 mph53.1 kmh 29.35 in993.9 mb 0.00 in0.0 mm 0.00 in0.0 mm 0.06 in1.5 mm
11:09 AM 37.5°F3.1°C 31.9°F-0.1°C 80% 25.4 mph WNW40.9 kmh WNW 32.0 mph51.5 kmh 29.35 in993.9 mb 0.00 in0.0 mm 0.00 in0.0 mm 0.06 in1.5 mm
11:10 AM 37.5°F3.1°C 31.9°F-0.1°C 80% 26.4 mph WNW42.5 kmh WNW 31.0 mph49.9 kmh 29.35 in993.9 mb 0.00 in0.0 mm 0.00 in0.0 mm 0.06 in1.5 mm
11:11 AM 37.5°F3.1°C 31.9°F-0.1°C 80% 25.4 mph WNW40.9 kmh WNW 31.0 mph49.9 kmh 29.35 in993.9 mb 0.00 in0.0 mm 0.00 in0.0 mm 0.06 in1.5 mm
11:12 AM 37.4°F3.0°C 32.1°F0.1°C 81% 26.7 mph WNW43.0 kmh WNW 32.0 mph51.5 kmh 29.35 in993.9 mb 0.00 in0.0 mm 0.00 in0.0 mm 0.06 in1.5 mm
11:13 AM 37.4°F3.0°C 31.8°F-0.1°C 80% 26.7 mph WNW43.0 kmh WNW 33.0 mph53.1 kmh 29.35 in993.9 mb 0.00 in0.0 mm 0.00 in0.0 mm 0.06 in1.5 mm
11:14 AM 37.5°F3.1°C 32.2°F0.1°C 81% 26.9 mph WNW43.3 kmh WNW 34.0 mph54.7 kmh 29.35 in993.9 mb 0.00 in0.0 mm 0.00 in0.0 mm 0.06 in1.5 mm
11:15 AM 37.6°F3.1°C 32.0°F0.0°C 80% 27.3 mph WNW43.9 kmh WNW 35.0 mph56.3 kmh 29.35 in993.9 mb 0.00 in0.0 mm 0.00 in0.0 mm 0.06 in1.5 mm
11:16 AM 37.5°F3.1°C 31.9°F-0.1°C 80% 25.8 mph WNW41.5 kmh WNW 35.0 mph56.3 kmh 29.36 in994.2 mb 0.00 in0.0 mm 0.00 in0.0 mm 0.06 in1.5 mm
11:17 AM 37.6°F3.1°C 32.0°F0.0°C 80% 27.1 mph WNW43.6 kmh WNW 33.0 mph53.1 kmh 29.35 in993.9 mb 0.00 in0.0 mm 0.00 in0.0 mm 0.06 in1.5 mm
11:18 AM 37.6°F3.1°C 32.0°F0.0°C 80% 29.5 mph WNW47.5 kmh WNW 33.0 mph53.1 kmh 29.36 in994.2 mb 0.00 in0.0 mm 0.00 in0.0 mm 0.06 in1.5 mm
11:19 AM 37.7°F3.2°C 32.1°F0.1°C 80% 23.1 mph WNW37.2 kmh WNW 32.0 mph51.5 kmh 29.36 in994.2 mb 0.00 in0.0 mm 0.00 in0.0 mm 0.06 in1.5 mm
11:20 AM 37.6°F3.1°C 32.0°F0.0°C 80% 27.2 mph WNW43.8 kmh WNW 33.0 mph53.1 kmh 29.36 in994.2 mb 0.00 in0.0 mm 0.00 in0.0 mm 0.06 in1.5 mm
11:21 AM 37.6°F3.1°C 32.0°F0.0°C 80% 24.9 mph WNW40.1 kmh WNW 34.0 mph54.7 kmh 29.36 in994.2 mb 0.00 in0.0 mm 0.00 in0.0 mm 0.06 in1.5 mm
11:22 AM 37.6°F3.1°C 32.3°F0.2°C 81% 24.0 mph WNW38.6 kmh WNW 34.0 mph54.7 kmh 29.36 in994.2 mb 0.00 in0.0 mm 0.00 in0.0 mm 0.06 in1.5 mm
11:23 AM 37.6°F3.1°C 32.0°F0.0°C 80% 25.2 mph WNW40.6 kmh WNW 30.0 mph48.3 kmh 29.36 in994.2 mb 0.00 in0.0 mm 0.00 in0.0 mm 0.06 in1.5 mm
11:24 AM 37.6°F3.1°C 32.3°F0.2°C 81% 25.9 mph WNW41.7 kmh WNW 34.0 mph54.7 kmh 29.36 in994.2 mb 0.00 in0.0 mm 0.00 in0.0 mm 0.06 in1.5 mm
11:25 AM 37.7°F3.2°C 32.1°F0.1°C 80% 27.2 mph WNW43.8 kmh WNW 34.0 mph54.7 kmh 29.36 in994.2 mb 0.00 in0.0 mm 0.00 in0.0 mm 0.06 in1.5 mm
11:26 AM 37.7°F3.2°C 32.1°F0.1°C 80% 28.9 mph WNW46.5 kmh WNW 35.0 mph56.3 kmh 29.36 in994.2 mb 0.00 in0.0 mm 0.00 in0.0 mm 0.06 in1.5 mm
11:27 AM 37.8°F3.2°C 32.2°F0.1°C 80% 28.2 mph WNW45.4 kmh WNW 35.0 mph56.3 kmh 29.36 in994.2 mb 0.00 in0.0 mm 0.00 in0.0 mm 0.06 in1.5 mm
11:28 AM 37.8°F3.2°C 32.2°F0.1°C 80% 26.5 mph WNW42.6 kmh WNW 32.0 mph51.5 kmh 29.36 in994.2 mb 0.00 in0.0 mm 0.00 in0.0 mm 0.06 in1.5 mm
11:29 AM 37.7°F3.2°C 32.1°F0.1°C 80% 25.0 mph WNW40.2 kmh WNW 32.0 mph51.5 kmh 29.36 in994.2 mb 0.00 in0.0 mm 0.00 in0.0 mm 0.06 in1.5 mm
11:30 AM 37.7°F3.2°C 32.1°F0.1°C 80% 24.1 mph WNW38.8 kmh WNW 30.0 mph48.3 kmh 29.37 in994.6 mb 0.00 in0.0 mm 0.00 in0.0 mm 0.06 in1.5 mm
11:31 AM 37.7°F3.2°C 32.4°F0.2°C 81% 26.2 mph WNW42.2 kmh WNW 32.0 mph51.5 kmh 29.37 in994.6 mb 0.00 in0.0 mm 0.00 in0.0 mm 0.06 in1.5 mm
11:32 AM 37.8°F3.2°C 32.5°F0.3°C 81% 25.0 mph WNW40.2 kmh WNW 32.0 mph51.5 kmh 29.37 in994.6 mb 0.00 in0.0 mm 0.00 in0.0 mm 0.06 in1.5 mm
11:33 AM 37.8°F3.2°C 32.5°F0.3°C 81% 26.9 mph WNW43.3 kmh WNW 30.0 mph48.3 kmh 29.37 in994.6 mb 0.00 in0.0 mm 0.00 in0.0 mm 0.06 in1.5 mm
11:34 AM 37.9°F3.3°C 32.6°F0.3°C 81% 25.0 mph WNW40.2 kmh WNW 32.0 mph51.5 kmh 29.37 in994.6 mb 0.00 in0.0 mm 0.00 in0.0 mm 0.06 in1.5 mm
11:35 AM 37.8°F3.2°C 32.5°F0.3°C 81% 25.4 mph WNW40.9 kmh WNW 32.0 mph51.5 kmh 29.37 in994.6 mb 0.00 in0.0 mm 0.00 in0.0 mm 0.06 in1.5 mm
11:36 AM 37.8°F3.2°C 32.5°F0.3°C 81% 24.9 mph WNW40.1 kmh WNW 29.0 mph46.7 kmh 29.37 in994.6 mb 0.00 in0.0 mm 0.00 in0.0 mm 0.06 in1.5 mm
11:37 AM 37.9°F3.3°C 32.6°F0.3°C 81% 25.2 mph WNW40.6 kmh WNW 32.0 mph51.5 kmh 29.37 in994.6 mb 0.00 in0.0 mm 0.00 in0.0 mm 0.06 in1.5 mm
11:38 AM 37.9°F3.3°C 32.3°F0.2°C 80% 28.8 mph WNW46.3 kmh WNW 32.0 mph51.5 kmh 29.37 in994.6 mb 0.00 in0.0 mm 0.00 in0.0 mm 0.06 in1.5 mm
11:39 AM 37.9°F3.3°C 32.3°F0.2°C 80% 27.1 mph WNW43.6 kmh WNW 32.0 mph51.5 kmh 29.38 in994.9 mb 0.00 in0.0 mm 0.00 in0.0 mm 0.06 in1.5 mm
11:40 AM 38.0°F3.3°C 32.4°F0.2°C 80% 28.1 mph WNW45.2 kmh WNW 33.0 mph53.1 kmh 29.38 in994.9 mb 0.00 in0.0 mm 0.00 in0.0 mm 0.06 in1.5 mm
11:41 AM 38.0°F3.3°C 32.4°F0.2°C 80% 25.6 mph WNW41.2 kmh WNW 33.0 mph53.1 kmh 29.38 in994.9 mb 0.00 in0.0 mm 0.00 in0.0 mm 0.06 in1.5 mm
11:42 AM 38.0°F3.3°C 32.4°F0.2°C 80% 24.5 mph WNW39.4 kmh WNW 30.0 mph48.3 kmh 29.38 in994.9 mb 0.00 in0.0 mm 0.00 in0.0 mm 0.06 in1.5 mm
11:43 AM 38.0°F3.3°C 32.4°F0.2°C 80% 24.3 mph WNW39.1 kmh WNW 30.0 mph48.3 kmh 29.38 in994.9 mb 0.00 in0.0 mm 0.00 in0.0 mm 0.06 in1.5 mm
11:44 AM 38.0°F3.3°C 32.4°F0.2°C 80% 26.5 mph WNW42.6 kmh WNW 31.0 mph49.9 kmh 29.38 in994.9 mb 0.00 in0.0 mm 0.00 in0.0 mm 0.06 in1.5 mm
11:45 AM 38.1°F3.4°C 32.5°F0.3°C 80% 25.2 mph WNW40.6 kmh WNW 31.0 mph49.9 kmh 29.38 in994.9 mb 0.00 in0.0 mm 0.00 in0.0 mm 0.06 in1.5 mm
11:46 AM 38.0°F3.3°C 32.4°F0.2°C 80% 23.4 mph WNW37.7 kmh WNW 31.0 mph49.9 kmh 29.38 in994.9 mb 0.00 in0.0 mm 0.00 in0.0 mm 0.06 in1.5 mm
11:47 AM 38.0°F3.3°C 32.4°F0.2°C 80% 26.5 mph WNW42.6 kmh WNW 30.0 mph48.3 kmh 29.38 in994.9 mb 0.00 in0.0 mm 0.00 in0.0 mm 0.06 in1.5 mm
11:48 AM 38.1°F3.4°C 32.5°F0.3°C 80% 22.5 mph WNW36.2 kmh WNW 30.0 mph48.3 kmh 29.38 in994.9 mb 0.00 in0.0 mm 0.00 in0.0 mm 0.06 in1.5 mm
11:49 AM 38.1°F3.4°C 32.5°F0.3°C 80% 23.0 mph WNW37.0 kmh WNW 28.0 mph45.1 kmh 29.38 in994.9 mb 0.00 in0.0 mm 0.00 in0.0 mm 0.06 in1.5 mm
11:50 AM 38.1°F3.4°C 32.5°F0.3°C 80% 22.0 mph WNW35.4 kmh WNW 30.0 mph48.3 kmh 29.39 in995.3 mb 0.00 in0.0 mm 0.00 in0.0 mm 0.06 in1.5 mm
11:51 AM 38.1°F3.4°C 32.5°F0.3°C 80% 21.5 mph WNW34.6 kmh WNW 30.0 mph48.3 kmh 29.39 in995.3 mb 0.00 in0.0 mm 0.00 in0.0 mm 0.06 in1.5 mm
11:52 AM 38.2°F3.4°C 32.6°F0.3°C 80% 27.0 mph WNW43.5 kmh WNW 33.0 mph53.1 kmh 29.39 in995.3 mb 0.00 in0.0 mm 0.00 in0.0 mm 0.06 in1.5 mm
11:53 AM 38.2°F3.4°C 32.6°F0.3°C 80% 25.7 mph WNW41.4 kmh WNW 33.0 mph53.1 kmh 29.39 in995.3 mb 0.00 in0.0 mm 0.00 in0.0 mm 0.06 in1.5 mm
11:54 AM 38.4°F3.6°C 32.8°F0.4°C 80% 23.2 mph WNW37.3 kmh WNW 30.0 mph48.3 kmh 29.39 in995.3 mb 0.00 in0.0 mm 0.00 in0.0 mm 0.06 in1.5 mm
11:55 AM 38.4°F3.6°C 32.8°F0.4°C 80% 26.0 mph W41.8 kmh W 32.0 mph51.5 kmh 29.39 in995.3 mb 0.00 in0.0 mm 0.00 in0.0 mm 0.06 in1.5 mm
11:56 AM 38.3°F3.5°C 32.7°F0.4°C 80% 20.3 mph WNW32.7 kmh WNW 32.0 mph51.5 kmh 29.39 in995.3 mb 0.00 in0.0 mm 0.00 in0.0 mm 0.06 in1.5 mm
11:57 AM 38.3°F3.5°C 32.7°F0.4°C 80% 24.1 mph WNW38.8 kmh WNW 28.0 mph45.1 kmh 29.39 in995.3 mb 0.00 in0.0 mm 0.00 in0.0 mm 0.06 in1.5 mm
11:58 AM 38.3°F3.5°C 32.7°F0.4°C 80% 26.0 mph WNW41.8 kmh WNW 32.0 mph51.5 kmh 29.39 in995.3 mb 0.00 in0.0 mm 0.00 in0.0 mm 0.06 in1.5 mm
11:59 AM 38.3°F3.5°C 32.4°F0.2°C 79% 23.8 mph WNW38.3 kmh WNW 32.0 mph51.5 kmh 29.39 in995.3 mb 0.00 in0.0 mm 0.00 in0.0 mm 0.06 in1.5 mm
12:00 PM 38.4°F3.6°C 32.5°F0.3°C 79% 25.5 mph WNW41.0 kmh WNW 29.0 mph46.7 kmh 29.39 in995.3 mb 0.00 in0.0 mm 0.00 in0.0 mm 0.06 in1.5 mm
12:01 PM 38.5°F3.6°C 32.6°F0.3°C 79% 27.4 mph WNW44.1 kmh WNW 34.0 mph54.7 kmh 29.39 in995.3 mb 0.00 in0.0 mm 0.00 in0.0 mm 0.06 in1.5 mm
12:02 PM 38.5°F3.6°C 32.6°F0.3°C 79% 22.7 mph WNW36.5 kmh WNW 34.0 mph54.7 kmh 29.39 in995.3 mb 0.00 in0.0 mm 0.00 in0.0 mm 0.06 in1.5 mm
12:03 PM 38.6°F3.7°C 32.7°F0.4°C 79% 22.7 mph WNW36.5 kmh WNW 29.0 mph46.7 kmh 29.39 in995.3 mb 0.00 in0.0 mm 0.00 in0.0 mm 0.06 in1.5 mm
12:04 PM 38.6°F3.7°C 32.7°F0.4°C 79% 24.7 mph WNW39.8 kmh WNW 29.0 mph46.7 kmh 29.40 in995.6 mb 0.00 in0.0 mm 0.00 in0.0 mm 0.06 in1.5 mm
12:05 PM 38.6°F3.7°C 32.7°F0.4°C 79% 23.8 mph WNW38.3 kmh WNW 29.0 mph46.7 kmh 29.40 in995.6 mb 0.00 in0.0 mm 0.00 in0.0 mm 0.06 in1.5 mm
12:06 PM 38.6°F3.7°C 32.3°F0.2°C 78% 22.1 mph WNW35.6 kmh WNW 29.0 mph46.7 kmh 29.40 in995.6 mb 0.00 in0.0 mm 0.00 in0.0 mm 0.06 in1.5 mm
12:07 PM 38.7°F3.7°C 32.4°F0.2°C 78% 28.2 mph WNW45.4 kmh WNW 33.0 mph53.1 kmh 29.40 in995.6 mb 0.00 in0.0 mm 0.00 in0.0 mm 0.06 in1.5 mm
12:08 PM 38.8°F3.8°C 32.5°F0.3°C 78% 28.4 mph WNW45.7 kmh WNW 34.0 mph54.7 kmh 29.40 in995.6 mb 0.00 in0.0 mm 0.00 in0.0 mm 0.06 in1.5 mm
12:09 PM 38.8°F3.8°C 32.5°F0.3°C 78% 24.9 mph WNW40.1 kmh WNW 34.0 mph54.7 kmh 29.40 in995.6 mb 0.00 in0.0 mm 0.00 in0.0 mm 0.06 in1.5 mm
12:10 PM 38.8°F3.8°C 32.5°F0.3°C 78% 29.0 mph WNW46.7 kmh WNW 33.0 mph53.1 kmh 29.40 in995.6 mb 0.00 in0.0 mm 0.00 in0.0 mm 0.06 in1.5 mm
12:11 PM 38.8°F3.8°C 32.5°F0.3°C 78% 25.0 mph WNW40.2 kmh WNW 33.0 mph53.1 kmh 29.40 in995.6 mb 0.00 in0.0 mm 0.00 in0.0 mm 0.06 in1.5 mm
12:12 PM 38.9°F3.8°C 32.3°F0.2°C 77% 30.3 mph WNW48.8 kmh WNW 38.0 mph61.2 kmh 29.40 in995.6 mb 0.00 in0.0 mm 0.00 in0.0 mm 0.06 in1.5 mm
12:13 PM 39.0°F3.9°C 32.1°F0.1°C 76% 31.8 mph WNW51.2 kmh WNW 38.0 mph61.2 kmh 29.40 in995.6 mb 0.00 in0.0 mm 0.00 in0.0 mm 0.06 in1.5 mm
12:14 PM 39.0°F3.9°C 32.1°F0.1°C 76% 29.3 mph WNW47.2 kmh WNW 37.0 mph59.5 kmh 29.40 in995.6 mb 0.00 in0.0 mm 0.00 in0.0 mm 0.06 in1.5 mm
12:15 PM 39.0°F3.9°C 32.4°F0.2°C 77% 28.3 mph WNW45.5 kmh WNW 35.0 mph56.3 kmh 29.40 in995.6 mb 0.00 in0.0 mm 0.00 in0.0 mm 0.06 in1.5 mm
12:16 PM 39.0°F3.9°C 32.4°F0.2°C 77% 31.5 mph NW50.7 kmh NW 36.0 mph57.9 kmh 29.40 in995.6 mb 0.00 in0.0 mm 0.00 in0.0 mm 0.06 in1.5 mm
12:17 PM 39.0°F3.9°C 32.4°F0.2°C 77% 28.1 mph WNW45.2 kmh WNW 36.0 mph57.9 kmh 29.40 in995.6 mb 0.00 in0.0 mm 0.00 in0.0 mm 0.06 in1.5 mm
12:18 PM 38.9°F3.8°C 32.6°F0.3°C 78% 21.5 mph WNW34.6 kmh WNW 31.0 mph49.9 kmh 29.41 in995.9 mb 0.00 in0.0 mm 0.00 in0.0 mm 0.06 in1.5 mm
12:19 PM 38.9°F3.8°C 32.6°F0.3°C 78% 24.1 mph WNW38.8 kmh WNW 29.0 mph46.7 kmh 29.41 in995.9 mb 0.00 in0.0 mm 0.00 in0.0 mm 0.06 in1.5 mm
12:20 PM 38.9°F3.8°C 32.6°F0.3°C 78% 26.0 mph WNW41.8 kmh WNW 31.0 mph49.9 kmh 29.41 in995.9 mb 0.00 in0.0 mm 0.00 in0.0 mm 0.06 in1.5 mm
12:21 PM 39.0°F3.9°C 32.7°F0.4°C 78% 31.5 mph WNW50.7 kmh WNW 38.0 mph61.2 kmh 29.41 in995.9 mb 0.00 in0.0 mm 0.00 in0.0 mm 0.06 in1.5 mm
12:22 PM 39.1°F3.9°C 32.5°F0.3°C 77% 25.1 mph WNW40.4 kmh WNW 38.0 mph61.2 kmh 29.41 in995.9 mb 0.00 in0.0 mm 0.00 in0.0 mm 0.06 in1.5 mm
12:23 PM 39.2°F4.0°C 32.6°F0.3°C 77% 27.1 mph WNW43.6 kmh WNW 32.0 mph51.5 kmh 29.41 in995.9 mb 0.00 in0.0 mm 0.00 in0.0 mm 0.06 in1.5 mm
12:24 PM 39.2°F4.0°C 32.9°F0.5°C 78% 26.0 mph WNW41.8 kmh WNW 32.0 mph51.5 kmh 29.41 in995.9 mb 0.00 in0.0 mm 0.00 in0.0 mm 0.06 in1.5 mm
12:25 PM 39.1°F3.9°C 32.8°F0.4°C 78% 21.8 mph WNW35.1 kmh WNW 30.0 mph48.3 kmh 29.41 in995.9 mb 0.00 in0.0 mm 0.00 in0.0 mm 0.06 in1.5 mm
12:26 PM 39.1°F3.9°C 32.8°F0.4°C 78% 29.0 mph WNW46.7 kmh WNW 34.0 mph54.7 kmh 29.41 in995.9 mb 0.00 in0.0 mm 0.00 in0.0 mm 0.06 in1.5 mm
12:27 PM 39.1°F3.9°C 32.8°F0.4°C 78% 23.7 mph WNW38.1 kmh WNW 34.0 mph54.7 kmh 29.41 in995.9 mb 0.00 in0.0 mm 0.00 in0.0 mm 0.06 in1.5 mm
12:28 PM 39.1°F3.9°C 32.8°F0.4°C 78% 22.1 mph WNW35.6 kmh WNW 30.0 mph48.3 kmh 29.41 in995.9 mb 0.00 in0.0 mm 0.00 in0.0 mm 0.06 in1.5 mm
12:29 PM 39.2°F4.0°C 32.9°F0.5°C 78% 21.7 mph WNW34.9 kmh WNW 25.0 mph40.2 kmh 29.41 in995.9 mb 0.00 in0.0 mm 0.00 in0.0 mm 0.06 in1.5 mm
12:30 PM 39.3°F4.1°C 32.7°F0.4°C 77% 28.6 mph WNW46.0 kmh WNW 32.0 mph51.5 kmh 29.41 in995.9 mb 0.00 in0.0 mm 0.00 in0.0 mm 0.06 in1.5 mm
12:31 PM 39.3°F4.1°C 32.7°F0.4°C 77% 28.6 mph WNW46.0 kmh WNW 34.0 mph54.7 kmh 29.42 in996.3 mb 0.00 in0.0 mm 0.00 in0.0 mm 0.06 in1.5 mm
12:32 PM 39.4°F4.1°C 32.8°F0.4°C 77% 29.1 mph WNW46.8 kmh WNW 34.0 mph54.7 kmh 29.42 in996.3 mb 0.00 in0.0 mm 0.00 in0.0 mm 0.06 in1.5 mm
12:33 PM 39.4°F4.1°C 32.8°F0.4°C 77% 26.9 mph WNW43.3 kmh WNW 33.0 mph53.1 kmh 29.42 in996.3 mb 0.00 in0.0 mm 0.00 in0.0 mm 0.06 in1.5 mm
12:34 PM 39.5°F4.2°C 32.9°F0.5°C 77% 24.8 mph WNW39.9 kmh WNW 31.0 mph49.9 kmh 29.42 in996.3 mb 0.00 in0.0 mm 0.00 in0.0 mm 0.06 in1.5 mm
12:35 PM 39.4°F4.1°C 32.8°F0.4°C 77% 24.7 mph WNW39.8 kmh WNW 31.0 mph49.9 kmh 29.42 in996.3 mb 0.00 in0.0 mm 0.00 in0.0 mm 0.06 in1.5 mm
12:36 PM 39.3°F4.1°C 33.0°F0.6°C 78% 23.8 mph WNW38.3 kmh WNW 29.0 mph46.7 kmh 29.42 in996.3 mb 0.00 in0.0 mm 0.00 in0.0 mm 0.06 in1.5 mm
12:37 PM 39.3°F4.1°C 33.0°F0.6°C 78% 22.8 mph WNW36.7 kmh WNW 28.0 mph45.1 kmh 29.42 in996.3 mb 0.00 in0.0 mm 0.00 in0.0 mm 0.06 in1.5 mm
12:38 PM 39.3°F4.1°C 33.0°F0.6°C 78% 22.9 mph WNW36.9 kmh WNW 29.0 mph46.7 kmh 29.42 in996.3 mb 0.00 in0.0 mm 0.00 in0.0 mm 0.06 in1.5 mm
12:39 PM 39.3°F4.1°C 33.0°F0.6°C 78% 25.6 mph WNW41.2 kmh WNW 32.0 mph51.5 kmh 29.42 in996.3 mb 0.00 in0.0 mm 0.00 in0.0 mm 0.06 in1.5 mm
12:40 PM 39.4°F4.1°C 33.1°F0.6°C 78% 25.7 mph WNW41.4 kmh WNW 32.0 mph51.5 kmh 29.42 in996.3 mb 0.00 in0.0 mm 0.00 in0.0 mm 0.06 in1.5 mm
12:41 PM 39.4°F4.1°C 32.8°F0.4°C 77% 25.8 mph WNW41.5 kmh WNW 33.0 mph53.1 kmh 29.42 in996.3 mb 0.00 in0.0 mm 0.00 in0.0 mm 0.06 in1.5 mm
12:42 PM 39.3°F4.1°C 32.7°F0.4°C 77% 28.6 mph WNW46.0 kmh WNW 35.0 mph56.3 kmh 29.42 in996.3 mb 0.00 in0.0 mm 0.00 in0.0 mm 0.06 in1.5 mm
12:43 PM 39.4°F4.1°C 32.8°F0.4°C 77% 28.4 mph WNW45.7 kmh WNW 35.0 mph56.3 kmh 29.42 in996.3 mb 0.00 in0.0 mm 0.00 in0.0 mm 0.06 in1.5 mm
12:44 PM 39.4°F4.1°C 32.8°F0.4°C 77% 28.8 mph WNW46.3 kmh WNW 35.0 mph56.3 kmh 29.42 in996.3 mb 0.00 in0.0 mm 0.00 in0.0 mm 0.06 in1.5 mm
12:45 PM 39.4°F4.1°C 32.8°F0.4°C 77% 31.5 mph WNW50.7 kmh WNW 35.0 mph56.3 kmh 29.42 in996.3 mb 0.00 in0.0 mm 0.00 in0.0 mm 0.06 in1.5 mm
12:46 PM 39.5°F4.2°C 32.9°F0.5°C 77% 31.7 mph WNW51.0 kmh WNW 37.0 mph59.5 kmh 29.42 in996.3 mb 0.00 in0.0 mm 0.00 in0.0 mm 0.06 in1.5 mm
12:47 PM 39.5°F4.2°C 32.9°F0.5°C 77% 29.9 mph WNW48.1 kmh WNW 37.0 mph59.5 kmh 29.43 in996.6 mb 0.00 in0.0 mm 0.00 in0.0 mm 0.06 in1.5 mm
12:48 PM 39.5°F4.2°C 32.9°F0.5°C 77% 27.8 mph WNW44.7 kmh WNW 36.0 mph57.9 kmh 29.43 in996.6 mb 0.00 in0.0 mm 0.00 in0.0 mm 0.06 in1.5 mm
12:49 PM 39.5°F4.2°C 32.9°F0.5°C 77% 29.5 mph WNW47.5 kmh WNW 36.0 mph57.9 kmh 29.43 in996.6 mb 0.00 in0.0 mm 0.00 in0.0 mm 0.06 in1.5 mm
12:50 PM 39.5°F4.2°C 32.9°F0.5°C 77% 27.7 mph WNW44.6 kmh WNW 35.0 mph56.3 kmh 29.43 in996.6 mb 0.00 in0.0 mm 0.00 in0.0 mm 0.06 in1.5 mm
12:51 PM 39.6°F4.2°C 32.7°F0.4°C 76% 33.0 mph WNW53.1 kmh WNW 37.0 mph59.5 kmh 29.43 in996.6 mb 0.00 in0.0 mm 0.00 in0.0 mm 0.06 in1.5 mm
12:52 PM 39.6°F4.2°C 32.7°F0.4°C 76% 28.1 mph WNW45.2 kmh WNW 37.0 mph59.5 kmh 29.43 in996.6 mb 0.00 in0.0 mm 0.00 in0.0 mm 0.06 in1.5 mm
12:53 PM 39.6°F4.2°C 32.7°F0.4°C 76% 31.0 mph WNW49.9 kmh WNW 37.0 mph59.5 kmh 29.43 in996.6 mb 0.00 in0.0 mm 0.00 in0.0 mm 0.06 in1.5 mm
12:54 PM 39.5°F4.2°C 32.6°F0.3°C 76% 28.5 mph WNW45.9 kmh WNW 37.0 mph59.5 kmh 29.43 in996.6 mb 0.00 in0.0 mm 0.00 in0.0 mm 0.06 in1.5 mm
12:55 PM 39.4°F4.1°C 32.5°F0.3°C 76% 28.3 mph WNW45.5 kmh WNW 37.0 mph59.5 kmh 29.43 in996.6 mb 0.00 in0.0 mm 0.00 in0.0 mm 0.06 in1.5 mm
12:56 PM 39.4°F4.1°C 32.5°F0.3°C 76% 22.8 mph WNW36.7 kmh WNW 37.0 mph59.5 kmh 29.43 in996.6 mb 0.00 in0.0 mm 0.00 in0.0 mm 0.06 in1.5 mm
12:57 PM 39.5°F4.2°C 32.9°F0.5°C 77% 26.4 mph WNW42.5 kmh WNW 33.0 mph53.1 kmh 29.43 in996.6 mb 0.00 in0.0 mm 0.00 in0.0 mm 0.06 in1.5 mm
12:58 PM 39.5°F4.2°C 32.9°F0.5°C 77% 26.2 mph W42.2 kmh W 33.0 mph53.1 kmh 29.43 in996.6 mb 0.00 in0.0 mm 0.00 in0.0 mm 0.06 in1.5 mm
12:59 PM 39.5°F4.2°C 32.9°F0.5°C 77% 24.3 mph WNW39.1 kmh WNW 34.0 mph54.7 kmh 29.43 in996.6 mb 0.00 in0.0 mm 0.00 in0.0 mm 0.06 in1.5 mm
01:00 PM 39.5°F4.2°C 32.9°F0.5°C 77% 28.4 mph WNW45.7 kmh WNW 34.0 mph54.7 kmh 29.43 in996.6 mb 0.00 in0.0 mm 0.00 in0.0 mm 0.06 in1.5 mm
01:01 PM 39.6°F4.2°C 32.7°F0.4°C 76% 24.7 mph WNW39.8 kmh WNW 33.0 mph53.1 kmh 29.43 in996.6 mb 0.00 in0.0 mm 0.00 in0.0 mm 0.06 in1.5 mm
01:02 PM 39.7°F4.3°C 32.8°F0.4°C 76% 23.8 mph WNW38.3 kmh WNW 30.0 mph48.3 kmh 29.43 in996.6 mb 0.00 in0.0 mm 0.00 in0.0 mm 0.06 in1.5 mm
01:03 PM 39.7°F4.3°C 33.1°F0.6°C 77% 23.9 mph W38.5 kmh W 30.0 mph48.3 kmh 29.44 in997.0 mb 0.00 in0.0 mm 0.00 in0.0 mm 0.06 in1.5 mm
01:04 PM 39.7°F4.3°C 33.1°F0.6°C 77% 23.9 mph WNW38.5 kmh WNW 34.0 mph54.7 kmh 29.44 in997.0 mb 0.00 in0.0 mm 0.00 in0.0 mm 0.06 in1.5 mm
01:05 PM 39.7°F4.3°C 32.8°F0.4°C 76% 27.9 mph WNW44.9 kmh WNW 34.0 mph54.7 kmh 29.44 in997.0 mb 0.00 in0.0 mm 0.00 in0.0 mm 0.06 in1.5 mm
01:06 PM 39.8°F4.3°C 33.2°F0.7°C 77% 26.9 mph WNW43.3 kmh WNW 33.0 mph53.1 kmh 29.44 in997.0 mb 0.00 in0.0 mm 0.00 in0.0 mm 0.06 in1.5 mm
01:07 PM 39.7°F4.3°C 33.1°F0.6°C 77% 26.3 mph WNW42.3 kmh WNW 33.0 mph53.1 kmh 29.44 in997.0 mb 0.00 in0.0 mm 0.00 in0.0 mm 0.06 in1.5 mm
01:08 PM 39.8°F4.3°C 32.9°F0.5°C 76% 27.7 mph WNW44.6 kmh WNW 33.0 mph53.1 kmh 29.44 in997.0 mb 0.00 in0.0 mm 0.00 in0.0 mm 0.06 in1.5 mm
01:09 PM 39.8°F4.3°C 32.9°F0.5°C 76% 27.2 mph WNW43.8 kmh WNW 35.0 mph56.3 kmh 29.44 in997.0 mb 0.00 in0.0 mm 0.00 in0.0 mm 0.06 in1.5 mm
01:10 PM 39.8°F4.3°C 32.9°F0.5°C 76% 28.5 mph WNW45.9 kmh WNW 35.0 mph56.3 kmh 29.44 in997.0 mb 0.00 in0.0 mm 0.00 in0.0 mm 0.06 in1.5 mm
01:11 PM 39.7°F4.3°C 32.8°F0.4°C 76% 28.7 mph WNW46.2 kmh WNW 33.0 mph53.1 kmh 29.44 in997.0 mb 0.00 in0.0 mm 0.00 in0.0 mm 0.06 in1.5 mm
01:12 PM 39.7°F4.3°C 32.8°F0.4°C 76% 27.3 mph WNW43.9 kmh WNW 33.0 mph53.1 kmh 29.44 in997.0 mb 0.00 in0.0 mm 0.00 in0.0 mm 0.06 in1.5 mm
01:13 PM 39.8°F4.3°C 32.5°F0.3°C 75% 28.3 mph WNW45.5 kmh WNW 33.0 mph53.1 kmh 29.44 in997.0 mb 0.00 in0.0 mm 0.00 in0.0 mm 0.06 in1.5 mm
01:14 PM 39.9°F4.4°C 33.0°F0.6°C 76% 31.3 mph WNW50.4 kmh WNW 36.0 mph57.9 kmh 29.44 in997.0 mb 0.00 in0.0 mm 0.00 in0.0 mm 0.06 in1.5 mm
01:15 PM 39.8°F4.3°C 32.5°F0.3°C 75% 29.7 mph WNW47.8 kmh WNW 38.0 mph61.2 kmh 29.44 in997.0 mb 0.00 in0.0 mm 0.00 in0.0 mm 0.06 in1.5 mm
01:16 PM 39.8°F4.3°C 32.5°F0.3°C 75% 30.2 mph WNW48.6 kmh WNW 38.0 mph61.2 kmh 29.44 in997.0 mb 0.00 in0.0 mm 0.00 in0.0 mm 0.06 in1.5 mm
01:17 PM 39.9°F4.4°C 32.6°F0.3°C 75% 28.5 mph WNW45.9 kmh WNW 37.0 mph59.5 kmh 29.44 in997.0 mb 0.00 in0.0 mm 0.00 in0.0 mm 0.06 in1.5 mm
01:18 PM 39.9°F4.4°C 32.3°F0.2°C 74% 29.3 mph WNW47.2 kmh WNW 35.0 mph56.3 kmh 29.44 in997.0 mb 0.00 in0.0 mm 0.00 in0.0 mm 0.06 in1.5 mm
01:19 PM 39.8°F4.3°C 32.5°F0.3°C 75% 25.9 mph WNW41.7 kmh WNW 34.0 mph54.7 kmh 29.44 in997.0 mb 0.00 in0.0 mm 0.00 in0.0 mm 0.06 in1.5 mm
01:20 PM 39.7°F4.3°C 32.4°F0.2°C 75% 24.1 mph WNW38.8 kmh WNW 30.0 mph48.3 kmh 29.44 in997.0 mb 0.00 in0.0 mm 0.00 in0.0 mm 0.06 in1.5 mm
01:21 PM 39.8°F4.3°C 32.5°F0.3°C 75% 22.8 mph WNW36.7 kmh WNW 29.0 mph46.7 kmh 29.44 in997.0 mb 0.00 in0.0 mm 0.00 in0.0 mm 0.06 in1.5 mm
01:22 PM 39.7°F4.3°C 32.4°F0.2°C 75% 21.8 mph WNW35.1 kmh WNW 29.0 mph46.7 kmh 29.44 in997.0 mb 0.00 in0.0 mm 0.00 in0.0 mm 0.06 in1.5 mm
01:23 PM 39.8°F4.3°C 32.5°F0.3°C 75% 24.8 mph WNW39.9 kmh WNW 29.0 mph46.7 kmh 29.45 in997.3 mb 0.00 in0.0 mm 0.00 in0.0 mm 0.06 in1.5 mm
01:24 PM 39.9°F4.4°C 32.3°F0.2°C 74% 28.1 mph WNW45.2 kmh WNW 33.0 mph53.1 kmh 29.44 in997.0 mb 0.00 in0.0 mm 0.00 in0.0 mm 0.06 in1.5 mm
01:25 PM 40.0°F4.4°C 32.4°F0.2°C 74% 27.4 mph WNW44.1 kmh WNW 33.0 mph53.1 kmh 29.44 in997.0 mb 0.00 in0.0 mm 0.00 in0.0 mm 0.06 in1.5 mm
01:26 PM 39.9°F4.4°C 32.3°F0.2°C 74% 25.7 mph WNW41.4 kmh WNW 31.0 mph49.9 kmh 29.45 in997.3 mb 0.00 in0.0 mm 0.00 in0.0 mm 0.06 in1.5 mm
01:27 PM 39.9°F4.4°C 32.3°F0.2°C 74% 25.9 mph WNW41.7 kmh WNW 31.0 mph49.9 kmh 29.45 in997.3 mb 0.00 in0.0 mm 0.00 in0.0 mm 0.06 in1.5 mm
01:28 PM 39.8°F4.3°C 32.5°F0.3°C 75% 22.3 mph WNW35.9 kmh WNW 31.0 mph49.9 kmh 29.45 in997.3 mb 0.00 in0.0 mm 0.00 in0.0 mm 0.06 in1.5 mm
01:29 PM 39.7°F4.3°C 32.4°F0.2°C 75% 24.4 mph WNW39.3 kmh WNW 30.0 mph48.3 kmh 29.45 in997.3 mb 0.00 in0.0 mm 0.00 in0.0 mm 0.06 in1.5 mm
01:30 PM 39.7°F4.3°C 32.4°F0.2°C 75% 25.3 mph WNW40.7 kmh WNW 32.0 mph51.5 kmh 29.45 in997.3 mb 0.00 in0.0 mm 0.00 in0.0 mm 0.06 in1.5 mm
01:31 PM 39.8°F4.3°C 32.5°F0.3°C 75% 27.8 mph WNW44.7 kmh WNW 35.0 mph56.3 kmh 29.45 in997.3 mb 0.00 in0.0 mm 0.00 in0.0 mm 0.06 in1.5 mm
01:32 PM 39.8°F4.3°C 32.5°F0.3°C 75% 26.5 mph WNW42.6 kmh WNW 35.0 mph56.3 kmh 29.45 in997.3 mb 0.00 in0.0 mm 0.00 in0.0 mm 0.06 in1.5 mm
01:33 PM 39.8°F4.3°C 32.5°F0.3°C 75% 26.4 mph WNW42.5 kmh WNW 31.0 mph49.9 kmh 29.45 in997.3 mb 0.00 in0.0 mm 0.00 in0.0 mm 0.06 in1.5 mm
01:34 PM 39.9°F4.4°C 32.6°F0.3°C 75% 23.3 mph WNW37.5 kmh WNW 30.0 mph48.3 kmh 29.45 in997.3 mb 0.00 in0.0 mm 0.00 in0.0 mm 0.06 in1.5 mm
01:35 PM 39.8°F4.3°C 32.5°F0.3°C 75% 27.0 mph WNW43.5 kmh WNW 31.0 mph49.9 kmh 29.45 in997.3 mb 0.00 in0.0 mm 0.00 in0.0 mm 0.06 in1.5 mm
01:36 PM 39.9°F4.4°C 32.6°F0.3°C 75% 23.7 mph WNW38.1 kmh WNW 31.0 mph49.9 kmh 29.45 in997.3 mb 0.00 in0.0 mm 0.00 in0.0 mm 0.06 in1.5 mm
01:37 PM 39.8°F4.3°C 32.5°F0.3°C 75% 22.5 mph WNW36.2 kmh WNW 27.0 mph43.5 kmh 29.45 in997.3 mb 0.00 in0.0 mm 0.00 in0.0 mm 0.06 in1.5 mm
01:38 PM 39.8°F4.3°C 32.9°F0.5°C 76% 21.6 mph WNW34.8 kmh WNW 26.0 mph41.8 kmh 29.45 in997.3 mb 0.00 in0.0 mm 0.00 in0.0 mm 0.06 in1.5 mm
01:39 PM 39.7°F4.3°C 32.8°F0.4°C 76% 23.0 mph WNW37.0 kmh WNW 26.0 mph41.8 kmh 29.45 in997.3 mb 0.00 in0.0 mm 0.00 in0.0 mm 0.06 in1.5 mm
01:40 PM 39.9°F4.4°C 32.6°F0.3°C 75% 21.4 mph WNW34.4 kmh WNW 26.0 mph41.8 kmh 29.45 in997.3 mb 0.00 in0.0 mm 0.00 in0.0 mm 0.06 in1.5 mm
01:41 PM 39.9°F4.4°C 32.6°F0.3°C 75% 23.9 mph WNW38.5 kmh WNW 29.0 mph46.7 kmh 29.45 in997.3 mb 0.00 in0.0 mm 0.00 in0.0 mm 0.06 in1.5 mm
01:42 PM 39.9°F4.4°C 32.6°F0.3°C 75% 20.8 mph WNW33.5 kmh WNW 29.0 mph46.7 kmh 29.45 in997.3 mb 0.00 in0.0 mm 0.00 in0.0 mm 0.06 in1.5 mm
01:43 PM 39.8°F4.3°C 32.9°F0.5°C 76% 18.3 mph WNW29.5 kmh WNW 25.0 mph40.2 kmh 29.45 in997.3 mb 0.00 in0.0 mm 0.00 in0.0 mm 0.06 in1.5 mm
01:44 PM 39.7°F4.3°C 32.8°F0.4°C 76% 21.4 mph WNW34.4 kmh WNW 27.0 mph43.5 kmh 29.46 in997.6 mb 0.00 in0.0 mm 0.00 in0.0 mm 0.06 in1.5 mm
01:45 PM 39.7°F4.3°C 32.8°F0.4°C 76% 21.5 mph WNW34.6 kmh WNW 27.0 mph43.5 kmh 29.46 in997.6 mb 0.00 in0.0 mm 0.00 in0.0 mm 0.06 in1.5 mm
01:46 PM 39.7°F4.3°C 32.8°F0.4°C 76% 20.7 mph WNW33.3 kmh WNW 25.0 mph40.2 kmh 29.46 in997.6 mb 0.00 in0.0 mm 0.00 in0.0 mm 0.06 in1.5 mm
01:47 PM 39.7°F4.3°C 32.8°F0.4°C 76% 18.6 mph WNW29.9 kmh WNW 23.0 mph37.0 kmh 29.46 in997.6 mb 0.00 in0.0 mm 0.00 in0.0 mm 0.06 in1.5 mm
01:48 PM 39.5°F4.2°C 32.6°F0.3°C 76% 19.2 mph WNW30.9 kmh WNW 23.0 mph37.0 kmh 29.46 in997.6 mb 0.00 in0.0 mm 0.00 in0.0 mm 0.06 in1.5 mm
01:49 PM 39.5°F4.2°C 32.6°F0.3°C 76% 23.7 mph WNW38.1 kmh WNW 28.0 mph45.1 kmh 29.46 in997.6 mb 0.00 in0.0 mm 0.00 in0.0 mm 0.06 in1.5 mm
01:50 PM 39.5°F4.2°C 32.6°F0.3°C 76% 22.4 mph WNW36.0 kmh WNW 28.0 mph45.1 kmh 29.46 in997.6 mb 0.00 in0.0 mm 0.00 in0.0 mm 0.06 in1.5 mm
01:51 PM 39.5°F4.2°C 32.6°F0.3°C 76% 25.5 mph W41.0 kmh W 30.0 mph48.3 kmh 29.46 in997.6 mb 0.00 in0.0 mm 0.00 in0.0 mm 0.06 in1.5 mm
01:52 PM 39.2°F4.0°C 32.9°F0.5°C 78% 32.5 mph W52.3 kmh W 36.0 mph57.9 kmh 29.46 in997.6 mb 0.00 in0.0 mm 0.00 in0.0 mm 0.06 in1.5 mm
01:53 PM 38.6°F3.7°C 32.7°F0.4°C 79% 28.1 mph WNW45.2 kmh WNW 36.0 mph57.9 kmh 29.47 in998.0 mb 0.00 in0.0 mm 0.00 in0.0 mm 0.06 in1.5 mm
01:54 PM 38.0°F3.3°C 32.7°F0.4°C 81% 27.1 mph WNW43.6 kmh WNW 35.0 mph56.3 kmh 29.47 in998.0 mb 0.00 in0.0 mm 0.00 in0.0 mm 0.06 in1.5 mm
01:55 PM 37.8°F3.2°C 32.8°F0.4°C 82% 25.5 mph WNW41.0 kmh WNW 35.0 mph56.3 kmh 29.47 in998.0 mb 0.00 in0.0 mm 0.00 in0.0 mm 0.06 in1.5 mm
01:56 PM 37.6°F3.1°C 32.9°F0.5°C 83% 24.4 mph WNW39.3 kmh WNW 31.0 mph49.9 kmh 29.47 in998.0 mb 0.00 in0.0 mm 0.00 in0.0 mm 0.06 in1.5 mm
01:57 PM 37.6°F3.1°C 32.9°F0.5°C 83% 21.9 mph WNW35.2 kmh WNW 27.0 mph43.5 kmh 29.47 in998.0 mb 0.00 in0.0 mm 0.00 in0.0 mm 0.06 in1.5 mm
01:58 PM 37.6°F3.1°C 32.9°F0.5°C 83% 23.3 mph W37.5 kmh W 27.0 mph43.5 kmh 29.47 in998.0 mb 0.00 in0.0 mm 0.00 in0.0 mm 0.06 in1.5 mm
01:59 PM 37.7°F3.2°C 33.0°F0.6°C 83% 21.7 mph WNW34.9 kmh WNW 27.0 mph43.5 kmh 29.47 in998.0 mb 0.00 in0.0 mm 0.00 in0.0 mm 0.06 in1.5 mm
02:00 PM 37.7°F3.2°C 33.0°F0.6°C 83% 19.3 mph WNW31.1 kmh WNW 25.0 mph40.2 kmh 29.47 in998.0 mb 0.00 in0.0 mm 0.00 in0.0 mm 0.06 in1.5 mm
02:01 PM 37.8°F3.2°C 32.8°F0.4°C 82% 23.8 mph W38.3 kmh W 28.0 mph45.1 kmh 29.47 in998.0 mb 0.00 in0.0 mm 0.00 in0.0 mm 0.06 in1.5 mm
02:02 PM 37.9°F3.3°C 32.6°F0.3°C 81% 25.3 mph W40.7 kmh W 30.0 mph48.3 kmh 29.47 in998.0 mb 0.00 in0.0 mm 0.00 in0.0 mm 0.06 in1.5 mm
02:03 PM 37.9°F3.3°C 32.6°F0.3°C 81% 27.4 mph WNW44.1 kmh WNW 30.0 mph48.3 kmh 29.47 in998.0 mb 0.00 in0.0 mm 0.00 in0.0 mm 0.06 in1.5 mm
02:04 PM 38.0°F3.3°C 32.4°F0.2°C 80% 24.4 mph WNW39.3 kmh WNW 30.0 mph48.3 kmh 29.47 in998.0 mb 0.00 in0.0 mm 0.00 in0.0 mm 0.06 in1.5 mm
02:05 PM 38.0°F3.3°C 32.4°F0.2°C 80% 23.5 mph WNW37.8 kmh WNW 28.0 mph45.1 kmh 29.47 in998.0 mb 0.00 in0.0 mm 0.00 in0.0 mm 0.06 in1.5 mm
02:06 PM 38.0°F3.3°C 32.4°F0.2°C 80% 20.2 mph W32.5 kmh W 28.0 mph45.1 kmh 29.47 in998.0 mb 0.00 in0.0 mm 0.00 in0.0 mm 0.06 in1.5 mm
02:07 PM 38.1°F3.4°C 32.5°F0.3°C 80% 19.5 mph W31.4 kmh W 24.0 mph38.6 kmh 29.47 in998.0 mb 0.00 in0.0 mm 0.00 in0.0 mm 0.06 in1.5 mm
02:08 PM 37.9°F3.3°C 32.3°F0.2°C 80% 20.4 mph W32.8 kmh W 24.0 mph38.6 kmh 29.47 in998.0 mb 0.00 in0.0 mm 0.00 in0.0 mm 0.06 in1.5 mm
02:09 PM 38.0°F3.3°C 32.4°F0.2°C 80% 21.7 mph W34.9 kmh W 29.0 mph46.7 kmh 29.47 in998.0 mb 0.00 in0.0 mm 0.00 in0.0 mm 0.06 in1.5 mm
02:10 PM 38.2°F3.4°C 32.6°F0.3°C 80% 22.3 mph W35.9 kmh W 29.0 mph46.7 kmh 29.47 in998.0 mb 0.00 in0.0 mm 0.00 in0.0 mm 0.06 in1.5 mm
02:11 PM 38.1°F3.4°C 32.5°F0.3°C 80% 21.1 mph W34.0 kmh W 28.0 mph45.1 kmh 29.47 in998.0 mb 0.00 in0.0 mm 0.00 in0.0 mm 0.06 in1.5 mm
02:12 PM 38.1°F3.4°C 32.5°F0.3°C 80% 21.9 mph W35.2 kmh W 26.0 mph41.8 kmh 29.47 in998.0 mb 0.00 in0.0 mm 0.00 in0.0 mm 0.06 in1.5 mm
02:13 PM 38.2°F3.4°C 32.6°F0.3°C 80% 21.5 mph W34.6 kmh W 26.0 mph41.8 kmh 29.47 in998.0 mb 0.00 in0.0 mm 0.00 in0.0 mm 0.06 in1.5 mm
02:14 PM 38.2°F3.4°C 32.6°F0.3°C 80% 20.7 mph W33.3 kmh W 25.0 mph40.2 kmh 29.47 in998.0 mb 0.00 in0.0 mm 0.00 in0.0 mm 0.06 in1.5 mm
02:15 PM 38.3°F3.5°C 32.7°F0.4°C 80% 22.7 mph W36.5 kmh W 29.0 mph46.7 kmh 29.47 in998.0 mb 0.00 in0.0 mm 0.00 in0.0 mm 0.06 in1.5 mm
02:16 PM 38.4°F3.6°C 32.5°F0.3°C 79% 24.8 mph W39.9 kmh W 29.0 mph46.7 kmh 29.47 in998.0 mb 0.00 in0.0 mm 0.00 in0.0 mm 0.06 in1.5 mm
02:17 PM 38.3°F3.5°C 32.4°F0.2°C 79% 20.9 mph W33.6 kmh W 28.0 mph45.1 kmh 29.47 in998.0 mb 0.00 in0.0 mm 0.00 in0.0 mm 0.06 in1.5 mm
02:18 PM 38.4°F3.6°C 32.5°F0.3°C 79% 22.2 mph W35.7 kmh W 25.0 mph40.2 kmh 29.47 in998.0 mb 0.00 in0.0 mm 0.00 in0.0 mm 0.06 in1.5 mm
02:19 PM 38.3°F3.5°C 32.4°F0.2°C 79% 25.8 mph W41.5 kmh W 32.0 mph51.5 kmh 29.47 in998.0 mb 0.00 in0.0 mm 0.00 in0.0 mm 0.06 in1.5 mm
02:20 PM 38.5°F3.6°C 32.6°F0.3°C 79% 28.7 mph W46.2 kmh W 34.0 mph54.7 kmh 29.47 in998.0 mb 0.00 in0.0 mm 0.00 in0.0 mm 0.06 in1.5 mm
02:21 PM 38.4°F3.6°C 32.5°F0.3°C 79% 24.8 mph W39.9 kmh W 34.0 mph54.7 kmh 29.47 in998.0 mb 0.00 in0.0 mm 0.00 in0.0 mm 0.06 in1.5 mm
02:22 PM 38.4°F3.6°C 32.5°F0.3°C 79% 28.8 mph W46.3 kmh W 33.0 mph53.1 kmh 29.48 in998.3 mb 0.00 in0.0 mm 0.00 in0.0 mm 0.06 in1.5 mm
02:23 PM 38.3°F3.5°C 32.7°F0.4°C 80% 30.0 mph W48.3 kmh W 33.0 mph53.1 kmh 29.48 in998.3 mb 0.00 in0.0 mm 0.00 in0.0 mm 0.06 in1.5 mm
02:24 PM 38.0°F3.3°C 32.4°F0.2°C 80% 27.8 mph WNW44.7 kmh WNW 33.0 mph53.1 kmh 29.48 in998.3 mb 0.00 in0.0 mm 0.00 in0.0 mm 0.06 in1.5 mm
02:25 PM 37.6°F3.1°C 32.3°F0.2°C 81% 31.7 mph WNW51.0 kmh WNW 42.0 mph67.6 kmh 29.48 in998.3 mb 0.00 in0.0 mm 0.00 in0.0 mm 0.06 in1.5 mm
02:26 PM 36.8°F2.7°C 31.8°F-0.1°C 82% 31.0 mph WNW49.9 kmh WNW 42.0 mph67.6 kmh 29.48 in998.3 mb 0.00 in0.0 mm 0.00 in0.0 mm 0.06 in1.5 mm
02:27 PM 36.2°F2.3°C 32.1°F0.1°C 85% 32.5 mph W52.3 kmh W 38.0 mph61.2 kmh 29.49 in998.6 mb 0.00 in0.0 mm 0.00 in0.0 mm 0.06 in1.5 mm
02:28 PM 35.8°F2.1°C 31.7°F-0.2°C 85% 33.1 mph WNW53.3 kmh WNW 38.0 mph61.2 kmh 29.49 in998.6 mb 0.00 in0.0 mm 0.00 in0.0 mm 0.06 in1.5 mm
02:29 PM 35.5°F1.9°C 31.7°F-0.2°C 86% 28.1 mph W45.2 kmh W 38.0 mph61.2 kmh 29.49 in998.6 mb 0.00 in0.0 mm 0.00 in0.0 mm 0.06 in1.5 mm
02:30 PM 35.4°F1.9°C 31.6°F-0.2°C 86% 26.4 mph W42.5 kmh W 33.0 mph53.1 kmh 29.48 in998.3 mb 0.00 in0.0 mm 0.00 in0.0 mm 0.06 in1.5 mm
02:31 PM 35.3°F1.8°C 31.5°F-0.3°C 86% 26.8 mph W43.1 kmh W 33.0 mph53.1 kmh 29.48 in998.3 mb 0.00 in0.0 mm 0.00 in0.0 mm 0.06 in1.5 mm
02:32 PM 35.5°F1.9°C 31.7°F-0.2°C 86% 30.5 mph W49.1 kmh W 35.0 mph56.3 kmh 29.48 in998.3 mb 0.00 in0.0 mm 0.00 in0.0 mm 0.06 in1.5 mm
02:33 PM 35.5°F1.9°C 31.4°F-0.3°C 85% 28.5 mph W45.9 kmh W 35.0 mph56.3 kmh 29.48 in998.3 mb 0.00 in0.0 mm 0.00 in0.0 mm 0.06 in1.5 mm
02:34 PM 35.7°F2.1°C 31.1°F-0.5°C 83% 27.8 mph W44.7 kmh W 33.0 mph53.1 kmh 29.48 in998.3 mb 0.01 in0.3 mm 0.60 in15.2 mm 0.06 in1.5 mm
02:35 PM 36.1°F2.3°C 31.1°F-0.5°C 82% 27.5 mph W44.3 kmh W 33.0 mph53.1 kmh 29.48 in998.3 mb 0.01 in0.3 mm 0.00 in0.0 mm 0.06 in1.5 mm
02:36 PM 36.8°F2.7°C 30.9°F-0.6°C 79% 28.1 mph W45.2 kmh W 31.0 mph49.9 kmh 29.48 in998.3 mb 0.01 in0.3 mm 0.00 in0.0 mm 0.06 in1.5 mm
02:37 PM 37.2°F2.9°C 30.7°F-0.7°C 77% 26.5 mph W42.6 kmh W 31.0 mph49.9 kmh 29.48 in998.3 mb 0.01 in0.3 mm 0.00 in0.0 mm 0.06 in1.5 mm
02:38 PM 37.4°F3.0°C 30.5°F-0.8°C 76% 24.4 mph W39.3 kmh W 31.0 mph49.9 kmh 29.48 in998.3 mb 0.01 in0.3 mm 0.00 in0.0 mm 0.06 in1.5 mm
02:39 PM 37.4°F3.0°C 30.9°F-0.6°C 77% 19.8 mph W31.9 kmh W 27.0 mph43.5 kmh 29.48 in998.3 mb 0.01 in0.3 mm 0.00 in0.0 mm 0.06 in1.5 mm
02:40 PM 37.3°F2.9°C 31.1°F-0.5°C 78% 19.3 mph W31.1 kmh W 24.0 mph38.6 kmh 29.48 in998.3 mb 0.01 in0.3 mm 0.00 in0.0 mm 0.06 in1.5 mm
02:41 PM 37.3°F2.9°C 31.1°F-0.5°C 78% 21.9 mph W35.2 kmh W 25.0 mph40.2 kmh 29.48 in998.3 mb 0.01 in0.3 mm 0.00 in0.0 mm 0.06 in1.5 mm
02:42 PM 37.3°F2.9°C 31.4°F-0.3°C 79% 22.0 mph W35.4 kmh W 29.0 mph46.7 kmh 29.48 in998.3 mb 0.01 in0.3 mm 0.00 in0.0 mm 0.06 in1.5 mm
02:43 PM 37.3°F2.9°C 31.4°F-0.3°C 79% 21.1 mph W34.0 kmh W 29.0 mph46.7 kmh 29.48 in998.3 mb 0.01 in0.3 mm 0.00 in0.0 mm 0.06 in1.5 mm
02:44 PM 37.4°F3.0°C 31.5°F-0.3°C 79% 21.5 mph W34.6 kmh W 26.0 mph41.8 kmh 29.48 in998.3 mb 0.01 in0.3 mm 0.00 in0.0 mm 0.06 in1.5 mm
02:45 PM 37.5°F3.1°C 31.6°F-0.2°C 79% 19.9 mph W32.0 kmh W 26.0 mph41.8 kmh 29.48 in998.3 mb 0.01 in0.3 mm 0.00 in0.0 mm 0.06 in1.5 mm
02:46 PM 37.5°F3.1°C 31.9°F-0.1°C 80% 17.6 mph W28.3 kmh W 25.0 mph40.2 kmh 29.49 in998.6 mb 0.01 in0.3 mm 0.00 in0.0 mm 0.06 in1.5 mm
02:47 PM 37.6°F3.1°C 32.0°F0.0°C 80% 20.9 mph W33.6 kmh W 24.0 mph38.6 kmh 29.49 in998.6 mb 0.01 in0.3 mm 0.00 in0.0 mm 0.06 in1.5 mm
02:48 PM 37.7°F3.2°C 32.1°F0.1°C 80% 20.3 mph W32.7 kmh W 24.0 mph38.6 kmh 29.49 in998.6 mb 0.01 in0.3 mm 0.00 in0.0 mm 0.06 in1.5 mm
02:49 PM 37.8°F3.2°C 32.2°F0.1°C 80% 19.8 mph W31.9 kmh W 23.0 mph37.0 kmh 29.49 in998.6 mb 0.01 in0.3 mm 0.00 in0.0 mm 0.06 in1.5 mm
02:50 PM 38.0°F3.3°C 32.4°F0.2°C 80% 20.3 mph W32.7 kmh W 25.0 mph40.2 kmh 29.49 in998.6 mb 0.01 in0.3 mm 0.00 in0.0 mm 0.06 in1.5 mm
02:51 PM 38.1°F3.4°C 32.5°F0.3°C 80% 16.6 mph W26.7 kmh W 25.0 mph40.2 kmh 29.49 in998.6 mb 0.01 in0.3 mm 0.00 in0.0 mm 0.06 in1.5 mm
02:52 PM 38.2°F3.4°C 32.6°F0.3°C 80% 16.7 mph W26.9 kmh W 18.0 mph29.0 kmh 29.49 in998.6 mb 0.01 in0.3 mm 0.00 in0.0 mm 0.06 in1.5 mm
02:53 PM 38.1°F3.4°C 32.5°F0.3°C 80% 15.5 mph W24.9 kmh W 19.0 mph30.6 kmh 29.49 in998.6 mb 0.01 in0.3 mm 0.00 in0.0 mm 0.06 in1.5 mm
02:54 PM 38.2°F3.4°C 32.6°F0.3°C 80% 17.7 mph W28.5 kmh W 19.0 mph30.6 kmh 29.49 in998.6 mb 0.01 in0.3 mm 0.00 in0.0 mm 0.06 in1.5 mm
02:55 PM 38.2°F3.4°C 32.6°F0.3°C 80% 17.8 mph W28.6 kmh W 20.0 mph32.2 kmh 29.49 in998.6 mb 0.01 in0.3 mm 0.00 in0.0 mm 0.06 in1.5 mm
02:56 PM 38.3°F3.5°C 32.7°F0.4°C 80% 18.3 mph W29.5 kmh W 23.0 mph37.0 kmh 29.49 in998.6 mb 0.01 in0.3 mm 0.00 in0.0 mm 0.06 in1.5 mm
02:57 PM 38.4°F3.6°C 32.8°F0.4°C 80% 18.8 mph W30.3 kmh W 23.0 mph37.0 kmh 29.49 in998.6 mb 0.01 in0.3 mm 0.00 in0.0 mm 0.06 in1.5 mm
02:58 PM 38.5°F3.6°C 32.6°F0.3°C 79% 23.1 mph WNW37.2 kmh WNW 26.0 mph41.8 kmh 29.49 in998.6 mb 0.01 in0.3 mm 0.00 in0.0 mm 0.06 in1.5 mm
02:59 PM 38.6°F3.7°C 32.7°F0.4°C 79% 21.1 mph W34.0 kmh W 32.0 mph51.5 kmh 29.50 in999.0 mb 0.01 in0.3 mm 0.00 in0.0 mm 0.06 in1.5 mm
03:00 PM 38.6°F3.7°C 32.7°F0.4°C 79% 25.1 mph W40.4 kmh W 32.0 mph51.5 kmh 29.50 in999.0 mb 0.01 in0.3 mm 0.00 in0.0 mm 0.06 in1.5 mm
03:01 PM 38.5°F3.6°C 32.6°F0.3°C 79% 24.3 mph WNW39.1 kmh WNW 30.0 mph48.3 kmh 29.50 in999.0 mb 0.01 in0.3 mm 0.00 in0.0 mm 0.06 in1.5 mm
03:02 PM 38.3°F3.5°C 32.1°F0.1°C 78% 27.2 mph WNW43.8 kmh WNW 31.0 mph49.9 kmh 29.50 in999.0 mb 0.01 in0.3 mm 0.00 in0.0 mm 0.06 in1.5 mm
03:03 PM 38.1°F3.4°C 31.9°F-0.1°C 78% 25.8 mph WNW41.5 kmh WNW 31.0 mph49.9 kmh 29.50 in999.0 mb 0.01 in0.3 mm 0.00 in0.0 mm 0.06 in1.5 mm
03:04 PM 37.8°F3.2°C 31.2°F-0.4°C 77% 27.5 mph NW44.3 kmh NW 31.0 mph49.9 kmh 29.50 in999.0 mb 0.01 in0.3 mm 0.00 in0.0 mm 0.06 in1.5 mm
03:05 PM 37.7°F3.2°C 31.5°F-0.3°C 78% 24.2 mph WNW38.9 kmh WNW 31.0 mph49.9 kmh 29.50 in999.0 mb 0.01 in0.3 mm 0.00 in0.0 mm 0.06 in1.5 mm
03:06 PM 37.5°F3.1°C 31.3°F-0.4°C 78% 24.6 mph WNW39.6 kmh WNW 27.0 mph43.5 kmh 29.50 in999.0 mb 0.01 in0.3 mm 0.00 in0.0 mm 0.06 in1.5 mm
03:07 PM 37.6°F3.1°C 31.4°F-0.3°C 78% 20.7 mph WNW33.3 kmh WNW 27.0 mph43.5 kmh 29.50 in999.0 mb 0.01 in0.3 mm 0.00 in0.0 mm 0.06 in1.5 mm
03:08 PM 37.6°F3.1°C 31.7°F-0.2°C 79% 21.4 mph WNW34.4 kmh WNW 25.0 mph40.2 kmh 29.50 in999.0 mb 0.01 in0.3 mm 0.00 in0.0 mm 0.06 in1.5 mm
03:09 PM 37.6°F3.1°C 31.7°F-0.2°C 79% 18.4 mph WNW29.6 kmh WNW 23.0 mph37.0 kmh 29.50 in999.0 mb 0.01 in0.3 mm 0.00 in0.0 mm 0.06 in1.5 mm
03:10 PM 37.4°F3.0°C 31.5°F-0.3°C 79% 16.1 mph W25.9 kmh W 21.0 mph33.8 kmh 29.50 in999.0 mb 0.01 in0.3 mm 0.00 in0.0 mm 0.06 in1.5 mm
03:11 PM 37.3°F2.9°C 31.7°F-0.2°C 80% 18.7 mph WNW30.1 kmh WNW 21.0 mph33.8 kmh 29.50 in999.0 mb 0.01 in0.3 mm 0.00 in0.0 mm 0.06 in1.5 mm
03:12 PM 37.3°F2.9°C 31.7°F-0.2°C 80% 17.7 mph WNW28.5 kmh WNW 21.0 mph33.8 kmh 29.50 in999.0 mb 0.01 in0.3 mm 0.00 in0.0 mm 0.06 in1.5 mm
03:13 PM 37.3°F2.9°C 31.7°F-0.2°C 80% 17.5 mph WNW28.2 kmh WNW 20.0 mph32.2 kmh 29.50 in999.0 mb 0.01 in0.3 mm 0.00 in0.0 mm 0.06 in1.5 mm
03:14 PM 37.4°F3.0°C 31.8°F-0.1°C 80% 16.2 mph W26.1 kmh W 20.0 mph32.2 kmh 29.50 in999.0 mb 0.01 in0.3 mm 0.00 in0.0 mm 0.06 in1.5 mm
03:15 PM 37.5°F3.1°C 32.2°F0.1°C 81% 16.8 mph WNW27.0 kmh WNW 20.0 mph32.2 kmh 29.50 in999.0 mb 0.01 in0.3 mm 0.00 in0.0 mm 0.06 in1.5 mm
03:16 PM 37.5°F3.1°C 32.2°F0.1°C 81% 15.7 mph W25.3 kmh W 19.0 mph30.6 kmh 29.50 in999.0 mb 0.01 in0.3 mm 0.00 in0.0 mm 0.06 in1.5 mm
03:17 PM 37.5°F3.1°C 32.2°F0.1°C 81% 16.6 mph W26.7 kmh W 22.0 mph35.4 kmh 29.50 in999.0 mb 0.01 in0.3 mm 0.00 in0.0 mm 0.06 in1.5 mm
03:18 PM 37.5°F3.1°C 32.2°F0.1°C 81% 14.2 mph W22.9 kmh W 22.0 mph35.4 kmh 29.50 in999.0 mb 0.01 in0.3 mm 0.00 in0.0 mm 0.06 in1.5 mm
03:19 PM 37.5°F3.1°C 32.2°F0.1°C 81% 14.1 mph W22.7 kmh W 16.0 mph25.7 kmh 29.50 in999.0 mb 0.01 in0.3 mm 0.00 in0.0 mm 0.06 in1.5 mm
03:20 PM 37.5°F3.1°C 32.2°F0.1°C 81% 13.1 mph W21.1 kmh W 15.0 mph24.1 kmh 29.51 in999.3 mb 0.01 in0.3 mm 0.00 in0.0 mm 0.06 in1.5 mm
03:21 PM 37.5°F3.1°C 32.2°F0.1°C 81% 15.3 mph W24.6 kmh W 19.0 mph30.6 kmh 29.50 in999.0 mb 0.01 in0.3 mm 0.00 in0.0 mm 0.06 in1.5 mm
03:22 PM 37.8°F3.2°C 32.5°F0.3°C 81% 16.3 mph W26.2 kmh W 19.0 mph30.6 kmh 29.51 in999.3 mb 0.01 in0.3 mm 0.00 in0.0 mm 0.06 in1.5 mm
03:23 PM 37.9°F3.3°C 32.6°F0.3°C 81% 13.9 mph W22.4 kmh W 19.0 mph30.6 kmh 29.50 in999.0 mb 0.01 in0.3 mm 0.00 in0.0 mm 0.06 in1.5 mm
03:24 PM 38.0°F3.3°C 32.7°F0.4°C 81% 14.8 mph W23.8 kmh W 16.0 mph25.7 kmh 29.50 in999.0 mb 0.01 in0.3 mm 0.00 in0.0 mm 0.06 in1.5 mm
03:25 PM 38.2°F3.4°C 32.6°F0.3°C 80% 17.0 mph W27.4 kmh W 19.0 mph30.6 kmh 29.50 in999.0 mb 0.01 in0.3 mm 0.00 in0.0 mm 0.06 in1.5 mm
03:26 PM 38.4°F3.6°C 32.8°F0.4°C 80% 15.4 mph W24.8 kmh W 19.0 mph30.6 kmh 29.50 in999.0 mb 0.01 in0.3 mm 0.00 in0.0 mm 0.06 in1.5 mm
03:27 PM 38.5°F3.6°C 32.9°F0.5°C 80% 15.1 mph W24.3 kmh W 17.0 mph27.4 kmh 29.51 in999.3 mb 0.01 in0.3 mm 0.00 in0.0 mm 0.06 in1.5 mm
03:28 PM 38.6°F3.7°C 33.0°F0.6°C 80% 15.7 mph W25.3 kmh W 18.0 mph29.0 kmh 29.51 in999.3 mb 0.01 in0.3 mm 0.00 in0.0 mm 0.06 in1.5 mm
03:29 PM 38.6°F3.7°C 33.0°F0.6°C 80% 15.6 mph W25.1 kmh W 19.0 mph30.6 kmh 29.51 in999.3 mb 0.01 in0.3 mm 0.00 in0.0 mm 0.06 in1.5 mm
03:30 PM 38.8°F3.8°C 33.2°F0.7°C 80% 15.5 mph W24.9 kmh W 19.0 mph30.6 kmh 29.51 in999.3 mb 0.01 in0.3 mm 0.00 in0.0 mm 0.06 in1.5 mm
03:31 PM 38.8°F3.8°C 32.9°F0.5°C 79% 15.8 mph W25.4 kmh W 19.0 mph30.6 kmh 29.51 in999.3 mb 0.01 in0.3 mm 0.00 in0.0 mm 0.06 in1.5 mm
03:32 PM 38.8°F3.8°C 32.9°F0.5°C 79% 16.5 mph WSW26.6 kmh WSW 21.0 mph33.8 kmh 29.51 in999.3 mb 0.01 in0.3 mm 0.00 in0.0 mm 0.06 in1.5 mm
03:33 PM 38.8°F3.8°C 32.9°F0.5°C 79% 18.1 mph W29.1 kmh W 21.0 mph33.8 kmh 29.51 in999.3 mb 0.01 in0.3 mm 0.00 in0.0 mm 0.06 in1.5 mm
03:34 PM 38.8°F3.8°C 32.9°F0.5°C 79% 18.2 mph W29.3 kmh W 22.0 mph35.4 kmh 29.51 in999.3 mb 0.00 in0.0 mm 0.00 in0.0 mm 0.06 in1.5 mm
03:35 PM 38.8°F3.8°C 32.9°F0.5°C 79% 18.4 mph WSW29.6 kmh WSW 22.0 mph35.4 kmh 29.51 in999.3 mb 0.00 in0.0 mm 0.00 in0.0 mm 0.06 in1.5 mm
03:36 PM 38.8°F3.8°C 32.9°F0.5°C 79% 17.8 mph W28.6 kmh W 21.0 mph33.8 kmh 29.51 in999.3 mb 0.00 in0.0 mm 0.00 in0.0 mm 0.06 in1.5 mm
03:37 PM 38.9°F3.8°C 33.0°F0.6°C 79% 18.4 mph W29.6 kmh W 22.0 mph35.4 kmh 29.51 in999.3 mb 0.00 in0.0 mm 0.00 in0.0 mm 0.06 in1.5 mm
03:38 PM 38.9°F3.8°C 33.0°F0.6°C 79% 18.2 mph W29.3 kmh W 22.0 mph35.4 kmh 29.51 in999.3 mb 0.00 in0.0 mm 0.00 in0.0 mm 0.06 in1.5 mm
03:39 PM 39.0°F3.9°C 33.0°F0.6°C 79% 17.3 mph W27.8 kmh W 22.0 mph35.4 kmh 29.51 in999.3 mb 0.00 in0.0 mm 0.00 in0.0 mm 0.06 in1.5 mm
03:40 PM 39.0°F3.9°C 32.7°F0.4°C 78% 16.2 mph W26.1 kmh W 22.0 mph35.4 kmh 29.51 in999.3 mb 0.00 in0.0 mm 0.00 in0.0 mm 0.06 in1.5 mm
03:41 PM 39.1°F3.9°C 32.8°F0.4°C 78% 17.3 mph W27.8 kmh W 20.0 mph32.2 kmh 29.52 in999.7 mb 0.00 in0.0 mm 0.00 in0.0 mm 0.06 in1.5 mm
03:42 PM 39.1°F3.9°C 32.8°F0.4°C 78% 14.9 mph W24.0 kmh W 20.0 mph32.2 kmh 29.52 in999.7 mb 0.00 in0.0 mm 0.00 in0.0 mm 0.06 in1.5 mm
03:43 PM 39.0°F3.9°C 33.0°F0.6°C 79% 16.5 mph WNW26.6 kmh WNW 18.0 mph29.0 kmh 29.52 in999.7 mb 0.00 in0.0 mm 0.00 in0.0 mm 0.06 in1.5 mm
03:44 PM 39.0°F3.9°C 33.0°F0.6°C 79% 14.7 mph WNW23.7 kmh WNW 18.0 mph29.0 kmh 29.52 in999.7 mb 0.00 in0.0 mm 0.00 in0.0 mm 0.06 in1.5 mm
03:45 PM 39.0°F3.9°C 33.0°F0.6°C 79% 13.6 mph WNW21.9 kmh WNW 17.0 mph27.4 kmh 29.52 in999.7 mb 0.00 in0.0 mm 0.00 in0.0 mm 0.06 in1.5 mm
03:46 PM 39.0°F3.9°C 32.7°F0.4°C 78% 13.3 mph NW21.4 kmh NW 18.0 mph29.0 kmh 29.52 in999.7 mb 0.00 in0.0 mm 0.00 in0.0 mm 0.06 in1.5 mm
03:47 PM 38.9°F3.8°C 31.3°F-0.4°C 74% 17.3 mph NW27.8 kmh NW 19.0 mph30.6 kmh 29.52 in999.7 mb 0.00 in0.0 mm 0.00 in0.0 mm 0.06 in1.5 mm
03:48 PM 39.0°F3.9°C 31.1°F-0.5°C 73% 11.8 mph WNW19.0 kmh WNW 19.0 mph30.6 kmh 29.52 in999.7 mb 0.00 in0.0 mm 0.00 in0.0 mm 0.06 in1.5 mm
03:49 PM 39.1°F3.9°C 32.8°F0.4°C 78% 12.6 mph W20.3 kmh W 18.0 mph29.0 kmh 29.52 in999.7 mb 0.00 in0.0 mm 0.00 in0.0 mm 0.06 in1.5 mm
03:50 PM 39.1°F3.9°C 32.8°F0.4°C 78% 16.8 mph W27.0 kmh W 19.0 mph30.6 kmh 29.52 in999.7 mb 0.00 in0.0 mm 0.00 in0.0 mm 0.06 in1.5 mm
03:51 PM 39.2°F4.0°C 32.6°F0.3°C 77% 16.9 mph W27.2 kmh W 24.0 mph38.6 kmh 29.52 in999.7 mb 0.00 in0.0 mm 0.00 in0.0 mm 0.06 in1.5 mm
03:52 PM 39.4°F4.1°C 32.8°F0.4°C 77% 18.5 mph WNW29.8 kmh WNW 24.0 mph38.6 kmh 29.52 in999.7 mb 0.00 in0.0 mm 0.00 in0.0 mm 0.06 in1.5 mm
03:53 PM 39.4°F4.1°C 32.8°F0.4°C 77% 17.5 mph W28.2 kmh W 23.0 mph37.0 kmh 29.52 in999.7 mb 0.00 in0.0 mm 0.00 in0.0 mm 0.06 in1.5 mm
03:54 PM 39.4°F4.1°C 32.5°F0.3°C 76% 16.5 mph W26.6 kmh W 20.0 mph32.2 kmh 29.52 in999.7 mb 0.00 in0.0 mm 0.00 in0.0 mm 0.06 in1.5 mm
03:55 PM 39.3°F4.1°C 32.4°F0.2°C 76% 18.2 mph W29.3 kmh W 23.0 mph37.0 kmh 29.52 in999.7 mb 0.00 in0.0 mm 0.00 in0.0 mm 0.06 in1.5 mm
03:56 PM 39.3°F4.1°C 32.1°F0.1°C 75% 18.4 mph W29.6 kmh W 23.0 mph37.0 kmh 29.52 in999.7 mb 0.00 in0.0 mm 0.00 in0.0 mm 0.06 in1.5 mm
03:57 PM 39.3°F4.1°C 32.1°F0.1°C 75% 19.5 mph W31.4 kmh W 24.0 mph38.6 kmh 29.52 in999.7 mb 0.00 in0.0 mm 0.00 in0.0 mm 0.06 in1.5 mm
03:58 PM 39.3°F4.1°C 32.1°F0.1°C 75% 18.4 mph W29.6 kmh W 24.0 mph38.6 kmh 29.52 in999.7 mb 0.00 in0.0 mm 0.00 in0.0 mm 0.06 in1.5 mm
03:59 PM 39.2°F4.0°C 32.0°F0.0°C 75% 17.3 mph W27.8 kmh W 22.0 mph35.4 kmh 29.52 in999.7 mb 0.00 in0.0 mm 0.00 in0.0 mm 0.06 in1.5 mm
04:00 PM 39.1°F3.9°C 31.9°F-0.1°C 75% 16.7 mph W26.9 kmh W 19.0 mph30.6 kmh 29.52 in999.7 mb 0.00 in0.0 mm 0.00 in0.0 mm 0.06 in1.5 mm
04:01 PM 39.0°F3.9°C 32.1°F0.1°C 76% 18.5 mph W29.8 kmh W 21.0 mph33.8 kmh 29.52 in999.7 mb 0.00 in0.0 mm 0.00 in0.0 mm 0.06 in1.5 mm
04:02 PM 38.9°F3.8°C 31.7°F-0.2°C 75% 16.9 mph W27.2 kmh W 21.0 mph33.8 kmh 29.52 in999.7 mb 0.00 in0.0 mm 0.00 in0.0 mm 0.06 in1.5 mm
04:03 PM 38.8°F3.8°C 31.6°F-0.2°C 75% 16.0 mph W25.7 kmh W 20.0 mph32.2 kmh 29.52 in999.7 mb 0.00 in0.0 mm 0.00 in0.0 mm 0.06 in1.5 mm
04:04 PM 38.8°F3.8°C 31.6°F-0.2°C 75% 17.3 mph W27.8 kmh W 20.0 mph32.2 kmh 29.52 in999.7 mb 0.00 in0.0 mm 0.00 in0.0 mm 0.06 in1.5 mm
04:05 PM 38.7°F3.7°C 31.5°F-0.3°C 75% 17.1 mph W27.5 kmh W 20.0 mph32.2 kmh 29.52 in999.7 mb 0.00 in0.0 mm 0.00 in0.0 mm 0.06 in1.5 mm
04:06 PM 38.7°F3.7°C 31.5°F-0.3°C 75% 18.0 mph W29.0 kmh W 22.0 mph35.4 kmh 29.52 in999.7 mb 0.00 in0.0 mm 0.00 in0.0 mm 0.06 in1.5 mm
04:07 PM 38.6°F3.7°C 31.4°F-0.3°C 75% 16.2 mph W26.1 kmh W 22.0 mph35.4 kmh 29.52 in999.7 mb 0.00 in0.0 mm 0.00 in0.0 mm 0.06 in1.5 mm
04:08 PM 38.6°F3.7°C 31.4°F-0.3°C 75% 16.7 mph W26.9 kmh W 18.0 mph29.0 kmh 29.52 in999.7 mb 0.00 in0.0 mm 0.00 in0.0 mm 0.06 in1.5 mm
04:09 PM 38.5°F3.6°C 31.6°F-0.2°C 76% 16.7 mph W26.9 kmh W 19.0 mph30.6 kmh 29.52 in999.7 mb 0.00 in0.0 mm 0.00 in0.0 mm 0.06 in1.5 mm
04:10 PM 38.4°F3.6°C 31.5°F-0.3°C 76% 17.6 mph W28.3 kmh W 20.0 mph32.2 kmh 29.53 in1000.0 mb 0.00 in0.0 mm 0.00 in0.0 mm 0.06 in1.5 mm
04:11 PM 38.3°F3.5°C 31.4°F-0.3°C 76% 16.9 mph W27.2 kmh W 20.0 mph32.2 kmh 29.53 in1000.0 mb 0.00 in0.0 mm 0.00 in0.0 mm 0.06 in1.5 mm
04:12 PM 38.3°F3.5°C 31.4°F-0.3°C 76% 17.2 mph W27.7 kmh W 20.0 mph32.2 kmh 29.53 in1000.0 mb 0.00 in0.0 mm 0.00 in0.0 mm 0.06 in1.5 mm
04:13 PM 38.3°F3.5°C 31.4°F-0.3°C 76% 17.3 mph W27.8 kmh W 20.0 mph32.2 kmh 29.53 in1000.0 mb 0.00 in0.0 mm 0.00 in0.0 mm 0.06 in1.5 mm
04:14 PM 38.3°F3.5°C 31.4°F-0.3°C 76% 19.0 mph WSW30.6 kmh WSW 23.0 mph37.0 kmh 29.53 in1000.0 mb 0.00 in0.0 mm 0.00 in0.0 mm 0.06 in1.5 mm
04:15 PM 38.2°F3.4°C 31.3°F-0.4°C 76% 18.8 mph WSW30.3 kmh WSW 23.0 mph37.0 kmh 29.53 in1000.0 mb 0.00 in0.0 mm 0.00 in0.0 mm 0.06 in1.5 mm
04:16 PM 38.3°F3.5°C 31.4°F-0.3°C 76% 21.6 mph WSW34.8 kmh WSW 25.0 mph40.2 kmh 29.53 in1000.0 mb 0.00 in0.0 mm 0.00 in0.0 mm 0.06 in1.5 mm
04:17 PM 38.3°F3.5°C 31.4°F-0.3°C 76% 19.4 mph WSW31.2 kmh WSW 25.0 mph40.2 kmh 29.53 in1000.0 mb 0.00 in0.0 mm 0.00 in0.0 mm 0.06 in1.5 mm
04:18 PM 38.2°F3.4°C 31.3°F-0.4°C 76% 20.5 mph W33.0 kmh W 25.0 mph40.2 kmh 29.53 in1000.0 mb 0.00 in0.0 mm 0.00 in0.0 mm 0.06 in1.5 mm
04:19 PM 38.2°F3.4°C 31.3°F-0.4°C 76% 19.9 mph WSW32.0 kmh WSW 25.0 mph40.2 kmh 29.53 in1000.0 mb 0.00 in0.0 mm 0.00 in0.0 mm 0.06 in1.5 mm
04:20 PM 38.0°F3.3°C 31.4°F-0.3°C 77% 21.5 mph W34.6 kmh W 25.0 mph40.2 kmh 29.53 in1000.0 mb 0.00 in0.0 mm 0.00 in0.0 mm 0.06 in1.5 mm
04:21 PM 37.9°F3.3°C 31.3°F-0.4°C 77% 20.4 mph WSW32.8 kmh WSW 28.0 mph45.1 kmh 29.54 in1000.3 mb 0.00 in0.0 mm 0.00 in0.0 mm 0.06 in1.5 mm
04:22 PM 37.8°F3.2°C 31.2°F-0.4°C 77% 23.3 mph W37.5 kmh W 28.0 mph45.1 kmh 29.53 in1000.0 mb 0.00 in0.0 mm 0.00 in0.0 mm 0.06 in1.5 mm
04:23 PM 37.7°F3.2°C 31.2°F-0.4°C 77% 21.6 mph W34.8 kmh W 27.0 mph43.5 kmh 29.54 in1000.3 mb 0.00 in0.0 mm 0.00 in0.0 mm 0.06 in1.5 mm
04:24 PM 37.6°F3.1°C 31.1°F-0.5°C 77% 21.0 mph W33.8 kmh W 25.0 mph40.2 kmh 29.54 in1000.3 mb 0.00 in0.0 mm 0.00 in0.0 mm 0.06 in1.5 mm
04:25 PM 37.6°F3.1°C 31.1°F-0.5°C 77% 20.6 mph W33.2 kmh W 24.0 mph38.6 kmh 29.53 in1000.0 mb 0.00 in0.0 mm 0.00 in0.0 mm 0.06 in1.5 mm
04:26 PM 37.7°F3.2°C 30.8°F-0.7°C 76% 22.2 mph W35.7 kmh W 25.0 mph40.2 kmh 29.54 in1000.3 mb 0.00 in0.0 mm 0.00 in0.0 mm 0.06 in1.5 mm
04:27 PM 37.7°F3.2°C 31.2°F-0.4°C 77% 19.8 mph W31.9 kmh W 25.0 mph40.2 kmh 29.54 in1000.3 mb 0.00 in0.0 mm 0.00 in0.0 mm 0.06 in1.5 mm
04:28 PM 37.5°F3.1°C 31.0°F-0.6°C 77% 19.4 mph W31.2 kmh W 24.0 mph38.6 kmh 29.54 in1000.3 mb 0.00 in0.0 mm 0.00 in0.0 mm 0.06 in1.5 mm
04:29 PM 37.5°F3.1°C 31.0°F-0.6°C 77% 22.9 mph W36.9 kmh W 27.0 mph43.5 kmh 29.54 in1000.3 mb 0.00 in0.0 mm 0.00 in0.0 mm 0.06 in1.5 mm
04:30 PM 37.4°F3.0°C 30.9°F-0.6°C 77% 20.9 mph W33.6 kmh W 27.0 mph43.5 kmh 29.54 in1000.3 mb 0.00 in0.0 mm 0.00 in0.0 mm 0.06 in1.5 mm
04:31 PM 37.4°F3.0°C 30.9°F-0.6°C 77% 20.9 mph W33.6 kmh W 26.0 mph41.8 kmh 29.54 in1000.3 mb 0.00 in0.0 mm 0.00 in0.0 mm 0.06 in1.5 mm
04:32 PM 37.3°F2.9°C 30.8°F-0.7°C 77% 19.8 mph W31.9 kmh W 26.0 mph41.8 kmh 29.54 in1000.3 mb 0.00 in0.0 mm 0.00 in0.0 mm 0.06 in1.5 mm
04:33 PM 37.3°F2.9°C 30.8°F-0.7°C 77% 21.3 mph W34.3 kmh W 24.0 mph38.6 kmh 29.54 in1000.3 mb 0.00 in0.0 mm 0.00 in0.0 mm 0.06 in1.5 mm
04:34 PM 37.4°F3.0°C 30.5°F-0.8°C 76% 18.5 mph W29.8 kmh W 24.0 mph38.6 kmh 29.54 in1000.3 mb 0.00 in0.0 mm 0.00 in0.0 mm 0.06 in1.5 mm
04:35 PM 37.3°F2.9°C 30.8°F-0.7°C 77% 17.0 mph W27.4 kmh W 23.0 mph37.0 kmh 29.54 in1000.3 mb 0.00 in0.0 mm 0.00 in0.0 mm 0.06 in1.5 mm
04:36 PM 37.2°F2.9°C 30.7°F-0.7°C 77% 17.7 mph W28.5 kmh W 20.0 mph32.2 kmh 29.54 in1000.3 mb 0.00 in0.0 mm 0.00 in0.0 mm 0.06 in1.5 mm
04:37 PM 37.1°F2.8°C 30.6°F-0.8°C 77% 17.8 mph W28.6 kmh W 22.0 mph35.4 kmh 29.54 in1000.3 mb 0.00 in0.0 mm 0.00 in0.0 mm 0.06 in1.5 mm
04:38 PM 37.1°F2.8°C 30.6°F-0.8°C 77% 16.5 mph W26.6 kmh W 22.0 mph35.4 kmh 29.55 in1000.7 mb 0.00 in0.0 mm 0.00 in0.0 mm 0.06 in1.5 mm
04:39 PM 37.0°F2.8°C 30.5°F-0.8°C 77% 17.8 mph W28.6 kmh W 19.0 mph30.6 kmh 29.55 in1000.7 mb 0.00 in0.0 mm 0.00 in0.0 mm 0.06 in1.5 mm
04:40 PM 37.0°F2.8°C 30.5°F-0.8°C 77% 17.4 mph W28.0 kmh W 22.0 mph35.4 kmh 29.55 in1000.7 mb 0.00 in0.0 mm 0.00 in0.0 mm 0.06 in1.5 mm
04:41 PM 37.0°F2.8°C 30.8°F-0.7°C 78% 18.7 mph W30.1 kmh W 22.0 mph35.4 kmh 29.55 in1000.7 mb 0.00 in0.0 mm 0.00 in0.0 mm 0.06 in1.5 mm
04:42 PM 37.0°F2.8°C 30.8°F-0.7°C 78% 17.9 mph W28.8 kmh W 22.0 mph35.4 kmh 29.55 in1000.7 mb 0.00 in0.0 mm 0.00 in0.0 mm 0.06 in1.5 mm
04:43 PM 36.9°F2.7°C 30.7°F-0.7°C 78% 17.1 mph W27.5 kmh W 22.0 mph35.4 kmh 29.55 in1000.7 mb 0.00 in0.0 mm 0.00 in0.0 mm 0.06 in1.5 mm
04:44 PM 37.0°F2.8°C 30.8°F-0.7°C 78% 16.9 mph W27.2 kmh W 20.0 mph32.2 kmh 29.55 in1000.7 mb 0.00 in0.0 mm 0.00 in0.0 mm 0.06 in1.5 mm
04:45 PM 36.9°F2.7°C 30.7°F-0.7°C 78% 16.9 mph W27.2 kmh W 19.0 mph30.6 kmh 29.55 in1000.7 mb 0.00 in0.0 mm 0.00 in0.0 mm 0.06 in1.5 mm
04:46 PM 36.9°F2.7°C 30.7°F-0.7°C 78% 19.1 mph W30.7 kmh W 23.0 mph37.0 kmh 29.55 in1000.7 mb 0.00 in0.0 mm 0.00 in0.0 mm 0.06 in1.5 mm
04:47 PM 37.0°F2.8°C 30.5°F-0.8°C 77% 19.0 mph W30.6 kmh W 23.0 mph37.0 kmh 29.55 in1000.7 mb 0.00 in0.0 mm 0.00 in0.0 mm 0.06 in1.5 mm
04:48 PM 37.0°F2.8°C 30.8°F-0.7°C 78% 17.1 mph W27.5 kmh W 22.0 mph35.4 kmh 29.55 in1000.7 mb 0.00 in0.0 mm 0.00 in0.0 mm 0.06 in1.5 mm
04:49 PM 37.0°F2.8°C 30.8°F-0.7°C 78% 17.5 mph W28.2 kmh W 22.0 mph35.4 kmh 29.55 in1000.7 mb 0.00 in0.0 mm 0.00 in0.0 mm 0.06 in1.5 mm
04:50 PM 37.0°F2.8°C 30.8°F-0.7°C 78% 17.8 mph W28.6 kmh W 22.0 mph35.4 kmh 29.55 in1000.7 mb 0.00 in0.0 mm 0.00 in0.0 mm 0.06 in1.5 mm
04:51 PM 37.0°F2.8°C 30.5°F-0.8°C 77% 18.9 mph W30.4 kmh W 23.0 mph37.0 kmh 29.55 in1000.7 mb 0.00 in0.0 mm 0.00 in0.0 mm 0.06 in1.5 mm
04:52 PM 37.0°F2.8°C 30.5°F-0.8°C 77% 16.8 mph W27.0 kmh W 23.0 mph37.0 kmh 29.55 in1000.7 mb 0.00 in0.0 mm 0.00 in0.0 mm 0.06 in1.5 mm
04:53 PM 37.0°F2.8°C 30.8°F-0.7°C 78% 17.6 mph W28.3 kmh W 20.0 mph32.2 kmh 29.55 in1000.7 mb 0.00 in0.0 mm 0.00 in0.0 mm 0.06 in1.5 mm
04:54 PM 37.0°F2.8°C 30.8°F-0.7°C 78% 17.1 mph W27.5 kmh W 21.0 mph33.8 kmh 29.55 in1000.7 mb 0.00 in0.0 mm 0.00 in0.0 mm 0.06 in1.5 mm
04:55 PM 37.0°F2.8°C 30.8°F-0.7°C 78% 17.0 mph W27.4 kmh W 21.0 mph33.8 kmh 29.55 in1000.7 mb 0.00 in0.0 mm 0.00 in0.0 mm 0.06 in1.5 mm
04:56 PM 37.0°F2.8°C 30.5°F-0.8°C 77% 17.7 mph W28.5 kmh W 19.0 mph30.6 kmh 29.56 in1001.0 mb 0.00 in0.0 mm 0.00 in0.0 mm 0.06 in1.5 mm
04:57 PM 37.0°F2.8°C 30.5°F-0.8°C 77% 16.3 mph W26.2 kmh W 19.0 mph30.6 kmh 29.55 in1000.7 mb 0.00 in0.0 mm 0.00 in0.0 mm 0.06 in1.5 mm
04:58 PM 37.1°F2.8°C 30.6°F-0.8°C 77% 17.9 mph W28.8 kmh W 21.0 mph33.8 kmh 29.55 in1000.7 mb 0.00 in0.0 mm 0.00 in0.0 mm 0.06 in1.5 mm
04:59 PM 37.1°F2.8°C 30.6°F-0.8°C 77% 17.1 mph W27.5 kmh W 21.0 mph33.8 kmh 29.56 in1001.0 mb 0.00 in0.0 mm 0.00 in0.0 mm 0.06 in1.5 mm
05:00 PM 37.1°F2.8°C 30.6°F-0.8°C 77% 18.1 mph W29.1 kmh W 22.0 mph35.4 kmh 29.56 in1001.0 mb 0.00 in0.0 mm 0.00 in0.0 mm 0.06 in1.5 mm
05:01 PM 37.1°F2.8°C 30.6°F-0.8°C 77% 17.3 mph WSW27.8 kmh WSW 22.0 mph35.4 kmh 29.56 in1001.0 mb 0.00 in0.0 mm 0.00 in0.0 mm 0.06 in1.5 mm
05:02 PM 37.2°F2.9°C 30.7°F-0.7°C 77% 19.9 mph W32.0 kmh W 23.0 mph37.0 kmh 29.56 in1001.0 mb 0.00 in0.0 mm 0.00 in0.0 mm 0.06 in1.5 mm
05:03 PM 37.3°F2.9°C 30.8°F-0.7°C 77% 19.9 mph WSW32.0 kmh WSW 24.0 mph38.6 kmh 29.56 in1001.0 mb 0.00 in0.0 mm 0.00 in0.0 mm 0.06 in1.5 mm
05:04 PM 37.3°F2.9°C 30.4°F-0.9°C 76% 18.7 mph WSW30.1 kmh WSW 24.0 mph38.6 kmh 29.56 in1001.0 mb 0.00 in0.0 mm 0.00 in0.0 mm 0.06 in1.5 mm
05:05 PM 37.2°F2.9°C 30.7°F-0.7°C 77% 19.8 mph WSW31.9 kmh WSW 22.0 mph35.4 kmh 29.56 in1001.0 mb 0.00 in0.0 mm 0.00 in0.0 mm 0.06 in1.5 mm
05:06 PM 37.1°F2.8°C 30.6°F-0.8°C 77% 18.9 mph WSW30.4 kmh WSW 22.0 mph35.4 kmh 29.56 in1001.0 mb 0.00 in0.0 mm 0.00 in0.0 mm 0.06 in1.5 mm
05:07 PM 37.1°F2.8°C 30.6°F-0.8°C 77% 18.6 mph WSW29.9 kmh WSW 21.0 mph33.8 kmh 29.56 in1001.0 mb 0.00 in0.0 mm 0.00 in0.0 mm 0.06 in1.5 mm
05:08 PM 37.1°F2.8°C 30.6°F-0.8°C 77% 19.2 mph WSW30.9 kmh WSW 21.0 mph33.8 kmh 29.56 in1001.0 mb 0.00 in0.0 mm 0.00 in0.0 mm 0.06 in1.5 mm
05:09 PM 37.1°F2.8°C 30.6°F-0.8°C 77% 18.8 mph WSW30.3 kmh WSW 21.0 mph33.8 kmh 29.56 in1001.0 mb 0.00 in0.0 mm 0.00 in0.0 mm 0.06 in1.5 mm
05:10 PM 37.0°F2.8°C 30.5°F-0.8°C 77% 18.8 mph WSW30.3 kmh WSW 23.0 mph37.0 kmh 29.56 in1001.0 mb 0.00 in0.0 mm 0.00 in0.0 mm 0.06 in1.5 mm
05:11 PM 37.0°F2.8°C 30.8°F-0.7°C 78% 20.9 mph WSW33.6 kmh WSW 24.0 mph38.6 kmh 29.56 in1001.0 mb 0.00 in0.0 mm 0.00 in0.0 mm 0.06 in1.5 mm
05:12 PM 37.1°F2.8°C 30.6°F-0.8°C 77% 22.3 mph WSW35.9 kmh WSW 25.0 mph40.2 kmh 29.56 in1001.0 mb 0.00 in0.0 mm 0.00 in0.0 mm 0.06 in1.5 mm
05:13 PM 37.1°F2.8°C 30.6°F-0.8°C 77% 21.1 mph WSW34.0 kmh WSW 26.0 mph41.8 kmh 29.56 in1001.0 mb 0.00 in0.0 mm 0.00 in0.0 mm 0.06 in1.5 mm
05:14 PM 37.1°F2.8°C 30.6°F-0.8°C 77% 20.8 mph WSW33.5 kmh WSW 26.0 mph41.8 kmh 29.56 in1001.0 mb 0.00 in0.0 mm 0.00 in0.0 mm 0.06 in1.5 mm
05:15 PM 37.1°F2.8°C 30.6°F-0.8°C 77% 21.3 mph WSW34.3 kmh WSW 26.0 mph41.8 kmh 29.56 in1001.0 mb 0.00 in0.0 mm 0.00 in0.0 mm 0.06 in1.5 mm
05:16 PM 37.1°F2.8°C 30.6°F-0.8°C 77% 20.8 mph WSW33.5 kmh WSW 25.0 mph40.2 kmh 29.56 in1001.0 mb 0.00 in0.0 mm 0.00 in0.0 mm 0.06 in1.5 mm
05:17 PM 37.1°F2.8°C 30.6°F-0.8°C 77% 18.4 mph WSW29.6 kmh WSW 24.0 mph38.6 kmh 29.56 in1001.0 mb 0.00 in0.0 mm 0.00 in0.0 mm 0.06 in1.5 mm
05:18 PM 37.1°F2.8°C 30.6°F-0.8°C 77% 21.4 mph WSW34.4 kmh WSW 25.0 mph40.2 kmh 29.56 in1001.0 mb 0.00 in0.0 mm 0.00 in0.0 mm 0.06 in1.5 mm
05:19 PM 37.1°F2.8°C 30.6°F-0.8°C 77% 22.3 mph W35.9 kmh W 27.0 mph43.5 kmh 29.56 in1001.0 mb 0.00 in0.0 mm 0.00 in0.0 mm 0.06 in1.5 mm
05:20 PM 37.2°F2.9°C 30.7°F-0.7°C 77% 23.2 mph W37.3 kmh W 29.0 mph46.7 kmh 29.56 in1001.0 mb 0.00 in0.0 mm 0.00 in0.0 mm 0.06 in1.5 mm
05:21 PM 37.2°F2.9°C 30.7°F-0.7°C 77% 26.2 mph W42.2 kmh W 31.0 mph49.9 kmh 29.56 in1001.0 mb 0.00 in0.0 mm 0.00 in0.0 mm 0.06 in1.5 mm
05:22 PM 37.4°F3.0°C 30.2°F-1.0°C 75% 27.2 mph W43.8 kmh W 33.0 mph53.1 kmh 29.56 in1001.0 mb 0.00 in0.0 mm 0.00 in0.0 mm 0.06 in1.5 mm
05:23 PM 37.5°F3.1°C 30.0°F-1.1°C 74% 27.1 mph W43.6 kmh W 33.0 mph53.1 kmh 29.56 in1001.0 mb 0.00 in0.0 mm 0.00 in0.0 mm 0.06 in1.5 mm
05:24 PM 37.5°F3.1°C 30.6°F-0.8°C 76% 26.0 mph W41.8 kmh W 33.0 mph53.1 kmh 29.56 in1001.0 mb 0.00 in0.0 mm 0.00 in0.0 mm 0.06 in1.5 mm
05:25 PM 37.5°F3.1°C 30.3°F-0.9°C 75% 27.5 mph W44.3 kmh W 33.0 mph53.1 kmh 29.56 in1001.0 mb 0.00 in0.0 mm 0.00 in0.0 mm 0.06 in1.5 mm
05:26 PM 37.5°F3.1°C 30.3°F-0.9°C 75% 26.8 mph W43.1 kmh W 32.0 mph51.5 kmh 29.56 in1001.0 mb 0.00 in0.0 mm 0.00 in0.0 mm 0.06 in1.5 mm
05:27 PM 37.4°F3.0°C 30.2°F-1.0°C 75% 25.2 mph W40.6 kmh W 30.0 mph48.3 kmh 29.56 in1001.0 mb 0.00 in0.0 mm 0.00 in0.0 mm 0.06 in1.5 mm
05:28 PM 37.3°F2.9°C 30.1°F-1.1°C 75% 26.6 mph WSW42.8 kmh WSW 33.0 mph53.1 kmh 29.56 in1001.0 mb 0.00 in0.0 mm 0.00 in0.0 mm 0.06 in1.5 mm
05:29 PM 37.3°F2.9°C 29.8°F-1.2°C 74% 25.9 mph WSW41.7 kmh WSW 33.0 mph53.1 kmh 29.56 in1001.0 mb 0.00 in0.0 mm 0.00 in0.0 mm 0.06 in1.5 mm
05:30 PM 37.2°F2.9°C 30.0°F-1.1°C 75% 25.3 mph WSW40.7 kmh WSW 30.0 mph48.3 kmh 29.56 in1001.0 mb 0.00 in0.0 mm 0.00 in0.0 mm 0.06 in1.5 mm
05:31 PM 37.0°F2.8°C 30.2°F-1.0°C 76% 24.3 mph WSW39.1 kmh WSW 28.0 mph45.1 kmh 29.57 in1001.4 mb 0.00 in0.0 mm 0.00 in0.0 mm 0.06 in1.5 mm
05:32 PM 36.7°F2.6°C 30.2°F-1.0°C 77% 23.1 mph WSW37.2 kmh WSW 27.0 mph43.5 kmh 29.57 in1001.4 mb 0.00 in0.0 mm 0.00 in0.0 mm 0.06 in1.5 mm
05:33 PM 36.6°F2.6°C 30.4°F-0.9°C 78% 23.9 mph WSW38.5 kmh WSW 29.0 mph46.7 kmh 29.57 in1001.4 mb 0.00 in0.0 mm 0.00 in0.0 mm 0.06 in1.5 mm
05:34 PM 36.5°F2.5°C 30.3°F-0.9°C 78% 23.1 mph WSW37.2 kmh WSW 29.0 mph46.7 kmh 29.57 in1001.4 mb 0.00 in0.0 mm 0.00 in0.0 mm 0.06 in1.5 mm
05:35 PM 36.4°F2.4°C 30.2°F-1.0°C 78% 20.2 mph WSW32.5 kmh WSW 26.0 mph41.8 kmh 29.57 in1001.4 mb 0.00 in0.0 mm 0.00 in0.0 mm 0.06 in1.5 mm
05:36 PM 36.5°F2.5°C 30.3°F-0.9°C 78% 20.5 mph WSW33.0 kmh WSW 25.0 mph40.2 kmh 29.57 in1001.4 mb 0.00 in0.0 mm 0.00 in0.0 mm 0.06 in1.5 mm
05:37 PM 36.5°F2.5°C 30.3°F-0.9°C 78% 20.6 mph WSW33.2 kmh WSW 24.0 mph38.6 kmh 29.57 in1001.4 mb 0.00 in0.0 mm 0.00 in0.0 mm 0.06 in1.5 mm
05:38 PM 36.5°F2.5°C 30.3°F-0.9°C 78% 19.5 mph WSW31.4 kmh WSW 24.0 mph38.6 kmh 29.57 in1001.4 mb 0.00 in0.0 mm 0.00 in0.0 mm 0.06 in1.5 mm
05:39 PM 36.5°F2.5°C 30.3°F-0.9°C 78% 19.1 mph WSW30.7 kmh WSW 23.0 mph37.0 kmh 29.57 in1001.4 mb 0.00 in0.0 mm 0.00 in0.0 mm 0.06 in1.5 mm
05:40 PM 36.5°F2.5°C 30.6°F-0.8°C 79% 18.7 mph WSW30.1 kmh WSW 23.0 mph37.0 kmh 29.57 in1001.4 mb 0.00 in0.0 mm 0.00 in0.0 mm 0.06 in1.5 mm
05:41 PM 36.4°F2.4°C 30.5°F-0.8°C 79% 18.4 mph WSW29.6 kmh WSW 23.0 mph37.0 kmh 29.57 in1001.4 mb 0.00 in0.0 mm 0.00 in0.0 mm 0.06 in1.5 mm
05:42 PM 36.4°F2.4°C 30.5°F-0.8°C 79% 18.5 mph WSW29.8 kmh WSW 23.0 mph37.0 kmh 29.57 in1001.4 mb 0.00 in0.0 mm 0.00 in0.0 mm 0.06 in1.5 mm
05:43 PM 36.4°F2.4°C 30.5°F-0.8°C 79% 18.9 mph WSW30.4 kmh WSW 22.0 mph35.4 kmh 29.57 in1001.4 mb 0.00 in0.0 mm 0.00 in0.0 mm 0.06 in1.5 mm
05:44 PM 36.4°F2.4°C 30.5°F-0.8°C 79% 18.9 mph WSW30.4 kmh WSW 22.0 mph35.4 kmh 29.57 in1001.4 mb 0.00 in0.0 mm 0.00 in0.0 mm 0.06 in1.5 mm
05:45 PM 36.4°F2.4°C 30.5°F-0.8°C 79% 17.8 mph WSW28.6 kmh WSW 21.0 mph33.8 kmh 29.57 in1001.4 mb 0.00 in0.0 mm 0.00 in0.0 mm 0.06 in1.5 mm
05:46 PM 36.4°F2.4°C 30.5°F-0.8°C 79% 19.2 mph WSW30.9 kmh WSW 21.0 mph33.8 kmh 29.57 in1001.4 mb 0.00 in0.0 mm 0.00 in0.0 mm 0.06 in1.5 mm
05:47 PM 36.3°F2.4°C 30.4°F-0.9°C 79% 19.8 mph WSW31.9 kmh WSW 22.0 mph35.4 kmh 29.57 in1001.4 mb 0.00 in0.0 mm 0.00 in0.0 mm 0.06 in1.5 mm
05:48 PM 36.3°F2.4°C 30.4°F-0.9°C 79% 19.0 mph WSW30.6 kmh WSW 22.0 mph35.4 kmh 29.57 in1001.4 mb 0.00 in0.0 mm 0.00 in0.0 mm 0.06 in1.5 mm
05:49 PM 36.3°F2.4°C 30.4°F-0.9°C 79% 19.8 mph WSW31.9 kmh WSW 23.0 mph37.0 kmh 29.57 in1001.4 mb 0.00 in0.0 mm 0.00 in0.0 mm 0.06 in1.5 mm
05:50 PM 36.3°F2.4°C 30.4°F-0.9°C 79% 18.0 mph WSW29.0 kmh WSW 23.0 mph37.0 kmh 29.57 in1001.4 mb 0.00 in0.0 mm 0.00 in0.0 mm 0.06 in1.5 mm
05:51 PM 36.3°F2.4°C 30.4°F-0.9°C 79% 16.4 mph WSW26.4 kmh WSW 20.0 mph32.2 kmh 29.58 in1001.7 mb 0.00 in0.0 mm 0.00 in0.0 mm 0.06 in1.5 mm
05:52 PM 36.3°F2.4°C 30.4°F-0.9°C 79% 16.3 mph WSW26.2 kmh WSW 19.0 mph30.6 kmh 29.58 in1001.7 mb 0.00 in0.0 mm 0.00 in0.0 mm 0.06 in1.5 mm
05:53 PM 36.3°F2.4°C 30.4°F-0.9°C 79% 17.4 mph WSW28.0 kmh WSW 20.0 mph32.2 kmh 29.58 in1001.7 mb 0.00 in0.0 mm 0.00 in0.0 mm 0.06 in1.5 mm
05:54 PM 36.3°F2.4°C 30.4°F-0.9°C 79% 17.1 mph WSW27.5 kmh WSW 20.0 mph32.2 kmh 29.58 in1001.7 mb 0.00 in0.0 mm 0.00 in0.0 mm 0.06 in1.5 mm
05:55 PM 36.2°F2.3°C 30.3°F-0.9°C 79% 17.9 mph WSW28.8 kmh WSW 21.0 mph33.8 kmh 29.58 in1001.7 mb 0.00 in0.0 mm 0.00 in0.0 mm 0.06 in1.5 mm
05:56 PM 36.3°F2.4°C 30.4°F-0.9°C 79% 18.8 mph WSW30.3 kmh WSW 22.0 mph35.4 kmh 29.58 in1001.7 mb 0.00 in0.0 mm 0.00 in0.0 mm 0.06 in1.5 mm
05:57 PM 36.3°F2.4°C 30.4°F-0.9°C 79% 19.1 mph WSW30.7 kmh WSW 22.0 mph35.4 kmh 29.58 in1001.7 mb 0.00 in0.0 mm 0.00 in0.0 mm 0.06 in1.5 mm
05:58 PM 36.4°F2.4°C 30.5°F-0.8°C 79% 17.7 mph WSW28.5 kmh WSW 21.0 mph33.8 kmh 29.58 in1001.7 mb 0.00 in0.0 mm 0.00 in0.0 mm 0.06 in1.5 mm
05:59 PM 36.4°F2.4°C 30.5°F-0.8°C 79% 17.5 mph WSW28.2 kmh WSW 21.0 mph33.8 kmh 29.58 in1001.7 mb 0.00 in0.0 mm 0.00 in0.0 mm 0.06 in1.5 mm
06:00 PM 36.3°F2.4°C 30.4°F-0.9°C 79% 18.9 mph WSW30.4 kmh WSW 21.0 mph33.8 kmh 29.58 in1001.7 mb 0.00 in0.0 mm 0.00 in0.0 mm 0.06 in1.5 mm
06:01 PM 36.4°F2.4°C 30.5°F-0.8°C 79% 18.7 mph WSW30.1 kmh WSW 22.0 mph35.4 kmh 29.58 in1001.7 mb 0.00 in0.0 mm 0.00 in0.0 mm 0.06 in1.5 mm
06:02 PM 36.4°F2.4°C 30.5°F-0.8°C 79% 18.5 mph W29.8 kmh W 22.0 mph35.4 kmh 29.58 in1001.7 mb 0.00 in0.0 mm 0.00 in0.0 mm 0.06 in1.5 mm
06:03 PM 36.3°F2.4°C 30.4°F-0.9°C 79% 17.5 mph W28.2 kmh W 22.0 mph35.4 kmh 29.58 in1001.7 mb 0.00 in0.0 mm 0.00 in0.0 mm 0.06 in1.5 mm
06:04 PM 36.3°F2.4°C 30.4°F-0.9°C 79% 17.9 mph W28.8 kmh W 20.0 mph32.2 kmh 29.59 in1002.0 mb 0.00 in0.0 mm 0.00 in0.0 mm 0.06 in1.5 mm
06:05 PM 36.3°F2.4°C 30.4°F-0.9°C 79% 20.4 mph W32.8 kmh W 24.0 mph38.6 kmh 29.59 in1002.0 mb 0.00 in0.0 mm 0.00 in0.0 mm 0.06 in1.5 mm
06:06 PM 36.4°F2.4°C 30.5°F-0.8°C 79% 20.6 mph W33.2 kmh W 25.0 mph40.2 kmh 29.59 in1002.0 mb 0.00 in0.0 mm 0.00 in0.0 mm 0.06 in1.5 mm
06:07 PM 36.4°F2.4°C 30.5°F-0.8°C 79% 22.2 mph W35.7 kmh W 28.0 mph45.1 kmh 29.59 in1002.0 mb 0.00 in0.0 mm 0.00 in0.0 mm 0.06 in1.5 mm
06:08 PM 36.6°F2.6°C 30.4°F-0.9°C 78% 23.8 mph W38.3 kmh W 28.0 mph45.1 kmh 29.59 in1002.0 mb 0.00 in0.0 mm 0.00 in0.0 mm 0.06 in1.5 mm
06:09 PM 36.6°F2.6°C 30.4°F-0.9°C 78% 19.8 mph W31.9 kmh W 27.0 mph43.5 kmh 29.59 in1002.0 mb 0.00 in0.0 mm 0.00 in0.0 mm 0.06 in1.5 mm
06:10 PM 36.6°F2.6°C 30.4°F-0.9°C 78% 24.7 mph W39.8 kmh W 29.0 mph46.7 kmh 29.59 in1002.0 mb 0.00 in0.0 mm 0.00 in0.0 mm 0.06 in1.5 mm
06:11 PM 36.6°F2.6°C 30.7°F-0.7°C 79% 28.4 mph W45.7 kmh W 35.0 mph56.3 kmh 29.59 in1002.0 mb 0.00 in0.0 mm 0.00 in0.0 mm 0.06 in1.5 mm
06:12 PM 36.6°F2.6°C 30.7°F-0.7°C 79% 28.6 mph W46.0 kmh W 35.0 mph56.3 kmh 29.59 in1002.0 mb 0.00 in0.0 mm 0.00 in0.0 mm 0.06 in1.5 mm
06:13 PM 36.5°F2.5°C 30.6°F-0.8°C 79% 26.6 mph W42.8 kmh W 31.0 mph49.9 kmh 29.59 in1002.0 mb 0.00 in0.0 mm 0.00 in0.0 mm 0.06 in1.5 mm
06:14 PM 36.4°F2.4°C 30.5°F-0.8°C 79% 20.3 mph W32.7 kmh W 29.0 mph46.7 kmh 29.59 in1002.0 mb 0.00 in0.0 mm 0.00 in0.0 mm 0.06 in1.5 mm
06:15 PM 36.4°F2.4°C 30.5°F-0.8°C 79% 21.0 mph W33.8 kmh W 24.0 mph38.6 kmh 29.59 in1002.0 mb 0.00 in0.0 mm 0.00 in0.0 mm 0.06 in1.5 mm
06:16 PM 36.3°F2.4°C 30.7°F-0.7°C 80% 24.0 mph W38.6 kmh W 27.0 mph43.5 kmh 29.59 in1002.0 mb 0.00 in0.0 mm 0.00 in0.0 mm 0.06 in1.5 mm
06:17 PM 36.2°F2.3°C 30.6°F-0.8°C 80% 21.3 mph WSW34.3 kmh WSW 27.0 mph43.5 kmh 29.59 in1002.0 mb 0.00 in0.0 mm 0.00 in0.0 mm 0.06 in1.5 mm
06:18 PM 36.1°F2.3°C 30.5°F-0.8°C 80% 22.8 mph WSW36.7 kmh WSW 29.0 mph46.7 kmh 29.59 in1002.0 mb 0.00 in0.0 mm 0.00 in0.0 mm 0.06 in1.5 mm
06:19 PM 35.9°F2.2°C 30.6°F-0.8°C 81% 23.3 mph WSW37.5 kmh WSW 29.0 mph46.7 kmh 29.59 in1002.0 mb 0.00 in0.0 mm 0.00 in0.0 mm 0.06 in1.5 mm
06:20 PM 35.8°F2.1°C 30.9°F-0.6°C 82% 21.0 mph WSW33.8 kmh WSW 27.0 mph43.5 kmh 29.59 in1002.0 mb 0.00 in0.0 mm 0.00 in0.0 mm 0.06 in1.5 mm
06:21 PM 35.7°F2.1°C 31.1°F-0.5°C 83% 20.2 mph WSW32.5 kmh WSW 24.0 mph38.6 kmh 29.59 in1002.0 mb 0.00 in0.0 mm 0.00 in0.0 mm 0.06 in1.5 mm
06:22 PM 35.6°F2.0°C 31.0°F-0.6°C 83% 18.8 mph WSW30.3 kmh WSW 24.0 mph38.6 kmh 29.59 in1002.0 mb 0.00 in0.0 mm 0.00 in0.0 mm 0.06 in1.5 mm
06:23 PM 35.5°F1.9°C 30.9°F-0.6°C 83% 17.7 mph WSW28.5 kmh WSW 21.0 mph33.8 kmh 29.59 in1002.0 mb 0.00 in0.0 mm 0.00 in0.0 mm 0.06 in1.5 mm
06:24 PM 35.4°F1.9°C 30.8°F-0.7°C 83% 18.3 mph WSW29.5 kmh WSW 21.0 mph33.8 kmh 29.59 in1002.0 mb 0.00 in0.0 mm 0.00 in0.0 mm 0.06 in1.5 mm
06:25 PM 35.4°F1.9°C 31.1°F-0.5°C 84% 18.4 mph WSW29.6 kmh WSW 21.0 mph33.8 kmh 29.59 in1002.0 mb 0.00 in0.0 mm 0.00 in0.0 mm 0.06 in1.5 mm
06:26 PM 35.4°F1.9°C 31.1°F-0.5°C 84% 17.2 mph WSW27.7 kmh WSW 20.0 mph32.2 kmh 29.59 in1002.0 mb 0.00 in0.0 mm 0.00 in0.0 mm 0.06 in1.5 mm
06:27 PM 35.3°F1.8°C 31.0°F-0.6°C 84% 16.9 mph WSW27.2 kmh WSW 20.0 mph32.2 kmh 29.59 in1002.0 mb 0.00 in0.0 mm 0.00 in0.0 mm 0.06 in1.5 mm
06:28 PM 35.3°F1.8°C 31.0°F-0.6°C 84% 16.1 mph WSW25.9 kmh WSW 20.0 mph32.2 kmh 29.59 in1002.0 mb 0.00 in0.0 mm 0.00 in0.0 mm 0.06 in1.5 mm
06:29 PM 35.3°F1.8°C 31.0°F-0.6°C 84% 16.0 mph WSW25.7 kmh WSW 18.0 mph29.0 kmh 29.59 in1002.0 mb 0.00 in0.0 mm 0.00 in0.0 mm 0.06 in1.5 mm
06:30 PM 35.3°F1.8°C 31.0°F-0.6°C 84% 18.1 mph WSW29.1 kmh WSW 20.0 mph32.2 kmh 29.59 in1002.0 mb 0.00 in0.0 mm 0.00 in0.0 mm 0.06 in1.5 mm
06:31 PM 35.3°F1.8°C 31.0°F-0.6°C 84% 17.9 mph WSW28.8 kmh WSW 21.0 mph33.8 kmh 29.59 in1002.0 mb 0.00 in0.0 mm 0.00 in0.0 mm 0.06 in1.5 mm
06:32 PM 35.3°F1.8°C 31.0°F-0.6°C 84% 18.3 mph WSW29.5 kmh WSW 20.0 mph32.2 kmh 29.59 in1002.0 mb 0.00 in0.0 mm 0.00 in0.0 mm 0.06 in1.5 mm
06:33 PM 35.3°F1.8°C 31.0°F-0.6°C 84% 16.9 mph WSW27.2 kmh WSW 20.0 mph32.2 kmh 29.59 in1002.0 mb 0.00 in0.0 mm 0.00 in0.0 mm 0.06 in1.5 mm
06:34 PM 35.3°F1.8°C 31.0°F-0.6°C 84% 16.5 mph WSW26.6 kmh WSW 19.0 mph30.6 kmh 29.59 in1002.0 mb 0.00 in0.0 mm 0.00 in0.0 mm 0.06 in1.5 mm
06:35 PM 35.2°F1.8°C 30.9°F-0.6°C 84% 16.6 mph WSW26.7 kmh WSW 19.0 mph30.6 kmh 29.59 in1002.0 mb 0.00 in0.0 mm 0.00 in0.0 mm 0.06 in1.5 mm
06:36 PM 35.3°F1.8°C 31.0°F-0.6°C 84% 16.3 mph WSW26.2 kmh WSW 18.0 mph29.0 kmh 29.59 in1002.0 mb 0.00 in0.0 mm 0.00 in0.0 mm 0.06 in1.5 mm
06:37 PM 35.3°F1.8°C 31.2°F-0.4°C 85% 15.9 mph WSW25.6 kmh WSW 18.0 mph29.0 kmh 29.59 in1002.0 mb 0.00 in0.0 mm 0.00 in0.0 mm 0.06 in1.5 mm
06:38 PM 35.3°F1.8°C 31.2°F-0.4°C 85% 16.6 mph WSW26.7 kmh WSW 18.0 mph29.0 kmh 29.60 in1002.4 mb 0.00 in0.0 mm 0.00 in0.0 mm 0.06 in1.5 mm
06:39 PM 35.3°F1.8°C 31.2°F-0.4°C 85% 16.6 mph WSW26.7 kmh WSW 18.0 mph29.0 kmh 29.60 in1002.4 mb 0.00 in0.0 mm 0.00 in0.0 mm 0.06 in1.5 mm
06:40 PM 35.3°F1.8°C 31.2°F-0.4°C 85% 15.3 mph WSW24.6 kmh WSW 18.0 mph29.0 kmh 29.60 in1002.4 mb 0.00 in0.0 mm 0.00 in0.0 mm 0.06 in1.5 mm
06:41 PM 35.3°F1.8°C 31.2°F-0.4°C 85% 14.8 mph WSW23.8 kmh WSW 17.0 mph27.4 kmh 29.60 in1002.4 mb 0.00 in0.0 mm 0.00 in0.0 mm 0.06 in1.5 mm
06:42 PM 35.2°F1.8°C 31.2°F-0.4°C 85% 15.1 mph WSW24.3 kmh WSW 18.0 mph29.0 kmh 29.60 in1002.4 mb 0.00 in0.0 mm 0.00 in0.0 mm 0.06 in1.5 mm
06:43 PM 35.3°F1.8°C 31.2°F-0.4°C 85% 15.6 mph WSW25.1 kmh WSW 18.0 mph29.0 kmh 29.60 in1002.4 mb 0.00 in0.0 mm 0.00 in0.0 mm 0.06 in1.5 mm
06:44 PM 35.4°F1.9°C 31.1°F-0.5°C 84% 15.4 mph WSW24.8 kmh WSW 18.0 mph29.0 kmh 29.60 in1002.4 mb 0.00 in0.0 mm 0.00 in0.0 mm 0.06 in1.5 mm
06:45 PM 35.3°F1.8°C 31.0°F-0.6°C 84% 15.7 mph WSW25.3 kmh WSW 19.0 mph30.6 kmh 29.60 in1002.4 mb 0.00 in0.0 mm 0.00 in0.0 mm 0.06 in1.5 mm
06:46 PM 35.4°F1.9°C 31.1°F-0.5°C 84% 16.2 mph WSW26.1 kmh WSW 19.0 mph30.6 kmh 29.60 in1002.4 mb 0.00 in0.0 mm 0.00 in0.0 mm 0.06 in1.5 mm
06:47 PM 35.5°F1.9°C 31.2°F-0.4°C 84% 15.3 mph WSW24.6 kmh WSW 18.0 mph29.0 kmh 29.60 in1002.4 mb 0.00 in0.0 mm 0.00 in0.0 mm 0.06 in1.5 mm
06:48 PM 35.5°F1.9°C 31.2°F-0.4°C 84% 15.9 mph WSW25.6 kmh WSW 19.0 mph30.6 kmh 29.60 in1002.4 mb 0.00 in0.0 mm 0.00 in0.0 mm 0.06 in1.5 mm
06:49 PM 35.6°F2.0°C 31.0°F-0.6°C 83% 15.7 mph WSW25.3 kmh WSW 19.0 mph30.6 kmh 29.60 in1002.4 mb 0.00 in0.0 mm 0.00 in0.0 mm 0.06 in1.5 mm
06:50 PM 35.7°F2.1°C 31.1°F-0.5°C 83% 15.8 mph WSW25.4 kmh WSW 18.0 mph29.0 kmh 29.60 in1002.4 mb 0.00 in0.0 mm 0.00 in0.0 mm 0.06 in1.5 mm
06:51 PM 35.7°F2.1°C 31.1°F-0.5°C 83% 14.6 mph WSW23.5 kmh WSW 18.0 mph29.0 kmh 29.60 in1002.4 mb 0.00 in0.0 mm 0.00 in0.0 mm 0.06 in1.5 mm
06:52 PM 35.7°F2.1°C 31.1°F-0.5°C 83% 15.4 mph WSW24.8 kmh WSW 17.0 mph27.4 kmh 29.60 in1002.4 mb 0.00 in0.0 mm 0.00 in0.0 mm 0.06 in1.5 mm
06:53 PM 35.7°F2.1°C 31.1°F-0.5°C 83% 16.3 mph WSW26.2 kmh WSW 19.0 mph30.6 kmh 29.60 in1002.4 mb 0.00 in0.0 mm 0.00 in0.0 mm 0.06 in1.5 mm
06:54 PM 35.8°F2.1°C 30.9°F-0.6°C 82% 14.4 mph WSW23.2 kmh WSW 19.0 mph30.6 kmh 29.60 in1002.4 mb 0.00 in0.0 mm 0.00 in0.0 mm 0.06 in1.5 mm
06:55 PM 35.8°F2.1°C 30.9°F-0.6°C 82% 14.9 mph WSW24.0 kmh WSW 16.0 mph25.7 kmh 29.60 in1002.4 mb 0.00 in0.0 mm 0.00 in0.0 mm 0.06 in1.5 mm
06:56 PM 35.8°F2.1°C 30.9°F-0.6°C 82% 15.8 mph WSW25.4 kmh WSW 18.0 mph29.0 kmh 29.60 in1002.4 mb 0.00 in0.0 mm 0.00 in0.0 mm 0.06 in1.5 mm
06:57 PM 35.8°F2.1°C 30.9°F-0.6°C 82% 17.3 mph WSW27.8 kmh WSW 19.0 mph30.6 kmh 29.60 in1002.4 mb 0.00 in0.0 mm 0.00 in0.0 mm 0.06 in1.5 mm
06:58 PM 35.9°F2.2°C 31.0°F-0.6°C 82% 16.2 mph WSW26.1 kmh WSW 19.0 mph30.6 kmh 29.60 in1002.4 mb 0.00 in0.0 mm 0.00 in0.0 mm 0.06 in1.5 mm
06:59 PM 35.9°F2.2°C 31.0°F-0.6°C 82% 16.5 mph WSW26.6 kmh WSW 20.0 mph32.2 kmh 29.60 in1002.4 mb 0.00 in0.0 mm 0.00 in0.0 mm 0.06 in1.5 mm
07:00 PM 35.9°F2.2°C 31.0°F-0.6°C 82% 17.1 mph WSW27.5 kmh WSW 20.0 mph32.2 kmh 29.60 in1002.4 mb 0.00 in0.0 mm 0.00 in0.0 mm 0.06 in1.5 mm
07:01 PM 36.0°F2.2°C 31.0°F-0.6°C 82% 18.4 mph W29.6 kmh W 23.0 mph37.0 kmh 29.61 in1002.7 mb 0.00 in0.0 mm 0.00 in0.0 mm 0.06 in1.5 mm
07:02 PM 36.0°F2.2°C 31.0°F-0.6°C 82% 17.2 mph WSW27.7 kmh WSW 23.0 mph37.0 kmh 29.61 in1002.7 mb 0.00 in0.0 mm 0.00 in0.0 mm 0.06 in1.5 mm
07:03 PM 36.0°F2.2°C 31.0°F-0.6°C 82% 17.2 mph WSW27.7 kmh WSW 20.0 mph32.2 kmh 29.61 in1002.7 mb 0.00 in0.0 mm 0.00 in0.0 mm 0.06 in1.5 mm
07:04 PM 36.0°F2.2°C 31.0°F-0.6°C 82% 17.9 mph WSW28.8 kmh WSW 20.0 mph32.2 kmh 29.61 in1002.7 mb 0.00 in0.0 mm 0.00 in0.0 mm 0.06 in1.5 mm
07:05 PM 36.1°F2.3°C 31.1°F-0.5°C 82% 17.1 mph WSW27.5 kmh WSW 20.0 mph32.2 kmh 29.61 in1002.7 mb 0.00 in0.0 mm 0.00 in0.0 mm 0.06 in1.5 mm
07:06 PM 36.0°F2.2°C 31.0°F-0.6°C 82% 18.2 mph WSW29.3 kmh WSW 20.0 mph32.2 kmh 29.61 in1002.7 mb 0.00 in0.0 mm 0.00 in0.0 mm 0.06 in1.5 mm
07:07 PM 36.0°F2.2°C 31.0°F-0.6°C 82% 17.3 mph W27.8 kmh W 20.0 mph32.2 kmh 29.61 in1002.7 mb 0.00 in0.0 mm 0.00 in0.0 mm 0.06 in1.5 mm
07:08 PM 35.9°F2.2°C 31.0°F-0.6°C 82% 17.4 mph WSW28.0 kmh WSW 20.0 mph32.2 kmh 29.61 in1002.7 mb 0.00 in0.0 mm 0.00 in0.0 mm 0.06 in1.5 mm
07:09 PM 36.0°F2.2°C 31.0°F-0.6°C 82% 16.8 mph WSW27.0 kmh WSW 20.0 mph32.2 kmh 29.61 in1002.7 mb 0.00 in0.0 mm 0.00 in0.0 mm 0.06 in1.5 mm
07:10 PM 36.0°F2.2°C 31.0°F-0.6°C 82% 18.4 mph W29.6 kmh W 21.0 mph33.8 kmh 29.61 in1002.7 mb 0.00 in0.0 mm 0.00 in0.0 mm 0.06 in1.5 mm
07:11 PM 36.0°F2.2°C 31.0°F-0.6°C 82% 18.1 mph W29.1 kmh W 21.0 mph33.8 kmh 29.61 in1002.7 mb 0.00 in0.0 mm 0.00 in0.0 mm 0.06 in1.5 mm
07:12 PM 36.0°F2.2°C 31.0°F-0.6°C 82% 16.6 mph WSW26.7 kmh WSW 19.0 mph30.6 kmh 29.61 in1002.7 mb 0.00 in0.0 mm 0.00 in0.0 mm 0.06 in1.5 mm
07:13 PM 36.0°F2.2°C 31.0°F-0.6°C 82% 16.9 mph W27.2 kmh W 19.0 mph30.6 kmh 29.61 in1002.7 mb 0.00 in0.0 mm 0.00 in0.0 mm 0.06 in1.5 mm
07:14 PM 36.0°F2.2°C 31.0°F-0.6°C 82% 17.6 mph WSW28.3 kmh WSW 20.0 mph32.2 kmh 29.61 in1002.7 mb 0.00 in0.0 mm 0.00 in0.0 mm 0.06 in1.5 mm
07:15 PM 36.0°F2.2°C 31.0°F-0.6°C 82% 16.0 mph W25.7 kmh W 20.0 mph32.2 kmh 29.61 in1002.7 mb 0.00 in0.0 mm 0.00 in0.0 mm 0.06 in1.5 mm
07:16 PM 36.0°F2.2°C 31.0°F-0.6°C 82% 16.2 mph W26.1 kmh W 18.0 mph29.0 kmh 29.62 in1003.0 mb 0.00 in0.0 mm 0.00 in0.0 mm 0.06 in1.5 mm
07:17 PM 35.9°F2.2°C 31.0°F-0.6°C 82% 16.9 mph W27.2 kmh W 20.0 mph32.2 kmh 29.62 in1003.0 mb 0.00 in0.0 mm 0.00 in0.0 mm 0.06 in1.5 mm
07:18 PM 35.9°F2.2°C 31.0°F-0.6°C 82% 18.1 mph W29.1 kmh W 21.0 mph33.8 kmh 29.62 in1003.0 mb 0.00 in0.0 mm 0.00 in0.0 mm 0.06 in1.5 mm
07:19 PM 35.9°F2.2°C 31.0°F-0.6°C 82% 16.5 mph W26.6 kmh W 21.0 mph33.8 kmh 29.62 in1003.0 mb 0.00 in0.0 mm 0.00 in0.0 mm 0.06 in1.5 mm
07:20 PM 35.9°F2.2°C 31.0°F-0.6°C 82% 20.5 mph W33.0 kmh W 29.0 mph46.7 kmh 29.62 in1003.0 mb 0.00 in0.0 mm 0.00 in0.0 mm 0.06 in1.5 mm
07:21 PM 36.0°F2.2°C 31.0°F-0.6°C 82% 21.9 mph WNW35.2 kmh WNW 29.0 mph46.7 kmh 29.63 in1003.4 mb 0.00 in0.0 mm 0.00 in0.0 mm 0.06 in1.5 mm
07:22 PM 36.0°F2.2°C 31.0°F-0.6°C 82% 17.6 mph WNW28.3 kmh WNW 26.0 mph41.8 kmh 29.63 in1003.4 mb 0.00 in0.0 mm 0.00 in0.0 mm 0.06 in1.5 mm
07:23 PM 36.0°F2.2°C 31.0°F-0.6°C 82% 18.2 mph WNW29.3 kmh WNW 21.0 mph33.8 kmh 29.63 in1003.4 mb 0.00 in0.0 mm 0.00 in0.0 mm 0.06 in1.5 mm
07:24 PM 35.7°F2.1°C 31.1°F-0.5°C 83% 19.9 mph WNW32.0 kmh WNW 23.0 mph37.0 kmh 29.63 in1003.4 mb 0.00 in0.0 mm 0.00 in0.0 mm 0.06 in1.5 mm
07:25 PM 35.5°F1.9°C 30.9°F-0.6°C 83% 16.9 mph WNW27.2 kmh WNW 23.0 mph37.0 kmh 29.63 in1003.4 mb 0.00 in0.0 mm 0.00 in0.0 mm 0.06 in1.5 mm
07:26 PM 35.3°F1.8°C 31.0°F-0.6°C 84% 17.4 mph WNW28.0 kmh WNW 20.0 mph32.2 kmh 29.63 in1003.4 mb 0.00 in0.0 mm 0.00 in0.0 mm 0.06 in1.5 mm
07:27 PM 35.2°F1.8°C 30.9°F-0.6°C 84% 16.2 mph WNW26.1 kmh WNW 20.0 mph32.2 kmh 29.63 in1003.4 mb 0.00 in0.0 mm 0.00 in0.0 mm 0.06 in1.5 mm
07:28 PM 35.1°F1.7°C 30.8°F-0.7°C 84% 15.8 mph WNW25.4 kmh WNW 18.0 mph29.0 kmh 29.63 in1003.4 mb 0.00 in0.0 mm 0.00 in0.0 mm 0.06 in1.5 mm
07:29 PM 35.1°F1.7°C 31.1°F-0.5°C 85% 15.0 mph WNW24.1 kmh WNW 18.0 mph29.0 kmh 29.63 in1003.4 mb 0.00 in0.0 mm 0.00 in0.0 mm 0.06 in1.5 mm
07:30 PM 35.1°F1.7°C 31.1°F-0.5°C 85% 15.3 mph WNW24.6 kmh WNW 18.0 mph29.0 kmh 29.63 in1003.4 mb 0.00 in0.0 mm 0.00 in0.0 mm 0.06 in1.5 mm
07:31 PM 35.1°F1.7°C 31.1°F-0.5°C 85% 12.9 mph WNW20.8 kmh WNW 18.0 mph29.0 kmh 29.63 in1003.4 mb 0.00 in0.0 mm 0.00 in0.0 mm 0.06 in1.5 mm
07:32 PM 35.0°F1.7°C 31.0°F-0.6°C 85% 14.2 mph WNW22.9 kmh WNW 17.0 mph27.4 kmh 29.63 in1003.4 mb 0.00 in0.0 mm 0.00 in0.0 mm 0.06 in1.5 mm
07:33 PM 35.0°F1.7°C 31.0°F-0.6°C 85% 13.8 mph WNW22.2 kmh WNW 17.0 mph27.4 kmh 29.63 in1003.4 mb 0.00 in0.0 mm 0.00 in0.0 mm 0.06 in